<?xml version="1.0" encoding="UTF-8" standalone="no" ?>
<gpx xmlns="http://www.topografix.com/GPX/1/1" xmlns:xsi="http://www.w3.org/2001/XMLSchema-instance" xsi:schemaLocation="http://www.topografix.com/GPX/1/1 http://www.topografix.com/GPX/1/1/gpx.xsd" version="1.1" creator="VisuGPX - https://www.visugpx.com">
  <metadata>
    <name>le buisson</name>
    <desc><![CDATA[le buisson pic de mus vtt saint laurent de muret]]></desc>
  </metadata>
  <trk>
    <name><![CDATA[pic de mus court 25 km]]></name>
    <trkseg>
      <trkpt lat="44.63073" lon="3.23859">
        <ele>1082.6</ele>
        <time>2014-06-02T13:52:27Z</time>
      </trkpt>
      <trkpt lat="44.63052" lon="3.23831">
        <ele>1084.1</ele>
        <time>2013-06-23T19:52:19Z</time>
      </trkpt>
      <trkpt lat="44.63043" lon="3.23817">
        <ele>1084.8</ele>
        <time>2058-11-02T06:05:45Z</time>
      </trkpt>
      <trkpt lat="44.63026" lon="3.23786">
        <ele>1086.2</ele>
        <time>2058-11-02T06:05:45Z</time>
      </trkpt>
      <trkpt lat="44.62977" lon="3.2378">
        <ele>1086.2</ele>
        <time>2058-11-02T06:05:45Z</time>
      </trkpt>
      <trkpt lat="44.62946" lon="3.23766">
        <ele>1086.4</ele>
        <time>2058-11-02T06:05:45Z</time>
      </trkpt>
      <trkpt lat="44.62895" lon="3.23737">
        <ele>1087.8</ele>
        <time>2058-11-02T06:05:45Z</time>
      </trkpt>
      <trkpt lat="44.62884" lon="3.23749">
        <ele>1087.1</ele>
        <time>2058-11-02T06:05:45Z</time>
      </trkpt>
      <trkpt lat="44.62881" lon="3.23711">
        <ele>1089.7</ele>
        <time>2058-11-02T06:05:45Z</time>
      </trkpt>
      <trkpt lat="44.62802" lon="3.23662">
        <ele>1095</ele>
        <time>2058-11-02T06:05:45Z</time>
      </trkpt>
      <trkpt lat="44.62797" lon="3.2366">
        <ele>1095</ele>
        <time>2058-11-02T06:05:45Z</time>
      </trkpt>
      <trkpt lat="44.62778" lon="3.23575">
        <ele>1099.7</ele>
        <time>2058-11-02T06:05:45Z</time>
      </trkpt>
      <trkpt lat="44.62775" lon="3.23528">
        <ele>1101.5</ele>
        <time>2058-11-02T06:05:45Z</time>
      </trkpt>
      <trkpt lat="44.62726" lon="3.23477">
        <ele>1097.2</ele>
        <time>2411-08-18T14:23:26Z</time>
      </trkpt>
      <trkpt lat="44.62695" lon="3.23417">
        <ele>1095.1</ele>
        <time>2402-04-26T10:05:16Z</time>
      </trkpt>
      <trkpt lat="44.62719" lon="3.23354">
        <ele>1098.6</ele>
        <time>2389-12-07T04:50:30Z</time>
      </trkpt>
      <trkpt lat="44.62738" lon="3.23297">
        <ele>1102</ele>
        <time>2368-02-17T20:14:18Z</time>
      </trkpt>
      <trkpt lat="44.62746" lon="3.23226">
        <ele>1104.6</ele>
        <time>2058-11-02T06:05:45Z</time>
      </trkpt>
      <trkpt lat="44.62742" lon="3.23151">
        <ele>1105.2</ele>
        <time>2037-10-06T14:23:12Z</time>
      </trkpt>
      <trkpt lat="44.62754" lon="3.23084">
        <ele>1106.6</ele>
        <time>2015-02-18T22:00:23Z</time>
      </trkpt>
      <trkpt lat="44.62734" lon="3.2303">
        <ele>1109.7</ele>
        <time>2014-06-11T03:13:12Z</time>
      </trkpt>
      <trkpt lat="44.62738" lon="3.22999">
        <ele>1112.7</ele>
        <time>2014-06-02T20:46:06Z</time>
      </trkpt>
      <trkpt lat="44.62777" lon="3.23002">
        <ele>1115.5</ele>
        <time>2014-06-02T14:06:34Z</time>
      </trkpt>
      <trkpt lat="44.62837" lon="3.22971">
        <ele>1121.9</ele>
        <time>2014-06-02T13:52:58Z</time>
      </trkpt>
      <trkpt lat="44.62875" lon="3.22978">
        <ele>1127.5</ele>
        <time>2014-06-02T13:53:57Z</time>
      </trkpt>
      <trkpt lat="44.62964" lon="3.23055">
        <ele>1143.7</ele>
        <time>2014-06-02T14:27:40Z</time>
      </trkpt>
      <trkpt lat="44.62953" lon="3.23081">
        <ele>1141</ele>
        <time>2014-06-02T14:30:08Z</time>
      </trkpt>
      <trkpt lat="44.62976" lon="3.23026">
        <ele>1146.9</ele>
        <time>2014-06-02T14:35:20Z</time>
      </trkpt>
      <trkpt lat="44.62983" lon="3.23002">
        <ele>1149</ele>
        <time>2014-06-02T14:42:29Z</time>
      </trkpt>
      <trkpt lat="44.63005" lon="3.22968">
        <ele>1152.6</ele>
        <time>2014-06-02T14:57:01Z</time>
      </trkpt>
      <trkpt lat="44.6303" lon="3.2292">
        <ele>1154.3</ele>
        <time>2014-06-02T15:17:45Z</time>
      </trkpt>
      <trkpt lat="44.63068" lon="3.22896">
        <ele>1157.8</ele>
        <time>2014-06-02T15:39:16Z</time>
      </trkpt>
      <trkpt lat="44.63133" lon="3.22824">
        <ele>1151</ele>
        <time>2014-06-02T16:22:18Z</time>
      </trkpt>
      <trkpt lat="44.63169" lon="3.22798">
        <ele>1148</ele>
        <time>2014-06-02T16:43:23Z</time>
      </trkpt>
      <trkpt lat="44.6309" lon="3.22713">
        <ele>1175.6</ele>
        <time>2014-06-02T16:08:22Z</time>
      </trkpt>
      <trkpt lat="44.63022" lon="3.22688">
        <ele>1176.7</ele>
        <time>2014-06-02T15:43:56Z</time>
      </trkpt>
      <trkpt lat="44.62977" lon="3.22636">
        <ele>1179.1</ele>
        <time>2014-06-02T15:23:57Z</time>
      </trkpt>
      <trkpt lat="44.6293" lon="3.22603">
        <ele>1174.8</ele>
        <time>2014-06-02T15:05:33Z</time>
      </trkpt>
      <trkpt lat="44.6288" lon="3.22572">
        <ele>1175.7</ele>
        <time>2014-06-02T14:46:40Z</time>
      </trkpt>
      <trkpt lat="44.62856" lon="3.22522">
        <ele>1179.6</ele>
        <time>2014-06-02T14:32:11Z</time>
      </trkpt>
      <trkpt lat="44.62815" lon="3.22471">
        <ele>1178.6</ele>
        <time>2014-06-02T14:13:39Z</time>
      </trkpt>
      <trkpt lat="44.62804" lon="3.2243">
        <ele>1170</ele>
        <time>2014-06-02T14:03:10Z</time>
      </trkpt>
      <trkpt lat="44.62803" lon="3.22426">
        <ele>1172</ele>
        <time>2014-06-02T14:03:11Z</time>
      </trkpt>
      <trkpt lat="44.62799" lon="3.22414">
        <ele>1168</ele>
        <time>2014-06-02T14:03:14Z</time>
      </trkpt>
      <trkpt lat="44.62797" lon="3.22409">
        <ele>1171</ele>
        <time>2014-06-02T14:03:15Z</time>
      </trkpt>
      <trkpt lat="44.62796" lon="3.22405">
        <ele>1166</ele>
        <time>2014-06-02T14:03:16Z</time>
      </trkpt>
      <trkpt lat="44.62787" lon="3.22384">
        <ele>1170</ele>
        <time>2014-06-02T14:03:21Z</time>
      </trkpt>
      <trkpt lat="44.62783" lon="3.22338">
        <ele>1167</ele>
        <time>2014-06-02T14:03:32Z</time>
      </trkpt>
      <trkpt lat="44.62783" lon="3.22335">
        <ele>1165</ele>
        <time>2014-06-02T14:03:33Z</time>
      </trkpt>
      <trkpt lat="44.62784" lon="3.22326">
        <ele>1166</ele>
        <time>2014-06-02T14:03:36Z</time>
      </trkpt>
      <trkpt lat="44.62784" lon="3.22322">
        <ele>1165</ele>
        <time>2014-06-02T14:03:39Z</time>
      </trkpt>
      <trkpt lat="44.62783" lon="3.2232">
        <ele>1169</ele>
        <time>2014-06-02T14:03:40Z</time>
      </trkpt>
      <trkpt lat="44.62782" lon="3.22319">
        <ele>1165</ele>
        <time>2014-06-02T14:03:41Z</time>
      </trkpt>
      <trkpt lat="44.62782" lon="3.22315">
        <ele>1165</ele>
        <time>2014-06-02T14:03:43Z</time>
      </trkpt>
      <trkpt lat="44.62782" lon="3.22313">
        <ele>1169</ele>
        <time>2014-06-02T14:03:45Z</time>
      </trkpt>
      <trkpt lat="44.62778" lon="3.22297">
        <ele>1165</ele>
        <time>2014-06-02T14:03:51Z</time>
      </trkpt>
      <trkpt lat="44.62777" lon="3.22294">
        <ele>1168</ele>
        <time>2014-06-02T14:03:52Z</time>
      </trkpt>
      <trkpt lat="44.62776" lon="3.22291">
        <ele>1164</ele>
        <time>2014-06-02T14:03:53Z</time>
      </trkpt>
      <trkpt lat="44.62774" lon="3.22287">
        <ele>1164</ele>
        <time>2014-06-02T14:03:54Z</time>
      </trkpt>
      <trkpt lat="44.62771" lon="3.22278">
        <ele>1167</ele>
        <time>2014-06-02T14:03:57Z</time>
      </trkpt>
      <trkpt lat="44.62771" lon="3.22274">
        <ele>1163</ele>
        <time>2014-06-02T14:03:58Z</time>
      </trkpt>
      <trkpt lat="44.62767" lon="3.22264">
        <ele>1166</ele>
        <time>2014-06-02T14:04:01Z</time>
      </trkpt>
      <trkpt lat="44.62766" lon="3.2226">
        <ele>1162</ele>
        <time>2014-06-02T14:04:02Z</time>
      </trkpt>
      <trkpt lat="44.62765" lon="3.22257">
        <ele>1165</ele>
        <time>2014-06-02T14:04:03Z</time>
      </trkpt>
      <trkpt lat="44.62764" lon="3.22253">
        <ele>1167</ele>
        <time>2014-06-02T14:04:04Z</time>
      </trkpt>
      <trkpt lat="44.62763" lon="3.2225">
        <ele>1162</ele>
        <time>2014-06-02T14:04:05Z</time>
      </trkpt>
      <trkpt lat="44.62762" lon="3.22247">
        <ele>1162</ele>
        <time>2014-06-02T14:04:06Z</time>
      </trkpt>
      <trkpt lat="44.62761" lon="3.22241">
        <ele>1167</ele>
        <time>2014-06-02T14:04:08Z</time>
      </trkpt>
      <trkpt lat="44.6276" lon="3.22237">
        <ele>1162</ele>
        <time>2014-06-02T14:04:09Z</time>
      </trkpt>
      <trkpt lat="44.62759" lon="3.22234">
        <ele>1169</ele>
        <time>2014-06-02T14:04:10Z</time>
      </trkpt>
      <trkpt lat="44.62758" lon="3.22231">
        <ele>1162</ele>
        <time>2014-06-02T14:04:11Z</time>
      </trkpt>
      <trkpt lat="44.62757" lon="3.22227">
        <ele>1168</ele>
        <time>2014-06-02T14:04:12Z</time>
      </trkpt>
      <trkpt lat="44.62752" lon="3.22207">
        <ele>1164</ele>
        <time>2014-06-02T14:04:18Z</time>
      </trkpt>
      <trkpt lat="44.62752" lon="3.22204">
        <ele>1168</ele>
        <time>2014-06-02T14:04:19Z</time>
      </trkpt>
      <trkpt lat="44.62751" lon="3.22201">
        <ele>1168</ele>
        <time>2014-06-02T14:04:20Z</time>
      </trkpt>
      <trkpt lat="44.62747" lon="3.22187">
        <ele>1163</ele>
        <time>2014-06-02T14:04:25Z</time>
      </trkpt>
      <trkpt lat="44.62746" lon="3.22184">
        <ele>1167</ele>
        <time>2014-06-02T14:04:26Z</time>
      </trkpt>
      <trkpt lat="44.62739" lon="3.22123">
        <ele>1163</ele>
        <time>2014-06-02T14:04:39Z</time>
      </trkpt>
      <trkpt lat="44.62738" lon="3.22117">
        <ele>1164</ele>
        <time>2014-06-02T14:04:40Z</time>
      </trkpt>
      <trkpt lat="44.62738" lon="3.2211">
        <ele>1164</ele>
        <time>2014-06-02T14:04:41Z</time>
      </trkpt>
      <trkpt lat="44.62735" lon="3.22081">
        <ele>1162</ele>
        <time>2014-06-02T14:04:46Z</time>
      </trkpt>
      <trkpt lat="44.62727" lon="3.22044">
        <ele>1163</ele>
        <time>2014-06-02T14:04:53Z</time>
      </trkpt>
      <trkpt lat="44.62692" lon="3.22">
        <ele>1165</ele>
        <time>2014-06-02T14:05:03Z</time>
      </trkpt>
      <trkpt lat="44.62685" lon="3.21996">
        <ele>1165</ele>
        <time>2014-06-02T14:05:04Z</time>
      </trkpt>
      <trkpt lat="44.62678" lon="3.2199">
        <ele>1165</ele>
        <time>2014-06-02T14:05:05Z</time>
      </trkpt>
      <trkpt lat="44.62673" lon="3.21984">
        <ele>1166</ele>
        <time>2014-06-02T14:05:06Z</time>
      </trkpt>
      <trkpt lat="44.62669" lon="3.21977">
        <ele>1168</ele>
        <time>2014-06-02T14:05:07Z</time>
      </trkpt>
      <trkpt lat="44.62665" lon="3.21969">
        <ele>1168</ele>
        <time>2014-06-02T14:05:08Z</time>
      </trkpt>
      <trkpt lat="44.62662" lon="3.21961">
        <ele>1167</ele>
        <time>2014-06-02T14:05:09Z</time>
      </trkpt>
      <trkpt lat="44.6266" lon="3.21951">
        <ele>1169</ele>
        <time>2014-06-02T14:05:10Z</time>
      </trkpt>
      <trkpt lat="44.6266" lon="3.21916">
        <ele>1170</ele>
        <time>2014-06-02T14:05:13Z</time>
      </trkpt>
      <trkpt lat="44.62661" lon="3.21898">
        <ele>1172</ele>
        <time>2014-06-02T14:05:15Z</time>
      </trkpt>
      <trkpt lat="44.62662" lon="3.2189">
        <ele>1172</ele>
        <time>2014-06-02T14:05:16Z</time>
      </trkpt>
      <trkpt lat="44.62663" lon="3.21881">
        <ele>1172</ele>
        <time>2014-06-02T14:05:17Z</time>
      </trkpt>
      <trkpt lat="44.62664" lon="3.21872">
        <ele>1173</ele>
        <time>2014-06-02T14:05:18Z</time>
      </trkpt>
      <trkpt lat="44.62664" lon="3.21839">
        <ele>1175</ele>
        <time>2014-06-02T14:05:21Z</time>
      </trkpt>
      <trkpt lat="44.62663" lon="3.21803">
        <ele>1178</ele>
        <time>2014-06-02T14:05:24Z</time>
      </trkpt>
      <trkpt lat="44.62663" lon="3.21791">
        <ele>1180</ele>
        <time>2014-06-02T14:05:25Z</time>
      </trkpt>
      <trkpt lat="44.62662" lon="3.21779">
        <ele>1180</ele>
        <time>2014-06-02T14:05:26Z</time>
      </trkpt>
      <trkpt lat="44.62659" lon="3.21756">
        <ele>1184</ele>
        <time>2014-06-02T14:05:28Z</time>
      </trkpt>
      <trkpt lat="44.62657" lon="3.21746">
        <ele>1184</ele>
        <time>2014-06-02T14:05:29Z</time>
      </trkpt>
      <trkpt lat="44.62653" lon="3.21726">
        <ele>1187</ele>
        <time>2014-06-02T14:05:31Z</time>
      </trkpt>
      <trkpt lat="44.62652" lon="3.21716">
        <ele>1187</ele>
        <time>2014-06-02T14:05:32Z</time>
      </trkpt>
      <trkpt lat="44.6265" lon="3.21696">
        <ele>1189</ele>
        <time>2014-06-02T14:05:34Z</time>
      </trkpt>
      <trkpt lat="44.62646" lon="3.21668">
        <ele>1194</ele>
        <time>2014-06-02T14:05:37Z</time>
      </trkpt>
      <trkpt lat="44.6264" lon="3.21645">
        <ele>1196</ele>
        <time>2014-06-02T14:05:40Z</time>
      </trkpt>
      <trkpt lat="44.62637" lon="3.21636">
        <ele>1196</ele>
        <time>2014-06-02T14:05:41Z</time>
      </trkpt>
      <trkpt lat="44.62619" lon="3.21588">
        <ele>1202</ele>
        <time>2014-06-02T14:05:46Z</time>
      </trkpt>
      <trkpt lat="44.62615" lon="3.21578">
        <ele>1201</ele>
        <time>2014-06-02T14:05:47Z</time>
      </trkpt>
      <trkpt lat="44.62599" lon="3.21531">
        <ele>1204</ele>
        <time>2014-06-02T14:05:52Z</time>
      </trkpt>
      <trkpt lat="44.62592" lon="3.21516">
        <ele>1206</ele>
        <time>2014-06-02T14:05:54Z</time>
      </trkpt>
      <trkpt lat="44.62589" lon="3.2151">
        <ele>1206</ele>
        <time>2014-06-02T14:05:55Z</time>
      </trkpt>
      <trkpt lat="44.62575" lon="3.21485">
        <ele>1208</ele>
        <time>2014-06-02T14:05:59Z</time>
      </trkpt>
      <trkpt lat="44.62562" lon="3.21468">
        <ele>1207</ele>
        <time>2014-06-02T14:06:02Z</time>
      </trkpt>
      <trkpt lat="44.6255" lon="3.2145">
        <ele>1209</ele>
        <time>2014-06-02T14:06:05Z</time>
      </trkpt>
      <trkpt lat="44.62542" lon="3.21441">
        <ele>1209</ele>
        <time>2014-06-02T14:06:07Z</time>
      </trkpt>
      <trkpt lat="44.62527" lon="3.21423">
        <ele>1209</ele>
        <time>2014-06-02T14:06:12Z</time>
      </trkpt>
      <trkpt lat="44.62524" lon="3.2142">
        <ele>1210</ele>
        <time>2014-06-02T14:06:13Z</time>
      </trkpt>
      <trkpt lat="44.62521" lon="3.21418">
        <ele>1211</ele>
        <time>2014-06-02T14:06:14Z</time>
      </trkpt>
      <trkpt lat="44.62512" lon="3.21406">
        <ele>1209</ele>
        <time>2014-06-02T14:06:18Z</time>
      </trkpt>
      <trkpt lat="44.62481" lon="3.21379">
        <ele>1210</ele>
        <time>2014-06-02T14:06:30Z</time>
      </trkpt>
      <trkpt lat="44.62455" lon="3.21349">
        <ele>1208</ele>
        <time>2014-06-02T14:06:43Z</time>
      </trkpt>
      <trkpt lat="44.62443" lon="3.21328">
        <ele>1207</ele>
        <time>2014-06-02T14:06:50Z</time>
      </trkpt>
      <trkpt lat="44.62439" lon="3.21323">
        <ele>1206</ele>
        <time>2014-06-02T14:06:52Z</time>
      </trkpt>
      <trkpt lat="44.62428" lon="3.2131">
        <ele>1207</ele>
        <time>2014-06-02T14:06:57Z</time>
      </trkpt>
      <trkpt lat="44.62406" lon="3.2129">
        <ele>1203</ele>
        <time>2014-06-02T14:07:04Z</time>
      </trkpt>
      <trkpt lat="44.62403" lon="3.21286">
        <ele>1204</ele>
        <time>2014-06-02T14:07:05Z</time>
      </trkpt>
      <trkpt lat="44.62391" lon="3.21278">
        <ele>1204</ele>
        <time>2014-06-02T14:07:08Z</time>
      </trkpt>
      <trkpt lat="44.62383" lon="3.21272">
        <ele>1203</ele>
        <time>2014-06-02T14:07:10Z</time>
      </trkpt>
      <trkpt lat="44.6238" lon="3.21269">
        <ele>1204</ele>
        <time>2014-06-02T14:07:11Z</time>
      </trkpt>
      <trkpt lat="44.62371" lon="3.21262">
        <ele>1202</ele>
        <time>2014-06-02T14:07:13Z</time>
      </trkpt>
      <trkpt lat="44.62352" lon="3.21244">
        <ele>1202</ele>
        <time>2014-06-02T14:07:18Z</time>
      </trkpt>
      <trkpt lat="44.62343" lon="3.21235">
        <ele>1205</ele>
        <time>2014-06-02T14:07:20Z</time>
      </trkpt>
      <trkpt lat="44.62338" lon="3.21231">
        <ele>1201</ele>
        <time>2014-06-02T14:07:21Z</time>
      </trkpt>
      <trkpt lat="44.62303" lon="3.21212">
        <ele>1205</ele>
        <time>2014-06-02T14:07:27Z</time>
      </trkpt>
      <trkpt lat="44.62297" lon="3.21211">
        <ele>1205</ele>
        <time>2014-06-02T14:07:28Z</time>
      </trkpt>
      <trkpt lat="44.62291" lon="3.21209">
        <ele>1208</ele>
        <time>2014-06-02T14:07:29Z</time>
      </trkpt>
      <trkpt lat="44.62286" lon="3.2121">
        <ele>1204</ele>
        <time>2014-06-02T14:07:30Z</time>
      </trkpt>
      <trkpt lat="44.62282" lon="3.21211">
        <ele>1209</ele>
        <time>2014-06-02T14:07:31Z</time>
      </trkpt>
      <trkpt lat="44.62266" lon="3.21219">
        <ele>1205</ele>
        <time>2014-06-02T14:07:35Z</time>
      </trkpt>
      <trkpt lat="44.62263" lon="3.21221">
        <ele>1205</ele>
        <time>2014-06-02T14:07:36Z</time>
      </trkpt>
      <trkpt lat="44.62259" lon="3.21223">
        <ele>1211</ele>
        <time>2014-06-02T14:07:37Z</time>
      </trkpt>
      <trkpt lat="44.62256" lon="3.21226">
        <ele>1207</ele>
        <time>2014-06-02T14:07:38Z</time>
      </trkpt>
      <trkpt lat="44.62252" lon="3.21228">
        <ele>1207</ele>
        <time>2014-06-02T14:07:39Z</time>
      </trkpt>
      <trkpt lat="44.62247" lon="3.21229">
        <ele>1211</ele>
        <time>2014-06-02T14:07:40Z</time>
      </trkpt>
      <trkpt lat="44.62243" lon="3.21231">
        <ele>1209</ele>
        <time>2014-06-02T14:07:41Z</time>
      </trkpt>
      <trkpt lat="44.62239" lon="3.21234">
        <ele>1213</ele>
        <time>2014-06-02T14:07:42Z</time>
      </trkpt>
      <trkpt lat="44.62235" lon="3.21237">
        <ele>1208</ele>
        <time>2014-06-02T14:07:43Z</time>
      </trkpt>
      <trkpt lat="44.62231" lon="3.2124">
        <ele>1208</ele>
        <time>2014-06-02T14:07:44Z</time>
      </trkpt>
      <trkpt lat="44.62228" lon="3.21243">
        <ele>1213</ele>
        <time>2014-06-02T14:07:45Z</time>
      </trkpt>
      <trkpt lat="44.62221" lon="3.21248">
        <ele>1209</ele>
        <time>2014-06-02T14:07:47Z</time>
      </trkpt>
      <trkpt lat="44.62217" lon="3.21251">
        <ele>1212</ele>
        <time>2014-06-02T14:07:48Z</time>
      </trkpt>
      <trkpt lat="44.62213" lon="3.21255">
        <ele>1209</ele>
        <time>2014-06-02T14:07:49Z</time>
      </trkpt>
      <trkpt lat="44.62209" lon="3.2126">
        <ele>1213</ele>
        <time>2014-06-02T14:07:50Z</time>
      </trkpt>
      <trkpt lat="44.62205" lon="3.21265">
        <ele>1214</ele>
        <time>2014-06-02T14:07:51Z</time>
      </trkpt>
      <trkpt lat="44.62201" lon="3.21271">
        <ele>1213</ele>
        <time>2014-06-02T14:07:52Z</time>
      </trkpt>
      <trkpt lat="44.62198" lon="3.21279">
        <ele>1214</ele>
        <time>2014-06-02T14:07:53Z</time>
      </trkpt>
      <trkpt lat="44.62195" lon="3.21285">
        <ele>1216</ele>
        <time>2014-06-02T14:07:54Z</time>
      </trkpt>
      <trkpt lat="44.62193" lon="3.21291">
        <ele>1213</ele>
        <time>2014-06-02T14:07:55Z</time>
      </trkpt>
      <trkpt lat="44.62191" lon="3.21297">
        <ele>1209</ele>
        <time>2014-06-02T14:07:56Z</time>
      </trkpt>
      <trkpt lat="44.62189" lon="3.21303">
        <ele>1212</ele>
        <time>2014-06-02T14:07:57Z</time>
      </trkpt>
      <trkpt lat="44.62186" lon="3.21309">
        <ele>1214</ele>
        <time>2014-06-02T14:07:58Z</time>
      </trkpt>
      <trkpt lat="44.62182" lon="3.21315">
        <ele>1212</ele>
        <time>2014-06-02T14:07:59Z</time>
      </trkpt>
      <trkpt lat="44.62175" lon="3.21327">
        <ele>1210</ele>
        <time>2014-06-02T14:08:01Z</time>
      </trkpt>
      <trkpt lat="44.62165" lon="3.21344">
        <ele>1213</ele>
        <time>2014-06-02T14:08:04Z</time>
      </trkpt>
      <trkpt lat="44.62161" lon="3.2135">
        <ele>1218</ele>
        <time>2014-06-02T14:08:05Z</time>
      </trkpt>
      <trkpt lat="44.62151" lon="3.21368">
        <ele>1215</ele>
        <time>2014-06-02T14:08:08Z</time>
      </trkpt>
      <trkpt lat="44.62148" lon="3.21381">
        <ele>1215</ele>
        <time>2014-06-02T14:08:10Z</time>
      </trkpt>
      <trkpt lat="44.62146" lon="3.21395">
        <ele>1220</ele>
        <time>2014-06-02T14:08:12Z</time>
      </trkpt>
      <trkpt lat="44.62144" lon="3.214">
        <ele>1220</ele>
        <time>2014-06-02T14:08:13Z</time>
      </trkpt>
      <trkpt lat="44.62139" lon="3.21423">
        <ele>1215</ele>
        <time>2014-06-02T14:08:17Z</time>
      </trkpt>
      <trkpt lat="44.62137" lon="3.21429">
        <ele>1214</ele>
        <time>2014-06-02T14:08:18Z</time>
      </trkpt>
      <trkpt lat="44.62134" lon="3.21436">
        <ele>1217</ele>
        <time>2014-06-02T14:08:19Z</time>
      </trkpt>
      <trkpt lat="44.62132" lon="3.21442">
        <ele>1220</ele>
        <time>2014-06-02T14:08:20Z</time>
      </trkpt>
      <trkpt lat="44.62129" lon="3.21447">
        <ele>1215</ele>
        <time>2014-06-02T14:08:21Z</time>
      </trkpt>
      <trkpt lat="44.62127" lon="3.21452">
        <ele>1214</ele>
        <time>2014-06-02T14:08:22Z</time>
      </trkpt>
      <trkpt lat="44.62125" lon="3.21457">
        <ele>1214</ele>
        <time>2014-06-02T14:08:23Z</time>
      </trkpt>
      <trkpt lat="44.62122" lon="3.21462">
        <ele>1215</ele>
        <time>2014-06-02T14:08:24Z</time>
      </trkpt>
      <trkpt lat="44.62119" lon="3.21467">
        <ele>1220</ele>
        <time>2014-06-02T14:08:25Z</time>
      </trkpt>
      <trkpt lat="44.62104" lon="3.21484">
        <ele>1217</ele>
        <time>2014-06-02T14:08:29Z</time>
      </trkpt>
      <trkpt lat="44.62101" lon="3.21489">
        <ele>1215</ele>
        <time>2014-06-02T14:08:30Z</time>
      </trkpt>
      <trkpt lat="44.62099" lon="3.21494">
        <ele>1217</ele>
        <time>2014-06-02T14:08:31Z</time>
      </trkpt>
      <trkpt lat="44.62096" lon="3.215">
        <ele>1219</ele>
        <time>2014-06-02T14:08:32Z</time>
      </trkpt>
      <trkpt lat="44.62094" lon="3.21505">
        <ele>1215</ele>
        <time>2014-06-02T14:08:33Z</time>
      </trkpt>
      <trkpt lat="44.62091" lon="3.21509">
        <ele>1219</ele>
        <time>2014-06-02T14:08:34Z</time>
      </trkpt>
      <trkpt lat="44.62088" lon="3.21514">
        <ele>1220</ele>
        <time>2014-06-02T14:08:35Z</time>
      </trkpt>
      <trkpt lat="44.62085" lon="3.2152">
        <ele>1220</ele>
        <time>2014-06-02T14:08:36Z</time>
      </trkpt>
      <trkpt lat="44.6208" lon="3.21526">
        <ele>1216</ele>
        <time>2014-06-02T14:08:37Z</time>
      </trkpt>
      <trkpt lat="44.62077" lon="3.21532">
        <ele>1216</ele>
        <time>2014-06-02T14:08:38Z</time>
      </trkpt>
      <trkpt lat="44.62059" lon="3.21566">
        <ele>1221</ele>
        <time>2014-06-02T14:08:43Z</time>
      </trkpt>
      <trkpt lat="44.62055" lon="3.21571">
        <ele>1222</ele>
        <time>2014-06-02T14:08:44Z</time>
      </trkpt>
      <trkpt lat="44.6204" lon="3.21599">
        <ele>1221</ele>
        <time>2014-06-02T14:08:48Z</time>
      </trkpt>
      <trkpt lat="44.62036" lon="3.21606">
        <ele>1224</ele>
        <time>2014-06-02T14:08:49Z</time>
      </trkpt>
      <trkpt lat="44.62032" lon="3.21614">
        <ele>1220</ele>
        <time>2014-06-02T14:08:50Z</time>
      </trkpt>
      <trkpt lat="44.62029" lon="3.2162">
        <ele>1223</ele>
        <time>2014-06-02T14:08:51Z</time>
      </trkpt>
      <trkpt lat="44.62026" lon="3.21625">
        <ele>1222</ele>
        <time>2014-06-02T14:08:52Z</time>
      </trkpt>
      <trkpt lat="44.62023" lon="3.21632">
        <ele>1222</ele>
        <time>2014-06-02T14:08:53Z</time>
      </trkpt>
      <trkpt lat="44.62022" lon="3.21639">
        <ele>1224</ele>
        <time>2014-06-02T14:08:54Z</time>
      </trkpt>
      <trkpt lat="44.6202" lon="3.21645">
        <ele>1223</ele>
        <time>2014-06-02T14:08:55Z</time>
      </trkpt>
      <trkpt lat="44.62018" lon="3.2165">
        <ele>1225</ele>
        <time>2014-06-02T14:08:56Z</time>
      </trkpt>
      <trkpt lat="44.62017" lon="3.21656">
        <ele>1224</ele>
        <time>2014-06-02T14:08:57Z</time>
      </trkpt>
      <trkpt lat="44.62015" lon="3.21662">
        <ele>1221</ele>
        <time>2014-06-02T14:08:58Z</time>
      </trkpt>
      <trkpt lat="44.62009" lon="3.21681">
        <ele>1225</ele>
        <time>2014-06-02T14:09:01Z</time>
      </trkpt>
      <trkpt lat="44.62007" lon="3.21687">
        <ele>1225</ele>
        <time>2014-06-02T14:09:02Z</time>
      </trkpt>
      <trkpt lat="44.62005" lon="3.21692">
        <ele>1226</ele>
        <time>2014-06-02T14:09:03Z</time>
      </trkpt>
      <trkpt lat="44.62003" lon="3.21698">
        <ele>1228</ele>
        <time>2014-06-02T14:09:04Z</time>
      </trkpt>
      <trkpt lat="44.61999" lon="3.21703">
        <ele>1227</ele>
        <time>2014-06-02T14:09:05Z</time>
      </trkpt>
      <trkpt lat="44.6199" lon="3.21719">
        <ele>1224</ele>
        <time>2014-06-02T14:09:08Z</time>
      </trkpt>
      <trkpt lat="44.6198" lon="3.21739">
        <ele>1228</ele>
        <time>2014-06-02T14:09:12Z</time>
      </trkpt>
      <trkpt lat="44.61976" lon="3.21744">
        <ele>1228</ele>
        <time>2014-06-02T14:09:13Z</time>
      </trkpt>
      <trkpt lat="44.61956" lon="3.21751">
        <ele>1228</ele>
        <time>2014-06-02T14:09:18Z</time>
      </trkpt>
      <trkpt lat="44.6195" lon="3.21751">
        <ele>1228</ele>
        <time>2014-06-02T14:09:19Z</time>
      </trkpt>
      <trkpt lat="44.61946" lon="3.21752">
        <ele>1229</ele>
        <time>2014-06-02T14:09:20Z</time>
      </trkpt>
      <trkpt lat="44.61941" lon="3.21754">
        <ele>1230</ele>
        <time>2014-06-02T14:09:21Z</time>
      </trkpt>
      <trkpt lat="44.61936" lon="3.21756">
        <ele>1231</ele>
        <time>2014-06-02T14:09:22Z</time>
      </trkpt>
      <trkpt lat="44.61933" lon="3.21756">
        <ele>1230</ele>
        <time>2014-06-02T14:09:23Z</time>
      </trkpt>
      <trkpt lat="44.61928" lon="3.21756">
        <ele>1230</ele>
        <time>2014-06-02T14:09:24Z</time>
      </trkpt>
      <trkpt lat="44.61923" lon="3.21756">
        <ele>1231</ele>
        <time>2014-06-02T14:09:25Z</time>
      </trkpt>
      <trkpt lat="44.61918" lon="3.21755">
        <ele>1231</ele>
        <time>2014-06-02T14:09:26Z</time>
      </trkpt>
      <trkpt lat="44.61914" lon="3.21754">
        <ele>1232</ele>
        <time>2014-06-02T14:09:27Z</time>
      </trkpt>
      <trkpt lat="44.61909" lon="3.21753">
        <ele>1234</ele>
        <time>2014-06-02T14:09:28Z</time>
      </trkpt>
      <trkpt lat="44.61904" lon="3.21752">
        <ele>1234</ele>
        <time>2014-06-02T14:09:29Z</time>
      </trkpt>
      <trkpt lat="44.61899" lon="3.21751">
        <ele>1233</ele>
        <time>2014-06-02T14:09:30Z</time>
      </trkpt>
      <trkpt lat="44.61849" lon="3.21782">
        <ele>1234</ele>
        <time>2014-06-02T14:09:41Z</time>
      </trkpt>
      <trkpt lat="44.61844" lon="3.21785">
        <ele>1234</ele>
        <time>2014-06-02T14:09:42Z</time>
      </trkpt>
      <trkpt lat="44.61838" lon="3.2179">
        <ele>1234</ele>
        <time>2014-06-02T14:09:43Z</time>
      </trkpt>
      <trkpt lat="44.61832" lon="3.21793">
        <ele>1235</ele>
        <time>2014-06-02T14:09:44Z</time>
      </trkpt>
      <trkpt lat="44.61827" lon="3.21796">
        <ele>1234</ele>
        <time>2014-06-02T14:09:45Z</time>
      </trkpt>
      <trkpt lat="44.61821" lon="3.21798">
        <ele>1234</ele>
        <time>2014-06-02T14:09:46Z</time>
      </trkpt>
      <trkpt lat="44.61816" lon="3.21799">
        <ele>1234</ele>
        <time>2014-06-02T14:09:47Z</time>
      </trkpt>
      <trkpt lat="44.61811" lon="3.218">
        <ele>1234</ele>
        <time>2014-06-02T14:09:48Z</time>
      </trkpt>
      <trkpt lat="44.61805" lon="3.21801">
        <ele>1235</ele>
        <time>2014-06-02T14:09:49Z</time>
      </trkpt>
      <trkpt lat="44.61799" lon="3.21803">
        <ele>1236</ele>
        <time>2014-06-02T14:09:50Z</time>
      </trkpt>
      <trkpt lat="44.61794" lon="3.21805">
        <ele>1234</ele>
        <time>2014-06-02T14:09:51Z</time>
      </trkpt>
      <trkpt lat="44.61782" lon="3.2181">
        <ele>1235</ele>
        <time>2014-06-02T14:09:53Z</time>
      </trkpt>
      <trkpt lat="44.61777" lon="3.21813">
        <ele>1236</ele>
        <time>2014-06-02T14:09:54Z</time>
      </trkpt>
      <trkpt lat="44.61772" lon="3.21817">
        <ele>1236</ele>
        <time>2014-06-02T14:09:55Z</time>
      </trkpt>
      <trkpt lat="44.61768" lon="3.21821">
        <ele>1237</ele>
        <time>2014-06-02T14:09:56Z</time>
      </trkpt>
      <trkpt lat="44.61764" lon="3.21825">
        <ele>1237</ele>
        <time>2014-06-02T14:09:57Z</time>
      </trkpt>
      <trkpt lat="44.6176" lon="3.21831">
        <ele>1239</ele>
        <time>2014-06-02T14:09:58Z</time>
      </trkpt>
      <trkpt lat="44.61757" lon="3.21838">
        <ele>1239</ele>
        <time>2014-06-02T14:09:59Z</time>
      </trkpt>
      <trkpt lat="44.61753" lon="3.21852">
        <ele>1239</ele>
        <time>2014-06-02T14:10:01Z</time>
      </trkpt>
      <trkpt lat="44.6175" lon="3.21859">
        <ele>1239</ele>
        <time>2014-06-02T14:10:02Z</time>
      </trkpt>
      <trkpt lat="44.61748" lon="3.21867">
        <ele>1239</ele>
        <time>2014-06-02T14:10:03Z</time>
      </trkpt>
      <trkpt lat="44.61726" lon="3.21928">
        <ele>1243</ele>
        <time>2014-06-02T14:10:11Z</time>
      </trkpt>
      <trkpt lat="44.61724" lon="3.21935">
        <ele>1243</ele>
        <time>2014-06-02T14:10:12Z</time>
      </trkpt>
      <trkpt lat="44.61702" lon="3.21993">
        <ele>1244</ele>
        <time>2014-06-02T14:10:23Z</time>
      </trkpt>
      <trkpt lat="44.61695" lon="3.22002">
        <ele>1245</ele>
        <time>2014-06-02T14:10:25Z</time>
      </trkpt>
      <trkpt lat="44.61692" lon="3.22006">
        <ele>1245</ele>
        <time>2014-06-02T14:10:26Z</time>
      </trkpt>
      <trkpt lat="44.61689" lon="3.22009">
        <ele>1245</ele>
        <time>2014-06-02T14:10:27Z</time>
      </trkpt>
      <trkpt lat="44.61658" lon="3.2204">
        <ele>1245</ele>
        <time>2014-06-02T14:10:38Z</time>
      </trkpt>
      <trkpt lat="44.61621" lon="3.22069">
        <ele>1245</ele>
        <time>2014-06-02T14:10:50Z</time>
      </trkpt>
      <trkpt lat="44.61595" lon="3.2208">
        <ele>1244</ele>
        <time>2014-06-02T14:11:01Z</time>
      </trkpt>
      <trkpt lat="44.61568" lon="3.22085">
        <ele>1244</ele>
        <time>2014-06-02T14:11:13Z</time>
      </trkpt>
      <trkpt lat="44.61544" lon="3.22081">
        <ele>1243</ele>
        <time>2014-06-02T14:11:26Z</time>
      </trkpt>
      <trkpt lat="44.61542" lon="3.2208">
        <ele>1240</ele>
        <time>2014-06-02T14:11:27Z</time>
      </trkpt>
      <trkpt lat="44.61541" lon="3.22079">
        <ele>1245</ele>
        <time>2014-06-02T14:11:28Z</time>
      </trkpt>
      <trkpt lat="44.61539" lon="3.22078">
        <ele>1238</ele>
        <time>2014-06-02T14:11:29Z</time>
      </trkpt>
      <trkpt lat="44.61514" lon="3.22049">
        <ele>1239</ele>
        <time>2014-06-02T14:11:43Z</time>
      </trkpt>
      <trkpt lat="44.61489" lon="3.22022">
        <ele>1238</ele>
        <time>2014-06-02T14:11:58Z</time>
      </trkpt>
      <trkpt lat="44.61469" lon="3.22004">
        <ele>1234</ele>
        <time>2014-06-02T14:12:12Z</time>
      </trkpt>
      <trkpt lat="44.61467" lon="3.22003">
        <ele>1235</ele>
        <time>2014-06-02T14:12:13Z</time>
      </trkpt>
      <trkpt lat="44.61466" lon="3.22001">
        <ele>1235</ele>
        <time>2014-06-02T14:12:14Z</time>
      </trkpt>
      <trkpt lat="44.61465" lon="3.22">
        <ele>1233</ele>
        <time>2014-06-02T14:12:15Z</time>
      </trkpt>
      <trkpt lat="44.61465" lon="3.21997">
        <ele>1234</ele>
        <time>2014-06-02T14:12:16Z</time>
      </trkpt>
      <trkpt lat="44.61464" lon="3.21996">
        <ele>1234</ele>
        <time>2014-06-02T14:12:17Z</time>
      </trkpt>
      <trkpt lat="44.61463" lon="3.21994">
        <ele>1234</ele>
        <time>2014-06-02T14:12:18Z</time>
      </trkpt>
      <trkpt lat="44.61449" lon="3.21967">
        <ele>1231</ele>
        <time>2014-06-02T14:12:35Z</time>
      </trkpt>
      <trkpt lat="44.61449" lon="3.21965">
        <ele>1231</ele>
        <time>2014-06-02T14:12:36Z</time>
      </trkpt>
      <trkpt lat="44.61443" lon="3.21955">
        <ele>1229</ele>
        <time>2014-06-02T14:12:43Z</time>
      </trkpt>
      <trkpt lat="44.61442" lon="3.21953">
        <ele>1229</ele>
        <time>2014-06-02T14:12:44Z</time>
      </trkpt>
      <trkpt lat="44.61442" lon="3.21951">
        <ele>1231</ele>
        <time>2014-06-02T14:12:45Z</time>
      </trkpt>
      <trkpt lat="44.61441" lon="3.21949">
        <ele>1228</ele>
        <time>2014-06-02T14:12:46Z</time>
      </trkpt>
      <trkpt lat="44.61441" lon="3.21947">
        <ele>1228</ele>
        <time>2014-06-02T14:12:47Z</time>
      </trkpt>
      <trkpt lat="44.6144" lon="3.21945">
        <ele>1228</ele>
        <time>2014-06-02T14:12:48Z</time>
      </trkpt>
      <trkpt lat="44.61439" lon="3.21943">
        <ele>1227</ele>
        <time>2014-06-02T14:12:49Z</time>
      </trkpt>
      <trkpt lat="44.61438" lon="3.21942">
        <ele>1226</ele>
        <time>2014-06-02T14:12:50Z</time>
      </trkpt>
      <trkpt lat="44.61437" lon="3.2194">
        <ele>1227</ele>
        <time>2014-06-02T14:12:51Z</time>
      </trkpt>
      <trkpt lat="44.61436" lon="3.21938">
        <ele>1226</ele>
        <time>2014-06-02T14:12:52Z</time>
      </trkpt>
      <trkpt lat="44.61417" lon="3.21922">
        <ele>1225</ele>
        <time>2014-06-02T14:13:06Z</time>
      </trkpt>
      <trkpt lat="44.61395" lon="3.21919">
        <ele>1224</ele>
        <time>2014-06-02T14:13:18Z</time>
      </trkpt>
      <trkpt lat="44.61381" lon="3.21922">
        <ele>1222</ele>
        <time>2014-06-02T14:13:26Z</time>
      </trkpt>
      <trkpt lat="44.61365" lon="3.21912">
        <ele>1219</ele>
        <time>2014-06-02T14:13:33Z</time>
      </trkpt>
      <trkpt lat="44.61363" lon="3.2191">
        <ele>1220</ele>
        <time>2014-06-02T14:13:34Z</time>
      </trkpt>
      <trkpt lat="44.61361" lon="3.21907">
        <ele>1218</ele>
        <time>2014-06-02T14:13:35Z</time>
      </trkpt>
      <trkpt lat="44.61359" lon="3.21904">
        <ele>1218</ele>
        <time>2014-06-02T14:13:36Z</time>
      </trkpt>
      <trkpt lat="44.61357" lon="3.21901">
        <ele>1218</ele>
        <time>2014-06-02T14:13:37Z</time>
      </trkpt>
      <trkpt lat="44.61356" lon="3.21896">
        <ele>1218</ele>
        <time>2014-06-02T14:13:38Z</time>
      </trkpt>
      <trkpt lat="44.61354" lon="3.2189">
        <ele>1218</ele>
        <time>2014-06-02T14:13:39Z</time>
      </trkpt>
      <trkpt lat="44.61351" lon="3.21877">
        <ele>1217</ele>
        <time>2014-06-02T14:13:41Z</time>
      </trkpt>
      <trkpt lat="44.61348" lon="3.2187">
        <ele>1217</ele>
        <time>2014-06-02T14:13:42Z</time>
      </trkpt>
      <trkpt lat="44.61345" lon="3.21863">
        <ele>1216</ele>
        <time>2014-06-02T14:13:43Z</time>
      </trkpt>
      <trkpt lat="44.6134" lon="3.21856">
        <ele>1215</ele>
        <time>2014-06-02T14:13:44Z</time>
      </trkpt>
      <trkpt lat="44.61335" lon="3.21848">
        <ele>1217</ele>
        <time>2014-06-02T14:13:45Z</time>
      </trkpt>
      <trkpt lat="44.6133" lon="3.2184">
        <ele>1216</ele>
        <time>2014-06-02T14:13:46Z</time>
      </trkpt>
      <trkpt lat="44.61326" lon="3.21831">
        <ele>1216</ele>
        <time>2014-06-02T14:13:47Z</time>
      </trkpt>
      <trkpt lat="44.61322" lon="3.21821">
        <ele>1217</ele>
        <time>2014-06-02T14:13:48Z</time>
      </trkpt>
      <trkpt lat="44.61318" lon="3.21809">
        <ele>1217</ele>
        <time>2014-06-02T14:13:49Z</time>
      </trkpt>
      <trkpt lat="44.61314" lon="3.21797">
        <ele>1217</ele>
        <time>2014-06-02T14:13:50Z</time>
      </trkpt>
      <trkpt lat="44.61312" lon="3.21785">
        <ele>1216</ele>
        <time>2014-06-02T14:13:51Z</time>
      </trkpt>
      <trkpt lat="44.61305" lon="3.21745">
        <ele>1221</ele>
        <time>2014-06-02T14:13:54Z</time>
      </trkpt>
      <trkpt lat="44.61303" lon="3.21732">
        <ele>1221</ele>
        <time>2014-06-02T14:13:55Z</time>
      </trkpt>
      <trkpt lat="44.61294" lon="3.21702">
        <ele>1225</ele>
        <time>2014-06-02T14:13:58Z</time>
      </trkpt>
      <trkpt lat="44.61292" lon="3.21694">
        <ele>1224</ele>
        <time>2014-06-02T14:13:59Z</time>
      </trkpt>
      <trkpt lat="44.6129" lon="3.21687">
        <ele>1223</ele>
        <time>2014-06-02T14:14:00Z</time>
      </trkpt>
      <trkpt lat="44.61288" lon="3.2168">
        <ele>1223</ele>
        <time>2014-06-02T14:14:01Z</time>
      </trkpt>
      <trkpt lat="44.61287" lon="3.21672">
        <ele>1224</ele>
        <time>2014-06-02T14:14:02Z</time>
      </trkpt>
      <trkpt lat="44.6129" lon="3.21635">
        <ele>1226</ele>
        <time>2014-06-02T14:14:07Z</time>
      </trkpt>
      <trkpt lat="44.613" lon="3.21587">
        <ele>1226</ele>
        <time>2014-06-02T14:14:14Z</time>
      </trkpt>
      <trkpt lat="44.6131" lon="3.21564">
        <ele>1226</ele>
        <time>2014-06-02T14:14:18Z</time>
      </trkpt>
      <trkpt lat="44.61321" lon="3.21536">
        <ele>1226</ele>
        <time>2014-06-02T14:14:23Z</time>
      </trkpt>
      <trkpt lat="44.61323" lon="3.21531">
        <ele>1225</ele>
        <time>2014-06-02T14:14:24Z</time>
      </trkpt>
      <trkpt lat="44.61337" lon="3.21496">
        <ele>1224</ele>
        <time>2014-06-02T14:14:30Z</time>
      </trkpt>
      <trkpt lat="44.61339" lon="3.2149">
        <ele>1225</ele>
        <time>2014-06-02T14:14:31Z</time>
      </trkpt>
      <trkpt lat="44.61341" lon="3.21483">
        <ele>1225</ele>
        <time>2014-06-02T14:14:32Z</time>
      </trkpt>
      <trkpt lat="44.61345" lon="3.21476">
        <ele>1222</ele>
        <time>2014-06-02T14:14:33Z</time>
      </trkpt>
      <trkpt lat="44.61348" lon="3.21471">
        <ele>1225</ele>
        <time>2014-06-02T14:14:34Z</time>
      </trkpt>
      <trkpt lat="44.61353" lon="3.21466">
        <ele>1224</ele>
        <time>2014-06-02T14:14:35Z</time>
      </trkpt>
      <trkpt lat="44.61368" lon="3.21452">
        <ele>1222</ele>
        <time>2014-06-02T14:14:38Z</time>
      </trkpt>
      <trkpt lat="44.61395" lon="3.21422">
        <ele>1223</ele>
        <time>2014-06-02T14:14:43Z</time>
      </trkpt>
      <trkpt lat="44.614" lon="3.21415">
        <ele>1227</ele>
        <time>2014-06-02T14:14:44Z</time>
      </trkpt>
      <trkpt lat="44.61405" lon="3.21408">
        <ele>1222</ele>
        <time>2014-06-02T14:14:45Z</time>
      </trkpt>
      <trkpt lat="44.61431" lon="3.2136">
        <ele>1226</ele>
        <time>2014-06-02T14:14:51Z</time>
      </trkpt>
      <trkpt lat="44.61438" lon="3.21342">
        <ele>1222</ele>
        <time>2014-06-02T14:14:53Z</time>
      </trkpt>
      <trkpt lat="44.61441" lon="3.21333">
        <ele>1226</ele>
        <time>2014-06-02T14:14:54Z</time>
      </trkpt>
      <trkpt lat="44.61445" lon="3.21323">
        <ele>1222</ele>
        <time>2014-06-02T14:14:55Z</time>
      </trkpt>
      <trkpt lat="44.61448" lon="3.21314">
        <ele>1228</ele>
        <time>2014-06-02T14:14:56Z</time>
      </trkpt>
      <trkpt lat="44.61452" lon="3.21304">
        <ele>1224</ele>
        <time>2014-06-02T14:14:57Z</time>
      </trkpt>
      <trkpt lat="44.61465" lon="3.21264">
        <ele>1227</ele>
        <time>2014-06-02T14:15:01Z</time>
      </trkpt>
      <trkpt lat="44.61468" lon="3.21254">
        <ele>1224</ele>
        <time>2014-06-02T14:15:02Z</time>
      </trkpt>
      <trkpt lat="44.61471" lon="3.21244">
        <ele>1229</ele>
        <time>2014-06-02T14:15:03Z</time>
      </trkpt>
      <trkpt lat="44.61475" lon="3.21235">
        <ele>1229</ele>
        <time>2014-06-02T14:15:04Z</time>
      </trkpt>
      <trkpt lat="44.61483" lon="3.21207">
        <ele>1228</ele>
        <time>2014-06-02T14:15:07Z</time>
      </trkpt>
      <trkpt lat="44.61486" lon="3.21198">
        <ele>1224</ele>
        <time>2014-06-02T14:15:08Z</time>
      </trkpt>
      <trkpt lat="44.61509" lon="3.21135">
        <ele>1229</ele>
        <time>2014-06-02T14:15:15Z</time>
      </trkpt>
      <trkpt lat="44.61513" lon="3.21127">
        <ele>1230</ele>
        <time>2014-06-02T14:15:16Z</time>
      </trkpt>
      <trkpt lat="44.61516" lon="3.21118">
        <ele>1228</ele>
        <time>2014-06-02T14:15:17Z</time>
      </trkpt>
      <trkpt lat="44.61553" lon="3.20991">
        <ele>1229</ele>
        <time>2014-06-02T14:15:32Z</time>
      </trkpt>
      <trkpt lat="44.61555" lon="3.20982">
        <ele>1233</ele>
        <time>2014-06-02T14:15:33Z</time>
      </trkpt>
      <trkpt lat="44.61557" lon="3.20973">
        <ele>1228</ele>
        <time>2014-06-02T14:15:34Z</time>
      </trkpt>
      <trkpt lat="44.6158" lon="3.20867">
        <ele>1231</ele>
        <time>2014-06-02T14:15:47Z</time>
      </trkpt>
      <trkpt lat="44.61588" lon="3.20847">
        <ele>1231</ele>
        <time>2014-06-02T14:15:50Z</time>
      </trkpt>
      <trkpt lat="44.61592" lon="3.20833">
        <ele>1232</ele>
        <time>2014-06-02T14:15:52Z</time>
      </trkpt>
      <trkpt lat="44.61619" lon="3.2075">
        <ele>1233</ele>
        <time>2014-06-02T14:16:04Z</time>
      </trkpt>
      <trkpt lat="44.6162" lon="3.20745">
        <ele>1236</ele>
        <time>2014-06-02T14:16:05Z</time>
      </trkpt>
      <trkpt lat="44.61622" lon="3.20739">
        <ele>1231</ele>
        <time>2014-06-02T14:16:06Z</time>
      </trkpt>
      <trkpt lat="44.61628" lon="3.20723">
        <ele>1235</ele>
        <time>2014-06-02T14:16:09Z</time>
      </trkpt>
      <trkpt lat="44.61633" lon="3.20712">
        <ele>1232</ele>
        <time>2014-06-02T14:16:11Z</time>
      </trkpt>
      <trkpt lat="44.61642" lon="3.20691">
        <ele>1235</ele>
        <time>2014-06-02T14:16:15Z</time>
      </trkpt>
      <trkpt lat="44.61645" lon="3.20687">
        <ele>1235</ele>
        <time>2014-06-02T14:16:16Z</time>
      </trkpt>
      <trkpt lat="44.61647" lon="3.20682">
        <ele>1231</ele>
        <time>2014-06-02T14:16:17Z</time>
      </trkpt>
      <trkpt lat="44.61656" lon="3.20664">
        <ele>1234</ele>
        <time>2014-06-02T14:16:21Z</time>
      </trkpt>
      <trkpt lat="44.61658" lon="3.2066">
        <ele>1231</ele>
        <time>2014-06-02T14:16:22Z</time>
      </trkpt>
      <trkpt lat="44.61667" lon="3.20643">
        <ele>1234</ele>
        <time>2014-06-02T14:16:26Z</time>
      </trkpt>
      <trkpt lat="44.61671" lon="3.20634">
        <ele>1230</ele>
        <time>2014-06-02T14:16:28Z</time>
      </trkpt>
      <trkpt lat="44.6168" lon="3.20617">
        <ele>1233</ele>
        <time>2014-06-02T14:16:32Z</time>
      </trkpt>
      <trkpt lat="44.61684" lon="3.20608">
        <ele>1233</ele>
        <time>2014-06-02T14:16:34Z</time>
      </trkpt>
      <trkpt lat="44.61698" lon="3.20559">
        <ele>1232</ele>
        <time>2014-06-02T14:16:45Z</time>
      </trkpt>
      <trkpt lat="44.617" lon="3.20554">
        <ele>1236</ele>
        <time>2014-06-02T14:16:46Z</time>
      </trkpt>
      <trkpt lat="44.61708" lon="3.20524">
        <ele>1231</ele>
        <time>2014-06-02T14:16:53Z</time>
      </trkpt>
      <trkpt lat="44.61709" lon="3.20515">
        <ele>1234</ele>
        <time>2014-06-02T14:16:55Z</time>
      </trkpt>
      <trkpt lat="44.61709" lon="3.2051">
        <ele>1230</ele>
        <time>2014-06-02T14:16:56Z</time>
      </trkpt>
      <trkpt lat="44.6171" lon="3.20504">
        <ele>1234</ele>
        <time>2014-06-02T14:16:57Z</time>
      </trkpt>
      <trkpt lat="44.6171" lon="3.20499">
        <ele>1230</ele>
        <time>2014-06-02T14:16:58Z</time>
      </trkpt>
      <trkpt lat="44.6171" lon="3.20489">
        <ele>1234</ele>
        <time>2014-06-02T14:17:00Z</time>
      </trkpt>
      <trkpt lat="44.6171" lon="3.20484">
        <ele>1229</ele>
        <time>2014-06-02T14:17:01Z</time>
      </trkpt>
      <trkpt lat="44.61709" lon="3.20452">
        <ele>1233</ele>
        <time>2014-06-02T14:17:09Z</time>
      </trkpt>
      <trkpt lat="44.61709" lon="3.20448">
        <ele>1229</ele>
        <time>2014-06-02T14:17:10Z</time>
      </trkpt>
      <trkpt lat="44.6171" lon="3.2044">
        <ele>1233</ele>
        <time>2014-06-02T14:17:12Z</time>
      </trkpt>
      <trkpt lat="44.6171" lon="3.20437">
        <ele>1229</ele>
        <time>2014-06-02T14:17:13Z</time>
      </trkpt>
      <trkpt lat="44.61709" lon="3.20433">
        <ele>1234</ele>
        <time>2014-06-02T14:17:14Z</time>
      </trkpt>
      <trkpt lat="44.61709" lon="3.20429">
        <ele>1229</ele>
        <time>2014-06-02T14:17:15Z</time>
      </trkpt>
      <trkpt lat="44.61708" lon="3.20425">
        <ele>1234</ele>
        <time>2014-06-02T14:17:16Z</time>
      </trkpt>
      <trkpt lat="44.61708" lon="3.20422">
        <ele>1229</ele>
        <time>2014-06-02T14:17:17Z</time>
      </trkpt>
      <trkpt lat="44.61708" lon="3.20419">
        <ele>1233</ele>
        <time>2014-06-02T14:17:18Z</time>
      </trkpt>
      <trkpt lat="44.61707" lon="3.20417">
        <ele>1228</ele>
        <time>2014-06-02T14:17:19Z</time>
      </trkpt>
      <trkpt lat="44.61706" lon="3.20413">
        <ele>1233</ele>
        <time>2014-06-02T14:17:20Z</time>
      </trkpt>
      <trkpt lat="44.61705" lon="3.20407">
        <ele>1227</ele>
        <time>2014-06-02T14:17:22Z</time>
      </trkpt>
      <trkpt lat="44.61704" lon="3.20403">
        <ele>1231</ele>
        <time>2014-06-02T14:17:23Z</time>
      </trkpt>
      <trkpt lat="44.61701" lon="3.20394">
        <ele>1228</ele>
        <time>2014-06-02T14:17:26Z</time>
      </trkpt>
      <trkpt lat="44.61696" lon="3.20386">
        <ele>1231</ele>
        <time>2014-06-02T14:17:29Z</time>
      </trkpt>
      <trkpt lat="44.61694" lon="3.20383">
        <ele>1225</ele>
        <time>2014-06-02T14:17:30Z</time>
      </trkpt>
      <trkpt lat="44.61692" lon="3.2038">
        <ele>1230</ele>
        <time>2014-06-02T14:17:31Z</time>
      </trkpt>
      <trkpt lat="44.61689" lon="3.20375">
        <ele>1226</ele>
        <time>2014-06-02T14:17:33Z</time>
      </trkpt>
      <trkpt lat="44.61687" lon="3.20372">
        <ele>1228</ele>
        <time>2014-06-02T14:17:34Z</time>
      </trkpt>
      <trkpt lat="44.61686" lon="3.20369">
        <ele>1224</ele>
        <time>2014-06-02T14:17:35Z</time>
      </trkpt>
      <trkpt lat="44.61682" lon="3.20364">
        <ele>1225</ele>
        <time>2014-06-02T14:17:37Z</time>
      </trkpt>
      <trkpt lat="44.61677" lon="3.20357">
        <ele>1229</ele>
        <time>2014-06-02T14:17:40Z</time>
      </trkpt>
      <trkpt lat="44.61671" lon="3.2035">
        <ele>1222</ele>
        <time>2014-06-02T14:17:43Z</time>
      </trkpt>
      <trkpt lat="44.6167" lon="3.20349">
        <ele>1221</ele>
        <time>2014-06-02T14:17:44Z</time>
      </trkpt>
      <trkpt lat="44.61668" lon="3.20344">
        <ele>1228</ele>
        <time>2014-06-02T14:17:48Z</time>
      </trkpt>
      <trkpt lat="44.61668" lon="3.20344">
        <ele>1223</ele>
        <time>2014-06-02T14:17:49Z</time>
      </trkpt>
      <trkpt lat="44.61668" lon="3.20344">
        <ele>1220</ele>
        <time>2014-06-02T14:17:50Z</time>
      </trkpt>
      <trkpt lat="44.61668" lon="3.20344">
        <ele>1224</ele>
        <time>2014-06-02T14:17:55Z</time>
      </trkpt>
      <trkpt lat="44.61668" lon="3.20344">
        <ele>1228</ele>
        <time>2014-06-02T14:17:56Z</time>
      </trkpt>
      <trkpt lat="44.61668" lon="3.20344">
        <ele>1223</ele>
        <time>2014-06-02T14:17:57Z</time>
      </trkpt>
      <trkpt lat="44.61668" lon="3.20344">
        <ele>1227</ele>
        <time>2014-06-02T14:18:04Z</time>
      </trkpt>
      <trkpt lat="44.61668" lon="3.20344">
        <ele>1225</ele>
        <time>2014-06-02T14:18:07Z</time>
      </trkpt>
      <trkpt lat="44.61668" lon="3.20344">
        <ele>1222</ele>
        <time>2014-06-02T14:18:08Z</time>
      </trkpt>
      <trkpt lat="44.61668" lon="3.20344">
        <ele>1226</ele>
        <time>2014-06-02T14:18:14Z</time>
      </trkpt>
      <trkpt lat="44.61668" lon="3.20344">
        <ele>1221</ele>
        <time>2014-06-02T14:18:17Z</time>
      </trkpt>
      <trkpt lat="44.61668" lon="3.20344">
        <ele>1226</ele>
        <time>2014-06-02T14:18:20Z</time>
      </trkpt>
      <trkpt lat="44.61669" lon="3.20344">
        <ele>1225</ele>
        <time>2014-06-02T14:18:24Z</time>
      </trkpt>
      <trkpt lat="44.61668" lon="3.20344">
        <ele>1225</ele>
        <time>2014-06-02T14:18:25Z</time>
      </trkpt>
      <trkpt lat="44.61665" lon="3.20338">
        <ele>1221</ele>
        <time>2014-06-02T14:18:28Z</time>
      </trkpt>
      <trkpt lat="44.61661" lon="3.20331">
        <ele>1225</ele>
        <time>2014-06-02T14:18:31Z</time>
      </trkpt>
      <trkpt lat="44.61659" lon="3.20329">
        <ele>1225</ele>
        <time>2014-06-02T14:18:32Z</time>
      </trkpt>
      <trkpt lat="44.61658" lon="3.20326">
        <ele>1221</ele>
        <time>2014-06-02T14:18:33Z</time>
      </trkpt>
      <trkpt lat="44.61656" lon="3.20324">
        <ele>1220</ele>
        <time>2014-06-02T14:18:34Z</time>
      </trkpt>
      <trkpt lat="44.61653" lon="3.20317">
        <ele>1224</ele>
        <time>2014-06-02T14:18:37Z</time>
      </trkpt>
      <trkpt lat="44.6165" lon="3.20311">
        <ele>1224</ele>
        <time>2014-06-02T14:18:39Z</time>
      </trkpt>
      <trkpt lat="44.61647" lon="3.20303">
        <ele>1218</ele>
        <time>2014-06-02T14:18:41Z</time>
      </trkpt>
      <trkpt lat="44.61642" lon="3.20293">
        <ele>1222</ele>
        <time>2014-06-02T14:18:44Z</time>
      </trkpt>
      <trkpt lat="44.6164" lon="3.20289">
        <ele>1222</ele>
        <time>2014-06-02T14:18:45Z</time>
      </trkpt>
      <trkpt lat="44.61638" lon="3.20285">
        <ele>1218</ele>
        <time>2014-06-02T14:18:46Z</time>
      </trkpt>
      <trkpt lat="44.61637" lon="3.20281">
        <ele>1218</ele>
        <time>2014-06-02T14:18:47Z</time>
      </trkpt>
      <trkpt lat="44.61629" lon="3.20261">
        <ele>1221</ele>
        <time>2014-06-02T14:18:52Z</time>
      </trkpt>
      <trkpt lat="44.61628" lon="3.20257">
        <ele>1219</ele>
        <time>2014-06-02T14:18:53Z</time>
      </trkpt>
      <trkpt lat="44.61627" lon="3.20252">
        <ele>1221</ele>
        <time>2014-06-02T14:18:54Z</time>
      </trkpt>
      <trkpt lat="44.61625" lon="3.20248">
        <ele>1222</ele>
        <time>2014-06-02T14:18:55Z</time>
      </trkpt>
      <trkpt lat="44.6162" lon="3.20236">
        <ele>1219</ele>
        <time>2014-06-02T14:18:58Z</time>
      </trkpt>
      <trkpt lat="44.61619" lon="3.20231">
        <ele>1222</ele>
        <time>2014-06-02T14:18:59Z</time>
      </trkpt>
      <trkpt lat="44.61616" lon="3.20222">
        <ele>1217</ele>
        <time>2014-06-02T14:19:01Z</time>
      </trkpt>
      <trkpt lat="44.61614" lon="3.20218">
        <ele>1220</ele>
        <time>2014-06-02T14:19:02Z</time>
      </trkpt>
      <trkpt lat="44.61611" lon="3.20209">
        <ele>1217</ele>
        <time>2014-06-02T14:19:04Z</time>
      </trkpt>
      <trkpt lat="44.61609" lon="3.20201">
        <ele>1221</ele>
        <time>2014-06-02T14:19:06Z</time>
      </trkpt>
      <trkpt lat="44.61606" lon="3.20192">
        <ele>1216</ele>
        <time>2014-06-02T14:19:08Z</time>
      </trkpt>
      <trkpt lat="44.61605" lon="3.20188">
        <ele>1221</ele>
        <time>2014-06-02T14:19:09Z</time>
      </trkpt>
      <trkpt lat="44.61604" lon="3.20184">
        <ele>1215</ele>
        <time>2014-06-02T14:19:10Z</time>
      </trkpt>
      <trkpt lat="44.61601" lon="3.20175">
        <ele>1221</ele>
        <time>2014-06-02T14:19:12Z</time>
      </trkpt>
      <trkpt lat="44.616" lon="3.20171">
        <ele>1214</ele>
        <time>2014-06-02T14:19:13Z</time>
      </trkpt>
      <trkpt lat="44.61596" lon="3.20163">
        <ele>1219</ele>
        <time>2014-06-02T14:19:15Z</time>
      </trkpt>
      <trkpt lat="44.61595" lon="3.20159">
        <ele>1216</ele>
        <time>2014-06-02T14:19:16Z</time>
      </trkpt>
      <trkpt lat="44.61593" lon="3.20154">
        <ele>1220</ele>
        <time>2014-06-02T14:19:17Z</time>
      </trkpt>
      <trkpt lat="44.61587" lon="3.20142">
        <ele>1217</ele>
        <time>2014-06-02T14:19:20Z</time>
      </trkpt>
      <trkpt lat="44.61586" lon="3.20137">
        <ele>1221</ele>
        <time>2014-06-02T14:19:21Z</time>
      </trkpt>
      <trkpt lat="44.61584" lon="3.20132">
        <ele>1215</ele>
        <time>2014-06-02T14:19:22Z</time>
      </trkpt>
      <trkpt lat="44.61576" lon="3.2011">
        <ele>1219</ele>
        <time>2014-06-02T14:19:27Z</time>
      </trkpt>
      <trkpt lat="44.61575" lon="3.20106">
        <ele>1216</ele>
        <time>2014-06-02T14:19:28Z</time>
      </trkpt>
      <trkpt lat="44.61574" lon="3.20101">
        <ele>1220</ele>
        <time>2014-06-02T14:19:29Z</time>
      </trkpt>
      <trkpt lat="44.61572" lon="3.20097">
        <ele>1215</ele>
        <time>2014-06-02T14:19:30Z</time>
      </trkpt>
      <trkpt lat="44.6157" lon="3.20093">
        <ele>1220</ele>
        <time>2014-06-02T14:19:31Z</time>
      </trkpt>
      <trkpt lat="44.61566" lon="3.20081">
        <ele>1215</ele>
        <time>2014-06-02T14:19:34Z</time>
      </trkpt>
      <trkpt lat="44.61565" lon="3.20077">
        <ele>1220</ele>
        <time>2014-06-02T14:19:35Z</time>
      </trkpt>
      <trkpt lat="44.6156" lon="3.20061">
        <ele>1216</ele>
        <time>2014-06-02T14:19:39Z</time>
      </trkpt>
      <trkpt lat="44.61549" lon="3.20008">
        <ele>1216</ele>
        <time>2014-06-02T14:19:55Z</time>
      </trkpt>
      <trkpt lat="44.61548" lon="3.19997">
        <ele>1213</ele>
        <time>2014-06-02T14:19:59Z</time>
      </trkpt>
      <trkpt lat="44.61545" lon="3.19969">
        <ele>1216</ele>
        <time>2014-06-02T14:20:09Z</time>
      </trkpt>
      <trkpt lat="44.61544" lon="3.19967">
        <ele>1212</ele>
        <time>2014-06-02T14:20:10Z</time>
      </trkpt>
      <trkpt lat="44.61541" lon="3.1996">
        <ele>1215</ele>
        <time>2014-06-02T14:20:13Z</time>
      </trkpt>
      <trkpt lat="44.61532" lon="3.19932">
        <ele>1212</ele>
        <time>2014-06-02T14:20:26Z</time>
      </trkpt>
      <trkpt lat="44.61526" lon="3.19917">
        <ele>1211</ele>
        <time>2014-06-02T14:20:33Z</time>
      </trkpt>
      <trkpt lat="44.61521" lon="3.19905">
        <ele>1208</ele>
        <time>2014-06-02T14:20:39Z</time>
      </trkpt>
      <trkpt lat="44.61524" lon="3.19868">
        <ele>1207</ele>
        <time>2014-06-02T14:20:53Z</time>
      </trkpt>
      <trkpt lat="44.61533" lon="3.19835">
        <ele>1205</ele>
        <time>2014-06-02T14:21:06Z</time>
      </trkpt>
      <trkpt lat="44.61533" lon="3.19784">
        <ele>1205</ele>
        <time>2014-06-02T14:21:20Z</time>
      </trkpt>
      <trkpt lat="44.61524" lon="3.19732">
        <ele>1201</ele>
        <time>2014-06-02T14:21:32Z</time>
      </trkpt>
      <trkpt lat="44.61521" lon="3.19713">
        <ele>1200</ele>
        <time>2014-06-02T14:21:36Z</time>
      </trkpt>
      <trkpt lat="44.6152" lon="3.19708">
        <ele>1201</ele>
        <time>2014-06-02T14:21:37Z</time>
      </trkpt>
      <trkpt lat="44.61519" lon="3.19703">
        <ele>1199</ele>
        <time>2014-06-02T14:21:38Z</time>
      </trkpt>
      <trkpt lat="44.61517" lon="3.19698">
        <ele>1200</ele>
        <time>2014-06-02T14:21:39Z</time>
      </trkpt>
      <trkpt lat="44.61515" lon="3.19693">
        <ele>1200</ele>
        <time>2014-06-02T14:21:40Z</time>
      </trkpt>
      <trkpt lat="44.61511" lon="3.19689">
        <ele>1199</ele>
        <time>2014-06-02T14:21:41Z</time>
      </trkpt>
      <trkpt lat="44.61508" lon="3.19686">
        <ele>1200</ele>
        <time>2014-06-02T14:21:42Z</time>
      </trkpt>
      <trkpt lat="44.61503" lon="3.19682">
        <ele>1200</ele>
        <time>2014-06-02T14:21:43Z</time>
      </trkpt>
      <trkpt lat="44.61499" lon="3.1968">
        <ele>1200</ele>
        <time>2014-06-02T14:21:44Z</time>
      </trkpt>
      <trkpt lat="44.61493" lon="3.19678">
        <ele>1202</ele>
        <time>2014-06-02T14:21:45Z</time>
      </trkpt>
      <trkpt lat="44.61486" lon="3.19677">
        <ele>1201</ele>
        <time>2014-06-02T14:21:46Z</time>
      </trkpt>
      <trkpt lat="44.6148" lon="3.19676">
        <ele>1203</ele>
        <time>2014-06-02T14:21:47Z</time>
      </trkpt>
      <trkpt lat="44.61473" lon="3.19677">
        <ele>1203</ele>
        <time>2014-06-02T14:21:48Z</time>
      </trkpt>
      <trkpt lat="44.61466" lon="3.19678">
        <ele>1204</ele>
        <time>2014-06-02T14:21:49Z</time>
      </trkpt>
      <trkpt lat="44.6146" lon="3.1968">
        <ele>1204</ele>
        <time>2014-06-02T14:21:50Z</time>
      </trkpt>
      <trkpt lat="44.6144" lon="3.19692">
        <ele>1207</ele>
        <time>2014-06-02T14:21:53Z</time>
      </trkpt>
      <trkpt lat="44.61421" lon="3.19704">
        <ele>1208</ele>
        <time>2014-06-02T14:21:56Z</time>
      </trkpt>
      <trkpt lat="44.61415" lon="3.19709">
        <ele>1208</ele>
        <time>2014-06-02T14:21:57Z</time>
      </trkpt>
      <trkpt lat="44.61367" lon="3.19739">
        <ele>1211</ele>
        <time>2014-06-02T14:22:05Z</time>
      </trkpt>
      <trkpt lat="44.6135" lon="3.1975">
        <ele>1214</ele>
        <time>2014-06-02T14:22:08Z</time>
      </trkpt>
      <trkpt lat="44.61332" lon="3.1976">
        <ele>1214</ele>
        <time>2014-06-02T14:22:11Z</time>
      </trkpt>
      <trkpt lat="44.61308" lon="3.19771">
        <ele>1216</ele>
        <time>2014-06-02T14:22:15Z</time>
      </trkpt>
      <trkpt lat="44.61291" lon="3.19773">
        <ele>1217</ele>
        <time>2014-06-02T14:22:18Z</time>
      </trkpt>
      <trkpt lat="44.6128" lon="3.19776">
        <ele>1218</ele>
        <time>2014-06-02T14:22:20Z</time>
      </trkpt>
      <trkpt lat="44.61263" lon="3.19785">
        <ele>1216</ele>
        <time>2014-06-02T14:22:24Z</time>
      </trkpt>
      <trkpt lat="44.61236" lon="3.19803">
        <ele>1219</ele>
        <time>2014-06-02T14:22:32Z</time>
      </trkpt>
      <trkpt lat="44.61232" lon="3.19806">
        <ele>1219</ele>
        <time>2014-06-02T14:22:33Z</time>
      </trkpt>
      <trkpt lat="44.61223" lon="3.19814">
        <ele>1221</ele>
        <time>2014-06-02T14:22:35Z</time>
      </trkpt>
      <trkpt lat="44.61218" lon="3.19819">
        <ele>1220</ele>
        <time>2014-06-02T14:22:36Z</time>
      </trkpt>
      <trkpt lat="44.61183" lon="3.1987">
        <ele>1221</ele>
        <time>2014-06-02T14:22:44Z</time>
      </trkpt>
      <trkpt lat="44.61165" lon="3.19896">
        <ele>1225</ele>
        <time>2014-06-02T14:22:48Z</time>
      </trkpt>
      <trkpt lat="44.61124" lon="3.19961">
        <ele>1225</ele>
        <time>2014-06-02T14:22:58Z</time>
      </trkpt>
      <trkpt lat="44.61121" lon="3.19965">
        <ele>1229</ele>
        <time>2014-06-02T14:22:59Z</time>
      </trkpt>
      <trkpt lat="44.61114" lon="3.19974">
        <ele>1226</ele>
        <time>2014-06-02T14:23:01Z</time>
      </trkpt>
      <trkpt lat="44.61094" lon="3.20013">
        <ele>1226</ele>
        <time>2014-06-02T14:23:07Z</time>
      </trkpt>
      <trkpt lat="44.61085" lon="3.20029">
        <ele>1224</ele>
        <time>2014-06-02T14:23:09Z</time>
      </trkpt>
      <trkpt lat="44.61066" lon="3.2006">
        <ele>1228</ele>
        <time>2014-06-02T14:23:13Z</time>
      </trkpt>
      <trkpt lat="44.61062" lon="3.20067">
        <ele>1233</ele>
        <time>2014-06-02T14:23:14Z</time>
      </trkpt>
      <trkpt lat="44.61058" lon="3.20074">
        <ele>1230</ele>
        <time>2014-06-02T14:23:15Z</time>
      </trkpt>
      <trkpt lat="44.61054" lon="3.2008">
        <ele>1234</ele>
        <time>2014-06-02T14:23:16Z</time>
      </trkpt>
      <trkpt lat="44.61051" lon="3.20086">
        <ele>1231</ele>
        <time>2014-06-02T14:23:17Z</time>
      </trkpt>
      <trkpt lat="44.61048" lon="3.20092">
        <ele>1235</ele>
        <time>2014-06-02T14:23:18Z</time>
      </trkpt>
      <trkpt lat="44.61045" lon="3.20096">
        <ele>1235</ele>
        <time>2014-06-02T14:23:19Z</time>
      </trkpt>
      <trkpt lat="44.61038" lon="3.20108">
        <ele>1234</ele>
        <time>2014-06-02T14:23:22Z</time>
      </trkpt>
      <trkpt lat="44.61036" lon="3.20111">
        <ele>1230</ele>
        <time>2014-06-02T14:23:23Z</time>
      </trkpt>
      <trkpt lat="44.61029" lon="3.20124">
        <ele>1234</ele>
        <time>2014-06-02T14:23:26Z</time>
      </trkpt>
      <trkpt lat="44.61026" lon="3.20129">
        <ele>1233</ele>
        <time>2014-06-02T14:23:27Z</time>
      </trkpt>
      <trkpt lat="44.61016" lon="3.20146">
        <ele>1232</ele>
        <time>2014-06-02T14:23:30Z</time>
      </trkpt>
      <trkpt lat="44.61012" lon="3.20152">
        <ele>1231</ele>
        <time>2014-06-02T14:23:31Z</time>
      </trkpt>
      <trkpt lat="44.61005" lon="3.20165">
        <ele>1235</ele>
        <time>2014-06-02T14:23:33Z</time>
      </trkpt>
      <trkpt lat="44.61002" lon="3.20171">
        <ele>1233</ele>
        <time>2014-06-02T14:23:34Z</time>
      </trkpt>
      <trkpt lat="44.61" lon="3.20177">
        <ele>1233</ele>
        <time>2014-06-02T14:23:35Z</time>
      </trkpt>
      <trkpt lat="44.60979" lon="3.20197">
        <ele>1239</ele>
        <time>2014-06-02T14:23:41Z</time>
      </trkpt>
      <trkpt lat="44.60975" lon="3.202">
        <ele>1238</ele>
        <time>2014-06-02T14:23:42Z</time>
      </trkpt>
      <trkpt lat="44.60969" lon="3.20203">
        <ele>1235</ele>
        <time>2014-06-02T14:23:43Z</time>
      </trkpt>
      <trkpt lat="44.60948" lon="3.20212">
        <ele>1238</ele>
        <time>2014-06-02T14:23:46Z</time>
      </trkpt>
      <trkpt lat="44.60941" lon="3.20215">
        <ele>1237</ele>
        <time>2014-06-02T14:23:47Z</time>
      </trkpt>
      <trkpt lat="44.60934" lon="3.20216">
        <ele>1240</ele>
        <time>2014-06-02T14:23:48Z</time>
      </trkpt>
      <trkpt lat="44.60929" lon="3.20218">
        <ele>1241</ele>
        <time>2014-06-02T14:23:49Z</time>
      </trkpt>
      <trkpt lat="44.60925" lon="3.20218">
        <ele>1243</ele>
        <time>2014-06-02T14:23:50Z</time>
      </trkpt>
      <trkpt lat="44.60921" lon="3.20216">
        <ele>1243</ele>
        <time>2014-06-02T14:23:51Z</time>
      </trkpt>
      <trkpt lat="44.60918" lon="3.20213">
        <ele>1241</ele>
        <time>2014-06-02T14:23:52Z</time>
      </trkpt>
      <trkpt lat="44.60914" lon="3.20209">
        <ele>1240</ele>
        <time>2014-06-02T14:23:53Z</time>
      </trkpt>
      <trkpt lat="44.60911" lon="3.20205">
        <ele>1241</ele>
        <time>2014-06-02T14:23:54Z</time>
      </trkpt>
      <trkpt lat="44.60909" lon="3.20201">
        <ele>1243</ele>
        <time>2014-06-02T14:23:55Z</time>
      </trkpt>
      <trkpt lat="44.60907" lon="3.20195">
        <ele>1243</ele>
        <time>2014-06-02T14:23:56Z</time>
      </trkpt>
      <trkpt lat="44.60906" lon="3.20188">
        <ele>1246</ele>
        <time>2014-06-02T14:23:57Z</time>
      </trkpt>
      <trkpt lat="44.60905" lon="3.2018">
        <ele>1246</ele>
        <time>2014-06-02T14:23:58Z</time>
      </trkpt>
      <trkpt lat="44.60904" lon="3.20172">
        <ele>1247</ele>
        <time>2014-06-02T14:23:59Z</time>
      </trkpt>
      <trkpt lat="44.60905" lon="3.20162">
        <ele>1246</ele>
        <time>2014-06-02T14:24:00Z</time>
      </trkpt>
      <trkpt lat="44.60909" lon="3.20127">
        <ele>1249</ele>
        <time>2014-06-02T14:24:04Z</time>
      </trkpt>
      <trkpt lat="44.60909" lon="3.20118">
        <ele>1249</ele>
        <time>2014-06-02T14:24:05Z</time>
      </trkpt>
      <trkpt lat="44.6091" lon="3.20101">
        <ele>1253</ele>
        <time>2014-06-02T14:24:07Z</time>
      </trkpt>
      <trkpt lat="44.6091" lon="3.20092">
        <ele>1250</ele>
        <time>2014-06-02T14:24:08Z</time>
      </trkpt>
      <trkpt lat="44.6091" lon="3.20083">
        <ele>1252</ele>
        <time>2014-06-02T14:24:09Z</time>
      </trkpt>
      <trkpt lat="44.60909" lon="3.20075">
        <ele>1251</ele>
        <time>2014-06-02T14:24:10Z</time>
      </trkpt>
      <trkpt lat="44.60908" lon="3.20067">
        <ele>1253</ele>
        <time>2014-06-02T14:24:11Z</time>
      </trkpt>
      <trkpt lat="44.60907" lon="3.20061">
        <ele>1254</ele>
        <time>2014-06-02T14:24:12Z</time>
      </trkpt>
      <trkpt lat="44.60904" lon="3.20055">
        <ele>1253</ele>
        <time>2014-06-02T14:24:13Z</time>
      </trkpt>
      <trkpt lat="44.60901" lon="3.2005">
        <ele>1253</ele>
        <time>2014-06-02T14:24:14Z</time>
      </trkpt>
      <trkpt lat="44.60896" lon="3.20047">
        <ele>1256</ele>
        <time>2014-06-02T14:24:15Z</time>
      </trkpt>
      <trkpt lat="44.60892" lon="3.20046">
        <ele>1256</ele>
        <time>2014-06-02T14:24:16Z</time>
      </trkpt>
      <trkpt lat="44.60888" lon="3.20048">
        <ele>1257</ele>
        <time>2014-06-02T14:24:17Z</time>
      </trkpt>
      <trkpt lat="44.60885" lon="3.20052">
        <ele>1256</ele>
        <time>2014-06-02T14:24:18Z</time>
      </trkpt>
      <trkpt lat="44.60876" lon="3.20073">
        <ele>1259</ele>
        <time>2014-06-02T14:24:21Z</time>
      </trkpt>
      <trkpt lat="44.60873" lon="3.20081">
        <ele>1258</ele>
        <time>2014-06-02T14:24:22Z</time>
      </trkpt>
      <trkpt lat="44.60869" lon="3.20089">
        <ele>1260</ele>
        <time>2014-06-02T14:24:23Z</time>
      </trkpt>
      <trkpt lat="44.60856" lon="3.20109">
        <ele>1261</ele>
        <time>2014-06-02T14:24:26Z</time>
      </trkpt>
      <trkpt lat="44.60851" lon="3.20115">
        <ele>1262</ele>
        <time>2014-06-02T14:24:27Z</time>
      </trkpt>
      <trkpt lat="44.60846" lon="3.20119">
        <ele>1261</ele>
        <time>2014-06-02T14:24:28Z</time>
      </trkpt>
      <trkpt lat="44.60841" lon="3.20124">
        <ele>1263</ele>
        <time>2014-06-02T14:24:29Z</time>
      </trkpt>
      <trkpt lat="44.60836" lon="3.20127">
        <ele>1262</ele>
        <time>2014-06-02T14:24:30Z</time>
      </trkpt>
      <trkpt lat="44.60831" lon="3.2013">
        <ele>1262</ele>
        <time>2014-06-02T14:24:31Z</time>
      </trkpt>
      <trkpt lat="44.60826" lon="3.2013">
        <ele>1264</ele>
        <time>2014-06-02T14:24:32Z</time>
      </trkpt>
      <trkpt lat="44.60823" lon="3.20127">
        <ele>1265</ele>
        <time>2014-06-02T14:24:33Z</time>
      </trkpt>
      <trkpt lat="44.60818" lon="3.20113">
        <ele>1267</ele>
        <time>2014-06-02T14:24:36Z</time>
      </trkpt>
      <trkpt lat="44.60816" lon="3.20108">
        <ele>1268</ele>
        <time>2014-06-02T14:24:37Z</time>
      </trkpt>
      <trkpt lat="44.60815" lon="3.20102">
        <ele>1268</ele>
        <time>2014-06-02T14:24:38Z</time>
      </trkpt>
      <trkpt lat="44.60809" lon="3.20091">
        <ele>1270</ele>
        <time>2014-06-02T14:24:40Z</time>
      </trkpt>
      <trkpt lat="44.60799" lon="3.2007">
        <ele>1272</ele>
        <time>2014-06-02T14:24:43Z</time>
      </trkpt>
      <trkpt lat="44.60794" lon="3.20062">
        <ele>1273</ele>
        <time>2014-06-02T14:24:44Z</time>
      </trkpt>
      <trkpt lat="44.6079" lon="3.20053">
        <ele>1273</ele>
        <time>2014-06-02T14:24:45Z</time>
      </trkpt>
      <trkpt lat="44.60787" lon="3.20045">
        <ele>1274</ele>
        <time>2014-06-02T14:24:46Z</time>
      </trkpt>
      <trkpt lat="44.60783" lon="3.20036">
        <ele>1275</ele>
        <time>2014-06-02T14:24:47Z</time>
      </trkpt>
      <trkpt lat="44.6078" lon="3.20028">
        <ele>1275</ele>
        <time>2014-06-02T14:24:48Z</time>
      </trkpt>
      <trkpt lat="44.60778" lon="3.2002">
        <ele>1276</ele>
        <time>2014-06-02T14:24:49Z</time>
      </trkpt>
      <trkpt lat="44.60776" lon="3.20011">
        <ele>1276</ele>
        <time>2014-06-02T14:24:50Z</time>
      </trkpt>
      <trkpt lat="44.60771" lon="3.19994">
        <ele>1277</ele>
        <time>2014-06-02T14:24:52Z</time>
      </trkpt>
      <trkpt lat="44.60768" lon="3.19986">
        <ele>1278</ele>
        <time>2014-06-02T14:24:53Z</time>
      </trkpt>
      <trkpt lat="44.60755" lon="3.19968">
        <ele>1279</ele>
        <time>2014-06-02T14:24:56Z</time>
      </trkpt>
      <trkpt lat="44.60751" lon="3.19962">
        <ele>1280</ele>
        <time>2014-06-02T14:24:57Z</time>
      </trkpt>
      <trkpt lat="44.60747" lon="3.19956">
        <ele>1279</ele>
        <time>2014-06-02T14:24:58Z</time>
      </trkpt>
      <trkpt lat="44.60744" lon="3.1995">
        <ele>1280</ele>
        <time>2014-06-02T14:24:59Z</time>
      </trkpt>
      <trkpt lat="44.60741" lon="3.19944">
        <ele>1280</ele>
        <time>2014-06-02T14:25:00Z</time>
      </trkpt>
      <trkpt lat="44.60737" lon="3.19939">
        <ele>1281</ele>
        <time>2014-06-02T14:25:01Z</time>
      </trkpt>
      <trkpt lat="44.60733" lon="3.19936">
        <ele>1281</ele>
        <time>2014-06-02T14:25:02Z</time>
      </trkpt>
      <trkpt lat="44.60698" lon="3.19915">
        <ele>1283</ele>
        <time>2014-06-02T14:25:15Z</time>
      </trkpt>
      <trkpt lat="44.60667" lon="3.19902">
        <ele>1280</ele>
        <time>2014-06-02T14:25:28Z</time>
      </trkpt>
      <trkpt lat="44.60637" lon="3.19916">
        <ele>1279</ele>
        <time>2014-06-02T14:25:42Z</time>
      </trkpt>
      <trkpt lat="44.60616" lon="3.19933">
        <ele>1278</ele>
        <time>2014-06-02T14:25:52Z</time>
      </trkpt>
      <trkpt lat="44.606" lon="3.19972">
        <ele>1279</ele>
        <time>2014-06-02T14:26:04Z</time>
      </trkpt>
      <trkpt lat="44.60582" lon="3.19996">
        <ele>1277</ele>
        <time>2014-06-02T14:26:16Z</time>
      </trkpt>
      <trkpt lat="44.60581" lon="3.19998">
        <ele>1277</ele>
        <time>2014-06-02T14:26:17Z</time>
      </trkpt>
      <trkpt lat="44.60579" lon="3.2">
        <ele>1276</ele>
        <time>2014-06-02T14:26:18Z</time>
      </trkpt>
      <trkpt lat="44.60578" lon="3.20002">
        <ele>1275</ele>
        <time>2014-06-02T14:26:19Z</time>
      </trkpt>
      <trkpt lat="44.60576" lon="3.20007">
        <ele>1276</ele>
        <time>2014-06-02T14:26:20Z</time>
      </trkpt>
      <trkpt lat="44.60575" lon="3.20013">
        <ele>1276</ele>
        <time>2014-06-02T14:26:21Z</time>
      </trkpt>
      <trkpt lat="44.60574" lon="3.20018">
        <ele>1277</ele>
        <time>2014-06-02T14:26:22Z</time>
      </trkpt>
      <trkpt lat="44.60573" lon="3.20023">
        <ele>1278</ele>
        <time>2014-06-02T14:26:23Z</time>
      </trkpt>
      <trkpt lat="44.60571" lon="3.20029">
        <ele>1278</ele>
        <time>2014-06-02T14:26:24Z</time>
      </trkpt>
      <trkpt lat="44.6057" lon="3.20036">
        <ele>1279</ele>
        <time>2014-06-02T14:26:25Z</time>
      </trkpt>
      <trkpt lat="44.60569" lon="3.20042">
        <ele>1280</ele>
        <time>2014-06-02T14:26:26Z</time>
      </trkpt>
      <trkpt lat="44.60569" lon="3.2005">
        <ele>1280</ele>
        <time>2014-06-02T14:26:27Z</time>
      </trkpt>
      <trkpt lat="44.60569" lon="3.20056">
        <ele>1281</ele>
        <time>2014-06-02T14:26:28Z</time>
      </trkpt>
      <trkpt lat="44.60573" lon="3.20074">
        <ele>1284</ele>
        <time>2014-06-02T14:26:32Z</time>
      </trkpt>
      <trkpt lat="44.60578" lon="3.20085">
        <ele>1286</ele>
        <time>2014-06-02T14:26:35Z</time>
      </trkpt>
      <trkpt lat="44.60579" lon="3.20088">
        <ele>1286</ele>
        <time>2014-06-02T14:26:36Z</time>
      </trkpt>
      <trkpt lat="44.60587" lon="3.20099">
        <ele>1289</ele>
        <time>2014-06-02T14:26:41Z</time>
      </trkpt>
      <trkpt lat="44.60598" lon="3.20111">
        <ele>1293</ele>
        <time>2014-06-02T14:26:47Z</time>
      </trkpt>
      <trkpt lat="44.60611" lon="3.20119">
        <ele>1297</ele>
        <time>2014-06-02T14:26:53Z</time>
      </trkpt>
      <trkpt lat="44.60622" lon="3.20119">
        <ele>1300</ele>
        <time>2014-06-02T14:26:58Z</time>
      </trkpt>
      <trkpt lat="44.60634" lon="3.20114">
        <ele>1303</ele>
        <time>2014-06-02T14:27:04Z</time>
      </trkpt>
      <trkpt lat="44.60647" lon="3.20106">
        <ele>1307</ele>
        <time>2014-06-02T14:27:11Z</time>
      </trkpt>
      <trkpt lat="44.6066" lon="3.20099">
        <ele>1309</ele>
        <time>2014-06-02T14:27:20Z</time>
      </trkpt>
      <trkpt lat="44.6066" lon="3.20099">
        <ele>1310</ele>
        <time>2014-06-02T14:27:21Z</time>
      </trkpt>
      <trkpt lat="44.60671" lon="3.20076">
        <ele>1314</ele>
        <time>2014-06-02T14:27:32Z</time>
      </trkpt>
      <trkpt lat="44.60671" lon="3.20075">
        <ele>1314</ele>
        <time>2014-06-02T14:27:44Z</time>
      </trkpt>
      <trkpt lat="44.60672" lon="3.20081">
        <ele>1313</ele>
        <time>2014-06-02T14:27:51Z</time>
      </trkpt>
      <trkpt lat="44.60665" lon="3.20098">
        <ele>1310</ele>
        <time>2014-06-02T14:28:07Z</time>
      </trkpt>
      <trkpt lat="44.60663" lon="3.20099">
        <ele>1310</ele>
        <time>2014-06-02T14:28:10Z</time>
      </trkpt>
      <trkpt lat="44.60662" lon="3.20099">
        <ele>1310</ele>
        <time>2014-06-02T14:28:40Z</time>
      </trkpt>
      <trkpt lat="44.60662" lon="3.20098">
        <ele>1309</ele>
        <time>2014-06-02T14:29:12Z</time>
      </trkpt>
      <trkpt lat="44.60662" lon="3.20099">
        <ele>1310</ele>
        <time>2014-06-02T14:29:39Z</time>
      </trkpt>
      <trkpt lat="44.60653" lon="3.20104">
        <ele>1308</ele>
        <time>2014-06-02T14:29:52Z</time>
      </trkpt>
      <trkpt lat="44.60649" lon="3.20106">
        <ele>1308</ele>
        <time>2014-06-02T14:29:56Z</time>
      </trkpt>
      <trkpt lat="44.60641" lon="3.20111">
        <ele>1304</ele>
        <time>2014-06-02T14:30:07Z</time>
      </trkpt>
      <trkpt lat="44.60631" lon="3.20115">
        <ele>1303</ele>
        <time>2014-06-02T14:30:21Z</time>
      </trkpt>
      <trkpt lat="44.6062" lon="3.2012">
        <ele>1300</ele>
        <time>2014-06-02T14:30:37Z</time>
      </trkpt>
      <trkpt lat="44.60614" lon="3.2012">
        <ele>1296</ele>
        <time>2014-06-02T14:30:51Z</time>
      </trkpt>
      <trkpt lat="44.60603" lon="3.20115">
        <ele>1295</ele>
        <time>2014-06-02T14:31:04Z</time>
      </trkpt>
      <trkpt lat="44.60602" lon="3.20114">
        <ele>1294</ele>
        <time>2014-06-02T14:31:05Z</time>
      </trkpt>
      <trkpt lat="44.606" lon="3.20113">
        <ele>1294</ele>
        <time>2014-06-02T14:31:11Z</time>
      </trkpt>
      <trkpt lat="44.60594" lon="3.20107">
        <ele>1291</ele>
        <time>2014-06-02T14:31:20Z</time>
      </trkpt>
      <trkpt lat="44.60588" lon="3.20099">
        <ele>1290</ele>
        <time>2014-06-02T14:31:37Z</time>
      </trkpt>
      <trkpt lat="44.60587" lon="3.20098">
        <ele>1289</ele>
        <time>2014-06-02T14:31:41Z</time>
      </trkpt>
      <trkpt lat="44.60586" lon="3.20097">
        <ele>1289</ele>
        <time>2014-06-02T14:31:42Z</time>
      </trkpt>
      <trkpt lat="44.60583" lon="3.20092">
        <ele>1285</ele>
        <time>2014-06-02T14:31:48Z</time>
      </trkpt>
      <trkpt lat="44.60582" lon="3.2009">
        <ele>1287</ele>
        <time>2014-06-02T14:31:51Z</time>
      </trkpt>
      <trkpt lat="44.60581" lon="3.20088">
        <ele>1286</ele>
        <time>2014-06-02T14:31:53Z</time>
      </trkpt>
      <trkpt lat="44.60577" lon="3.2008">
        <ele>1282</ele>
        <time>2014-06-02T14:32:05Z</time>
      </trkpt>
      <trkpt lat="44.60573" lon="3.20068">
        <ele>1282</ele>
        <time>2014-06-02T14:32:17Z</time>
      </trkpt>
      <trkpt lat="44.60572" lon="3.20066">
        <ele>1279</ele>
        <time>2014-06-02T14:32:21Z</time>
      </trkpt>
      <trkpt lat="44.6057" lon="3.20054">
        <ele>1280</ele>
        <time>2014-06-02T14:32:33Z</time>
      </trkpt>
      <trkpt lat="44.60569" lon="3.20034">
        <ele>1276</ele>
        <time>2014-06-02T14:32:44Z</time>
      </trkpt>
      <trkpt lat="44.6057" lon="3.20032">
        <ele>1279</ele>
        <time>2014-06-02T14:32:45Z</time>
      </trkpt>
      <trkpt lat="44.6057" lon="3.20031">
        <ele>1279</ele>
        <time>2014-06-02T14:32:46Z</time>
      </trkpt>
      <trkpt lat="44.60571" lon="3.20027">
        <ele>1277</ele>
        <time>2014-06-02T14:32:48Z</time>
      </trkpt>
      <trkpt lat="44.60571" lon="3.20025">
        <ele>1278</ele>
        <time>2014-06-02T14:32:49Z</time>
      </trkpt>
      <trkpt lat="44.60572" lon="3.20024">
        <ele>1275</ele>
        <time>2014-06-02T14:32:50Z</time>
      </trkpt>
      <trkpt lat="44.60573" lon="3.20022">
        <ele>1277</ele>
        <time>2014-06-02T14:32:51Z</time>
      </trkpt>
      <trkpt lat="44.60574" lon="3.2002">
        <ele>1276</ele>
        <time>2014-06-02T14:32:52Z</time>
      </trkpt>
      <trkpt lat="44.60582" lon="3.19998">
        <ele>1276</ele>
        <time>2014-06-02T14:32:58Z</time>
      </trkpt>
      <trkpt lat="44.60596" lon="3.19981">
        <ele>1280</ele>
        <time>2014-06-02T14:33:06Z</time>
      </trkpt>
      <trkpt lat="44.606" lon="3.19973">
        <ele>1281</ele>
        <time>2014-06-02T14:33:09Z</time>
      </trkpt>
      <trkpt lat="44.60613" lon="3.19941">
        <ele>1281</ele>
        <time>2014-06-02T14:33:20Z</time>
      </trkpt>
      <trkpt lat="44.60615" lon="3.19937">
        <ele>1278</ele>
        <time>2014-06-02T14:33:21Z</time>
      </trkpt>
      <trkpt lat="44.60617" lon="3.19933">
        <ele>1279</ele>
        <time>2014-06-02T14:33:22Z</time>
      </trkpt>
      <trkpt lat="44.6062" lon="3.19927">
        <ele>1280</ele>
        <time>2014-06-02T14:33:23Z</time>
      </trkpt>
      <trkpt lat="44.60624" lon="3.19923">
        <ele>1280</ele>
        <time>2014-06-02T14:33:24Z</time>
      </trkpt>
      <trkpt lat="44.60629" lon="3.1992">
        <ele>1281</ele>
        <time>2014-06-02T14:33:25Z</time>
      </trkpt>
      <trkpt lat="44.60636" lon="3.19916">
        <ele>1281</ele>
        <time>2014-06-02T14:33:27Z</time>
      </trkpt>
      <trkpt lat="44.60674" lon="3.199">
        <ele>1281</ele>
        <time>2014-06-02T14:33:39Z</time>
      </trkpt>
      <trkpt lat="44.60678" lon="3.199">
        <ele>1282</ele>
        <time>2014-06-02T14:33:40Z</time>
      </trkpt>
      <trkpt lat="44.60682" lon="3.19901">
        <ele>1282</ele>
        <time>2014-06-02T14:33:41Z</time>
      </trkpt>
      <trkpt lat="44.60704" lon="3.19919">
        <ele>1284</ele>
        <time>2014-06-02T14:33:50Z</time>
      </trkpt>
      <trkpt lat="44.60721" lon="3.19932">
        <ele>1283</ele>
        <time>2014-06-02T14:34:01Z</time>
      </trkpt>
      <trkpt lat="44.60729" lon="3.19934">
        <ele>1283</ele>
        <time>2014-06-02T14:34:06Z</time>
      </trkpt>
      <trkpt lat="44.60732" lon="3.19935">
        <ele>1282</ele>
        <time>2014-06-02T14:34:08Z</time>
      </trkpt>
      <trkpt lat="44.60742" lon="3.19945">
        <ele>1281</ele>
        <time>2014-06-02T14:34:17Z</time>
      </trkpt>
      <trkpt lat="44.60758" lon="3.1997">
        <ele>1279</ele>
        <time>2014-06-02T14:34:32Z</time>
      </trkpt>
      <trkpt lat="44.6076" lon="3.19972">
        <ele>1277</ele>
        <time>2014-06-02T14:34:40Z</time>
      </trkpt>
      <trkpt lat="44.6076" lon="3.19973">
        <ele>1277</ele>
        <time>2014-06-02T14:34:49Z</time>
      </trkpt>
      <trkpt lat="44.6076" lon="3.19974">
        <ele>1274</ele>
        <time>2014-06-02T14:34:54Z</time>
      </trkpt>
      <trkpt lat="44.6076" lon="3.19974">
        <ele>1274</ele>
        <time>2014-06-02T14:34:55Z</time>
      </trkpt>
      <trkpt lat="44.60759" lon="3.19973">
        <ele>1271</ele>
        <time>2014-06-02T14:35:05Z</time>
      </trkpt>
      <trkpt lat="44.6076" lon="3.19974">
        <ele>1268</ele>
        <time>2014-06-02T14:35:24Z</time>
      </trkpt>
      <trkpt lat="44.60761" lon="3.19976">
        <ele>1279</ele>
        <time>2014-06-02T14:35:25Z</time>
      </trkpt>
      <trkpt lat="44.60806" lon="3.20082">
        <ele>1266</ele>
        <time>2014-06-02T14:38:09Z</time>
      </trkpt>
      <trkpt lat="44.60811" lon="3.2009">
        <ele>1265</ele>
        <time>2014-06-02T14:38:15Z</time>
      </trkpt>
      <trkpt lat="44.60812" lon="3.20092">
        <ele>1264</ele>
        <time>2014-06-02T14:38:17Z</time>
      </trkpt>
      <trkpt lat="44.60817" lon="3.20101">
        <ele>1263</ele>
        <time>2014-06-02T14:38:23Z</time>
      </trkpt>
      <trkpt lat="44.60818" lon="3.20107">
        <ele>1261</ele>
        <time>2014-06-02T14:38:26Z</time>
      </trkpt>
      <trkpt lat="44.60821" lon="3.20115">
        <ele>1262</ele>
        <time>2014-06-02T14:38:32Z</time>
      </trkpt>
      <trkpt lat="44.60822" lon="3.20119">
        <ele>1260</ele>
        <time>2014-06-02T14:38:34Z</time>
      </trkpt>
      <trkpt lat="44.60823" lon="3.20122">
        <ele>1261</ele>
        <time>2014-06-02T14:38:36Z</time>
      </trkpt>
      <trkpt lat="44.60827" lon="3.20124">
        <ele>1260</ele>
        <time>2014-06-02T14:38:39Z</time>
      </trkpt>
      <trkpt lat="44.60833" lon="3.20127">
        <ele>1261</ele>
        <time>2014-06-02T14:38:43Z</time>
      </trkpt>
      <trkpt lat="44.60834" lon="3.20126">
        <ele>1261</ele>
        <time>2014-06-02T14:38:44Z</time>
      </trkpt>
      <trkpt lat="44.60835" lon="3.20125">
        <ele>1258</ele>
        <time>2014-06-02T14:38:45Z</time>
      </trkpt>
      <trkpt lat="44.60837" lon="3.20124">
        <ele>1260</ele>
        <time>2014-06-02T14:38:47Z</time>
      </trkpt>
      <trkpt lat="44.60841" lon="3.20121">
        <ele>1258</ele>
        <time>2014-06-02T14:38:50Z</time>
      </trkpt>
      <trkpt lat="44.60854" lon="3.20108">
        <ele>1255</ele>
        <time>2014-06-02T14:39:02Z</time>
      </trkpt>
      <trkpt lat="44.60866" lon="3.20093">
        <ele>1258</ele>
        <time>2014-06-02T14:39:12Z</time>
      </trkpt>
      <trkpt lat="44.60871" lon="3.20085">
        <ele>1254</ele>
        <time>2014-06-02T14:39:17Z</time>
      </trkpt>
      <trkpt lat="44.60873" lon="3.20081">
        <ele>1254</ele>
        <time>2014-06-02T14:39:19Z</time>
      </trkpt>
      <trkpt lat="44.60873" lon="3.20079">
        <ele>1253</ele>
        <time>2014-06-02T14:39:20Z</time>
      </trkpt>
      <trkpt lat="44.60874" lon="3.20077">
        <ele>1257</ele>
        <time>2014-06-02T14:39:21Z</time>
      </trkpt>
      <trkpt lat="44.60879" lon="3.20067">
        <ele>1253</ele>
        <time>2014-06-02T14:39:27Z</time>
      </trkpt>
      <trkpt lat="44.60881" lon="3.20063">
        <ele>1255</ele>
        <time>2014-06-02T14:39:29Z</time>
      </trkpt>
      <trkpt lat="44.60882" lon="3.20061">
        <ele>1255</ele>
        <time>2014-06-02T14:39:30Z</time>
      </trkpt>
      <trkpt lat="44.6089" lon="3.20046">
        <ele>1251</ele>
        <time>2014-06-02T14:39:38Z</time>
      </trkpt>
      <trkpt lat="44.60896" lon="3.20041">
        <ele>1251</ele>
        <time>2014-06-02T14:39:44Z</time>
      </trkpt>
      <trkpt lat="44.60903" lon="3.20047">
        <ele>1251</ele>
        <time>2014-06-02T14:39:50Z</time>
      </trkpt>
      <trkpt lat="44.60907" lon="3.20052">
        <ele>1251</ele>
        <time>2014-06-02T14:39:54Z</time>
      </trkpt>
      <trkpt lat="44.6091" lon="3.2006">
        <ele>1247</ele>
        <time>2014-06-02T14:39:58Z</time>
      </trkpt>
      <trkpt lat="44.60913" lon="3.20071">
        <ele>1247</ele>
        <time>2014-06-02T14:40:04Z</time>
      </trkpt>
      <trkpt lat="44.60913" lon="3.20092">
        <ele>1248</ele>
        <time>2014-06-02T14:40:12Z</time>
      </trkpt>
      <trkpt lat="44.60915" lon="3.20106">
        <ele>1247</ele>
        <time>2014-06-02T14:40:19Z</time>
      </trkpt>
      <trkpt lat="44.60915" lon="3.20113">
        <ele>1246</ele>
        <time>2014-06-02T14:40:22Z</time>
      </trkpt>
      <trkpt lat="44.60915" lon="3.20125">
        <ele>1246</ele>
        <time>2014-06-02T14:40:28Z</time>
      </trkpt>
      <trkpt lat="44.60914" lon="3.20127">
        <ele>1246</ele>
        <time>2014-06-02T14:40:29Z</time>
      </trkpt>
      <trkpt lat="44.60913" lon="3.20134">
        <ele>1244</ele>
        <time>2014-06-02T14:40:33Z</time>
      </trkpt>
      <trkpt lat="44.6091" lon="3.20158">
        <ele>1243</ele>
        <time>2014-06-02T14:40:45Z</time>
      </trkpt>
      <trkpt lat="44.60909" lon="3.20164">
        <ele>1240</ele>
        <time>2014-06-02T14:40:49Z</time>
      </trkpt>
      <trkpt lat="44.60912" lon="3.20179">
        <ele>1244</ele>
        <time>2014-06-02T14:40:56Z</time>
      </trkpt>
      <trkpt lat="44.60918" lon="3.20197">
        <ele>1242</ele>
        <time>2014-06-02T14:41:06Z</time>
      </trkpt>
      <trkpt lat="44.60918" lon="3.20199">
        <ele>1242</ele>
        <time>2014-06-02T14:41:07Z</time>
      </trkpt>
      <trkpt lat="44.60923" lon="3.20209">
        <ele>1236</ele>
        <time>2014-06-02T14:41:13Z</time>
      </trkpt>
      <trkpt lat="44.60929" lon="3.20215">
        <ele>1240</ele>
        <time>2014-06-02T14:41:18Z</time>
      </trkpt>
      <trkpt lat="44.60932" lon="3.20216">
        <ele>1236</ele>
        <time>2014-06-02T14:41:20Z</time>
      </trkpt>
      <trkpt lat="44.60933" lon="3.20216">
        <ele>1235</ele>
        <time>2014-06-02T14:41:21Z</time>
      </trkpt>
      <trkpt lat="44.60938" lon="3.20216">
        <ele>1239</ele>
        <time>2014-06-02T14:41:24Z</time>
      </trkpt>
      <trkpt lat="44.6094" lon="3.20216">
        <ele>1235</ele>
        <time>2014-06-02T14:41:26Z</time>
      </trkpt>
      <trkpt lat="44.60946" lon="3.20214">
        <ele>1237</ele>
        <time>2014-06-02T14:41:31Z</time>
      </trkpt>
      <trkpt lat="44.60948" lon="3.20214">
        <ele>1238</ele>
        <time>2014-06-02T14:41:32Z</time>
      </trkpt>
      <trkpt lat="44.60951" lon="3.20212">
        <ele>1233</ele>
        <time>2014-06-02T14:41:34Z</time>
      </trkpt>
      <trkpt lat="44.60956" lon="3.2021">
        <ele>1236</ele>
        <time>2014-06-02T14:41:37Z</time>
      </trkpt>
      <trkpt lat="44.60958" lon="3.20209">
        <ele>1237</ele>
        <time>2014-06-02T14:41:38Z</time>
      </trkpt>
      <trkpt lat="44.60963" lon="3.20207">
        <ele>1233</ele>
        <time>2014-06-02T14:41:41Z</time>
      </trkpt>
      <trkpt lat="44.60964" lon="3.20206">
        <ele>1236</ele>
        <time>2014-06-02T14:41:42Z</time>
      </trkpt>
      <trkpt lat="44.60968" lon="3.20204">
        <ele>1233</ele>
        <time>2014-06-02T14:41:44Z</time>
      </trkpt>
      <trkpt lat="44.60971" lon="3.20202">
        <ele>1234</ele>
        <time>2014-06-02T14:41:46Z</time>
      </trkpt>
      <trkpt lat="44.60973" lon="3.20201">
        <ele>1236</ele>
        <time>2014-06-02T14:41:47Z</time>
      </trkpt>
      <trkpt lat="44.60987" lon="3.20192">
        <ele>1230</ele>
        <time>2014-06-02T14:41:57Z</time>
      </trkpt>
      <trkpt lat="44.60991" lon="3.20191">
        <ele>1230</ele>
        <time>2014-06-02T14:42:00Z</time>
      </trkpt>
      <trkpt lat="44.60992" lon="3.20192">
        <ele>1234</ele>
        <time>2014-06-02T14:42:02Z</time>
      </trkpt>
      <trkpt lat="44.60992" lon="3.20192">
        <ele>1231</ele>
        <time>2014-06-02T14:42:06Z</time>
      </trkpt>
      <trkpt lat="44.60992" lon="3.20192">
        <ele>1230</ele>
        <time>2014-06-02T14:42:07Z</time>
      </trkpt>
      <trkpt lat="44.60992" lon="3.20192">
        <ele>1233</ele>
        <time>2014-06-02T14:42:08Z</time>
      </trkpt>
      <trkpt lat="44.60991" lon="3.20192">
        <ele>1234</ele>
        <time>2014-06-02T14:42:12Z</time>
      </trkpt>
      <trkpt lat="44.60991" lon="3.20191">
        <ele>1230</ele>
        <time>2014-06-02T14:42:14Z</time>
      </trkpt>
      <trkpt lat="44.60991" lon="3.20191">
        <ele>1234</ele>
        <time>2014-06-02T14:42:15Z</time>
      </trkpt>
      <trkpt lat="44.60991" lon="3.20191">
        <ele>1230</ele>
        <time>2014-06-02T14:42:18Z</time>
      </trkpt>
      <trkpt lat="44.60991" lon="3.20191">
        <ele>1229</ele>
        <time>2014-06-02T14:42:19Z</time>
      </trkpt>
      <trkpt lat="44.60991" lon="3.20191">
        <ele>1234</ele>
        <time>2014-06-02T14:42:21Z</time>
      </trkpt>
      <trkpt lat="44.60991" lon="3.20191">
        <ele>1231</ele>
        <time>2014-06-02T14:42:22Z</time>
      </trkpt>
      <trkpt lat="44.60991" lon="3.20191">
        <ele>1234</ele>
        <time>2014-06-02T14:42:24Z</time>
      </trkpt>
      <trkpt lat="44.60991" lon="3.20191">
        <ele>1230</ele>
        <time>2014-06-02T14:42:25Z</time>
      </trkpt>
      <trkpt lat="44.60991" lon="3.20191">
        <ele>1234</ele>
        <time>2014-06-02T14:42:26Z</time>
      </trkpt>
      <trkpt lat="44.60991" lon="3.2019">
        <ele>1231</ele>
        <time>2014-06-02T14:42:27Z</time>
      </trkpt>
      <trkpt lat="44.60991" lon="3.2019">
        <ele>1234</ele>
        <time>2014-06-02T14:42:29Z</time>
      </trkpt>
      <trkpt lat="44.60991" lon="3.20196">
        <ele>1232</ele>
        <time>2014-06-02T14:42:36Z</time>
      </trkpt>
      <trkpt lat="44.6099" lon="3.20199">
        <ele>1233</ele>
        <time>2014-06-02T14:42:38Z</time>
      </trkpt>
      <trkpt lat="44.60989" lon="3.20202">
        <ele>1234</ele>
        <time>2014-06-02T14:42:39Z</time>
      </trkpt>
      <trkpt lat="44.60988" lon="3.20204">
        <ele>1230</ele>
        <time>2014-06-02T14:42:40Z</time>
      </trkpt>
      <trkpt lat="44.60971" lon="3.20239">
        <ele>1232</ele>
        <time>2014-06-02T14:42:52Z</time>
      </trkpt>
      <trkpt lat="44.60969" lon="3.20242">
        <ele>1228</ele>
        <time>2014-06-02T14:42:53Z</time>
      </trkpt>
      <trkpt lat="44.60963" lon="3.20251">
        <ele>1232</ele>
        <time>2014-06-02T14:42:56Z</time>
      </trkpt>
      <trkpt lat="44.60942" lon="3.20288">
        <ele>1231</ele>
        <time>2014-06-02T14:43:07Z</time>
      </trkpt>
      <trkpt lat="44.60932" lon="3.2031">
        <ele>1233</ele>
        <time>2014-06-02T14:43:13Z</time>
      </trkpt>
      <trkpt lat="44.60922" lon="3.2033">
        <ele>1233</ele>
        <time>2014-06-02T14:43:19Z</time>
      </trkpt>
      <trkpt lat="44.60896" lon="3.20367">
        <ele>1233</ele>
        <time>2014-06-02T14:43:33Z</time>
      </trkpt>
      <trkpt lat="44.60868" lon="3.20403">
        <ele>1232</ele>
        <time>2014-06-02T14:43:49Z</time>
      </trkpt>
      <trkpt lat="44.60847" lon="3.20432">
        <ele>1230</ele>
        <time>2014-06-02T14:44:01Z</time>
      </trkpt>
      <trkpt lat="44.60817" lon="3.20454">
        <ele>1229</ele>
        <time>2014-06-02T14:44:16Z</time>
      </trkpt>
      <trkpt lat="44.60807" lon="3.2046">
        <ele>1227</ele>
        <time>2014-06-02T14:44:21Z</time>
      </trkpt>
      <trkpt lat="44.60774" lon="3.20483">
        <ele>1226</ele>
        <time>2014-06-02T14:44:37Z</time>
      </trkpt>
      <trkpt lat="44.60746" lon="3.20505">
        <ele>1225</ele>
        <time>2014-06-02T14:44:52Z</time>
      </trkpt>
      <trkpt lat="44.60745" lon="3.20507">
        <ele>1225</ele>
        <time>2014-06-02T14:44:53Z</time>
      </trkpt>
      <trkpt lat="44.60724" lon="3.20534">
        <ele>1221</ele>
        <time>2014-06-02T14:45:08Z</time>
      </trkpt>
      <trkpt lat="44.6071" lon="3.20548">
        <ele>1221</ele>
        <time>2014-06-02T14:45:17Z</time>
      </trkpt>
      <trkpt lat="44.60706" lon="3.20553">
        <ele>1220</ele>
        <time>2014-06-02T14:45:20Z</time>
      </trkpt>
      <trkpt lat="44.60678" lon="3.20573">
        <ele>1219</ele>
        <time>2014-06-02T14:45:37Z</time>
      </trkpt>
      <trkpt lat="44.60657" lon="3.20585">
        <ele>1217</ele>
        <time>2014-06-02T14:45:50Z</time>
      </trkpt>
      <trkpt lat="44.60635" lon="3.20595">
        <ele>1214</ele>
        <time>2014-06-02T14:46:04Z</time>
      </trkpt>
      <trkpt lat="44.60615" lon="3.20602">
        <ele>1212</ele>
        <time>2014-06-02T14:46:17Z</time>
      </trkpt>
      <trkpt lat="44.60606" lon="3.20607">
        <ele>1213</ele>
        <time>2014-06-02T14:46:23Z</time>
      </trkpt>
      <trkpt lat="44.60605" lon="3.20608">
        <ele>1211</ele>
        <time>2014-06-02T14:46:24Z</time>
      </trkpt>
      <trkpt lat="44.60584" lon="3.20615">
        <ele>1210</ele>
        <time>2014-06-02T14:46:38Z</time>
      </trkpt>
      <trkpt lat="44.60577" lon="3.20616">
        <ele>1209</ele>
        <time>2014-06-02T14:46:43Z</time>
      </trkpt>
      <trkpt lat="44.60573" lon="3.2062">
        <ele>1209</ele>
        <time>2014-06-02T14:46:47Z</time>
      </trkpt>
      <trkpt lat="44.6056" lon="3.20624">
        <ele>1207</ele>
        <time>2014-06-02T14:46:55Z</time>
      </trkpt>
      <trkpt lat="44.60554" lon="3.20626">
        <ele>1207</ele>
        <time>2014-06-02T14:46:59Z</time>
      </trkpt>
      <trkpt lat="44.60554" lon="3.20626">
        <ele>1206</ele>
        <time>2014-06-02T14:47:01Z</time>
      </trkpt>
      <trkpt lat="44.60553" lon="3.20627">
        <ele>1206</ele>
        <time>2014-06-02T14:47:22Z</time>
      </trkpt>
      <trkpt lat="44.60551" lon="3.20624">
        <ele>1205</ele>
        <time>2014-06-02T14:47:47Z</time>
      </trkpt>
      <trkpt lat="44.60549" lon="3.20621">
        <ele>1205</ele>
        <time>2014-06-02T14:47:57Z</time>
      </trkpt>
      <trkpt lat="44.6055" lon="3.20618">
        <ele>1206</ele>
        <time>2014-06-02T14:48:10Z</time>
      </trkpt>
      <trkpt lat="44.60552" lon="3.20615">
        <ele>1208</ele>
        <time>2014-06-02T14:48:14Z</time>
      </trkpt>
      <trkpt lat="44.60562" lon="3.20615">
        <ele>1209</ele>
        <time>2014-06-02T14:48:19Z</time>
      </trkpt>
      <trkpt lat="44.60565" lon="3.20605">
        <ele>1209</ele>
        <time>2014-06-02T14:48:24Z</time>
      </trkpt>
      <trkpt lat="44.60559" lon="3.20598">
        <ele>1210</ele>
        <time>2014-06-02T14:48:29Z</time>
      </trkpt>
      <trkpt lat="44.60556" lon="3.20595">
        <ele>1210</ele>
        <time>2014-06-02T14:48:32Z</time>
      </trkpt>
      <trkpt lat="44.60554" lon="3.20593">
        <ele>1210</ele>
        <time>2014-06-02T14:48:33Z</time>
      </trkpt>
      <trkpt lat="44.60541" lon="3.20576">
        <ele>1213</ele>
        <time>2014-06-02T14:48:43Z</time>
      </trkpt>
      <trkpt lat="44.60542" lon="3.20553">
        <ele>1216</ele>
        <time>2014-06-02T14:48:51Z</time>
      </trkpt>
      <trkpt lat="44.6054" lon="3.20536">
        <ele>1218</ele>
        <time>2014-06-02T14:48:56Z</time>
      </trkpt>
      <trkpt lat="44.60541" lon="3.2053">
        <ele>1219</ele>
        <time>2014-06-02T14:48:59Z</time>
      </trkpt>
      <trkpt lat="44.6054" lon="3.20528">
        <ele>1219</ele>
        <time>2014-06-02T14:49:00Z</time>
      </trkpt>
      <trkpt lat="44.6054" lon="3.20525">
        <ele>1219</ele>
        <time>2014-06-02T14:49:01Z</time>
      </trkpt>
      <trkpt lat="44.60539" lon="3.20522">
        <ele>1220</ele>
        <time>2014-06-02T14:49:02Z</time>
      </trkpt>
      <trkpt lat="44.60538" lon="3.20519">
        <ele>1220</ele>
        <time>2014-06-02T14:49:03Z</time>
      </trkpt>
      <trkpt lat="44.60539" lon="3.20515">
        <ele>1221</ele>
        <time>2014-06-02T14:49:04Z</time>
      </trkpt>
      <trkpt lat="44.60541" lon="3.20513">
        <ele>1221</ele>
        <time>2014-06-02T14:49:05Z</time>
      </trkpt>
      <trkpt lat="44.60542" lon="3.2051">
        <ele>1222</ele>
        <time>2014-06-02T14:49:06Z</time>
      </trkpt>
      <trkpt lat="44.60542" lon="3.20501">
        <ele>1222</ele>
        <time>2014-06-02T14:49:09Z</time>
      </trkpt>
      <trkpt lat="44.60542" lon="3.20471">
        <ele>1224</ele>
        <time>2014-06-02T14:49:19Z</time>
      </trkpt>
      <trkpt lat="44.60542" lon="3.20469">
        <ele>1224</ele>
        <time>2014-06-02T14:49:20Z</time>
      </trkpt>
      <trkpt lat="44.60542" lon="3.20466">
        <ele>1223</ele>
        <time>2014-06-02T14:49:21Z</time>
      </trkpt>
      <trkpt lat="44.60541" lon="3.20463">
        <ele>1225</ele>
        <time>2014-06-02T14:49:22Z</time>
      </trkpt>
      <trkpt lat="44.6054" lon="3.20461">
        <ele>1224</ele>
        <time>2014-06-02T14:49:23Z</time>
      </trkpt>
      <trkpt lat="44.6054" lon="3.20459">
        <ele>1224</ele>
        <time>2014-06-02T14:49:25Z</time>
      </trkpt>
      <trkpt lat="44.60535" lon="3.20457">
        <ele>1223</ele>
        <time>2014-06-02T14:49:34Z</time>
      </trkpt>
      <trkpt lat="44.60528" lon="3.20457">
        <ele>1223</ele>
        <time>2014-06-02T14:49:44Z</time>
      </trkpt>
      <trkpt lat="44.60524" lon="3.20457">
        <ele>1223</ele>
        <time>2014-06-02T14:49:49Z</time>
      </trkpt>
      <trkpt lat="44.60525" lon="3.2046">
        <ele>1223</ele>
        <time>2014-06-02T14:49:55Z</time>
      </trkpt>
      <trkpt lat="44.60527" lon="3.2047">
        <ele>1223</ele>
        <time>2014-06-02T14:50:07Z</time>
      </trkpt>
      <trkpt lat="44.60527" lon="3.20472">
        <ele>1222</ele>
        <time>2014-06-02T14:50:17Z</time>
      </trkpt>
      <trkpt lat="44.60526" lon="3.20469">
        <ele>1224</ele>
        <time>2014-06-02T14:50:19Z</time>
      </trkpt>
      <trkpt lat="44.60525" lon="3.2046">
        <ele>1223</ele>
        <time>2014-06-02T14:50:32Z</time>
      </trkpt>
      <trkpt lat="44.60524" lon="3.20454">
        <ele>1224</ele>
        <time>2014-06-02T14:50:44Z</time>
      </trkpt>
      <trkpt lat="44.60523" lon="3.20452">
        <ele>1224</ele>
        <time>2014-06-02T14:50:45Z</time>
      </trkpt>
      <trkpt lat="44.60521" lon="3.20443">
        <ele>1224</ele>
        <time>2014-06-02T14:50:55Z</time>
      </trkpt>
      <trkpt lat="44.6052" lon="3.20436">
        <ele>1225</ele>
        <time>2014-06-02T14:51:03Z</time>
      </trkpt>
      <trkpt lat="44.60517" lon="3.20428">
        <ele>1227</ele>
        <time>2014-06-02T14:51:16Z</time>
      </trkpt>
      <trkpt lat="44.60516" lon="3.20426">
        <ele>1226</ele>
        <time>2014-06-02T14:51:17Z</time>
      </trkpt>
      <trkpt lat="44.60514" lon="3.20422">
        <ele>1226</ele>
        <time>2014-06-02T14:51:23Z</time>
      </trkpt>
      <trkpt lat="44.60515" lon="3.20419">
        <ele>1228</ele>
        <time>2014-06-02T14:51:24Z</time>
      </trkpt>
      <trkpt lat="44.60513" lon="3.20415">
        <ele>1227</ele>
        <time>2014-06-02T14:51:32Z</time>
      </trkpt>
      <trkpt lat="44.60506" lon="3.20407">
        <ele>1228</ele>
        <time>2014-06-02T14:51:42Z</time>
      </trkpt>
      <trkpt lat="44.60505" lon="3.20404">
        <ele>1228</ele>
        <time>2014-06-02T14:51:43Z</time>
      </trkpt>
      <trkpt lat="44.60504" lon="3.20401">
        <ele>1230</ele>
        <time>2014-06-02T14:51:44Z</time>
      </trkpt>
      <trkpt lat="44.60503" lon="3.20398">
        <ele>1229</ele>
        <time>2014-06-02T14:51:45Z</time>
      </trkpt>
      <trkpt lat="44.60502" lon="3.20395">
        <ele>1230</ele>
        <time>2014-06-02T14:51:46Z</time>
      </trkpt>
      <trkpt lat="44.60501" lon="3.20393">
        <ele>1230</ele>
        <time>2014-06-02T14:51:47Z</time>
      </trkpt>
      <trkpt lat="44.605" lon="3.2039">
        <ele>1230</ele>
        <time>2014-06-02T14:51:48Z</time>
      </trkpt>
      <trkpt lat="44.60499" lon="3.20388">
        <ele>1232</ele>
        <time>2014-06-02T14:51:49Z</time>
      </trkpt>
      <trkpt lat="44.60496" lon="3.20376">
        <ele>1232</ele>
        <time>2014-06-02T14:51:53Z</time>
      </trkpt>
      <trkpt lat="44.60495" lon="3.20373">
        <ele>1233</ele>
        <time>2014-06-02T14:51:54Z</time>
      </trkpt>
      <trkpt lat="44.60491" lon="3.20343">
        <ele>1236</ele>
        <time>2014-06-02T14:52:04Z</time>
      </trkpt>
      <trkpt lat="44.60491" lon="3.20339">
        <ele>1236</ele>
        <time>2014-06-02T14:52:05Z</time>
      </trkpt>
      <trkpt lat="44.6049" lon="3.20322">
        <ele>1238</ele>
        <time>2014-06-02T14:52:13Z</time>
      </trkpt>
      <trkpt lat="44.6049" lon="3.20319">
        <ele>1238</ele>
        <time>2014-06-02T14:52:23Z</time>
      </trkpt>
      <trkpt lat="44.60486" lon="3.20313">
        <ele>1237</ele>
        <time>2014-06-02T14:52:34Z</time>
      </trkpt>
      <trkpt lat="44.60485" lon="3.20313">
        <ele>1236</ele>
        <time>2014-06-02T14:52:35Z</time>
      </trkpt>
      <trkpt lat="44.60485" lon="3.20313">
        <ele>1237</ele>
        <time>2014-06-02T14:52:49Z</time>
      </trkpt>
      <trkpt lat="44.60491" lon="3.20316">
        <ele>1239</ele>
        <time>2014-06-02T14:53:01Z</time>
      </trkpt>
      <trkpt lat="44.60493" lon="3.20309">
        <ele>1240</ele>
        <time>2014-06-02T14:53:10Z</time>
      </trkpt>
      <trkpt lat="44.60491" lon="3.20271">
        <ele>1243</ele>
        <time>2014-06-02T14:53:19Z</time>
      </trkpt>
      <trkpt lat="44.60491" lon="3.20265">
        <ele>1244</ele>
        <time>2014-06-02T14:53:20Z</time>
      </trkpt>
      <trkpt lat="44.60488" lon="3.20234">
        <ele>1246</ele>
        <time>2014-06-02T14:53:26Z</time>
      </trkpt>
      <trkpt lat="44.60484" lon="3.2019">
        <ele>1249</ele>
        <time>2014-06-02T14:53:37Z</time>
      </trkpt>
      <trkpt lat="44.60493" lon="3.20148">
        <ele>1253</ele>
        <time>2014-06-02T14:53:47Z</time>
      </trkpt>
      <trkpt lat="44.60502" lon="3.20105">
        <ele>1256</ele>
        <time>2014-06-02T14:53:57Z</time>
      </trkpt>
      <trkpt lat="44.60512" lon="3.20059">
        <ele>1258</ele>
        <time>2014-06-02T14:54:10Z</time>
      </trkpt>
      <trkpt lat="44.60519" lon="3.20022">
        <ele>1261</ele>
        <time>2014-06-02T14:54:21Z</time>
      </trkpt>
      <trkpt lat="44.60523" lon="3.19986">
        <ele>1261</ele>
        <time>2014-06-02T14:54:34Z</time>
      </trkpt>
      <trkpt lat="44.60524" lon="3.19971">
        <ele>1262</ele>
        <time>2014-06-02T14:54:39Z</time>
      </trkpt>
      <trkpt lat="44.60524" lon="3.19964">
        <ele>1262</ele>
        <time>2014-06-02T14:54:42Z</time>
      </trkpt>
      <trkpt lat="44.60528" lon="3.19928">
        <ele>1261</ele>
        <time>2014-06-02T14:54:56Z</time>
      </trkpt>
      <trkpt lat="44.60532" lon="3.19908">
        <ele>1260</ele>
        <time>2014-06-02T14:55:10Z</time>
      </trkpt>
      <trkpt lat="44.60537" lon="3.19882">
        <ele>1261</ele>
        <time>2014-06-02T14:55:20Z</time>
      </trkpt>
      <trkpt lat="44.60541" lon="3.19856">
        <ele>1259</ele>
        <time>2014-06-02T14:55:30Z</time>
      </trkpt>
      <trkpt lat="44.60541" lon="3.19855">
        <ele>1259</ele>
        <time>2014-06-02T14:55:31Z</time>
      </trkpt>
      <trkpt lat="44.60552" lon="3.19823">
        <ele>1258</ele>
        <time>2014-06-02T14:55:46Z</time>
      </trkpt>
      <trkpt lat="44.60557" lon="3.19808">
        <ele>1257</ele>
        <time>2014-06-02T14:55:53Z</time>
      </trkpt>
      <trkpt lat="44.60561" lon="3.19777">
        <ele>1256</ele>
        <time>2014-06-02T14:56:06Z</time>
      </trkpt>
      <trkpt lat="44.60568" lon="3.19742">
        <ele>1255</ele>
        <time>2014-06-02T14:56:21Z</time>
      </trkpt>
      <trkpt lat="44.60574" lon="3.19708">
        <ele>1255</ele>
        <time>2014-06-02T14:56:35Z</time>
      </trkpt>
      <trkpt lat="44.60574" lon="3.19697">
        <ele>1255</ele>
        <time>2014-06-02T14:56:40Z</time>
      </trkpt>
      <trkpt lat="44.60576" lon="3.19691">
        <ele>1255</ele>
        <time>2014-06-02T14:56:43Z</time>
      </trkpt>
      <trkpt lat="44.60578" lon="3.19681">
        <ele>1254</ele>
        <time>2014-06-02T14:56:48Z</time>
      </trkpt>
      <trkpt lat="44.60578" lon="3.19672">
        <ele>1254</ele>
        <time>2014-06-02T14:56:56Z</time>
      </trkpt>
      <trkpt lat="44.6058" lon="3.19665">
        <ele>1254</ele>
        <time>2014-06-02T14:57:02Z</time>
      </trkpt>
      <trkpt lat="44.6058" lon="3.19663">
        <ele>1253</ele>
        <time>2014-06-02T14:57:10Z</time>
      </trkpt>
      <trkpt lat="44.60583" lon="3.1966">
        <ele>1252</ele>
        <time>2014-06-02T14:57:23Z</time>
      </trkpt>
      <trkpt lat="44.60583" lon="3.1966">
        <ele>1253</ele>
        <time>2014-06-02T14:57:42Z</time>
      </trkpt>
      <trkpt lat="44.60588" lon="3.19659">
        <ele>1254</ele>
        <time>2014-06-02T14:57:51Z</time>
      </trkpt>
      <trkpt lat="44.6059" lon="3.19671">
        <ele>1254</ele>
        <time>2014-06-02T14:57:57Z</time>
      </trkpt>
      <trkpt lat="44.60593" lon="3.1968">
        <ele>1254</ele>
        <time>2014-06-02T14:58:02Z</time>
      </trkpt>
      <trkpt lat="44.60587" lon="3.19662">
        <ele>1253.5</ele>
        <time>2014-06-02T14:58:03Z</time>
      </trkpt>
      <trkpt lat="44.60601" lon="3.19632">
        <ele>1251.2</ele>
        <time>2014-06-02T14:58:17Z</time>
      </trkpt>
      <trkpt lat="44.60589" lon="3.19648">
        <ele>1252.6</ele>
        <time>2014-06-02T14:58:20Z</time>
      </trkpt>
      <trkpt lat="44.60588" lon="3.19629">
        <ele>1251.5</ele>
        <time>2014-06-02T14:58:35Z</time>
      </trkpt>
      <trkpt lat="44.60601" lon="3.19636">
        <ele>1251.4</ele>
        <time>2014-06-02T14:58:37Z</time>
      </trkpt>
      <trkpt lat="44.60597" lon="3.19617">
        <ele>1250.5</ele>
        <time>2014-06-02T14:58:50Z</time>
      </trkpt>
      <trkpt lat="44.60592" lon="3.19597">
        <ele>1249.5</ele>
        <time>2014-06-02T14:58:57Z</time>
      </trkpt>
      <trkpt lat="44.60597" lon="3.19614">
        <ele>1250.4</ele>
        <time>2014-06-02T14:59:02Z</time>
      </trkpt>
      <trkpt lat="44.60598" lon="3.19591">
        <ele>1249.1</ele>
        <time>2014-06-02T14:59:07Z</time>
      </trkpt>
      <trkpt lat="44.60608" lon="3.1958">
        <ele>1248.3</ele>
        <time>2014-06-02T14:59:14Z</time>
      </trkpt>
      <trkpt lat="44.60608" lon="3.19559">
        <ele>1247.6</ele>
        <time>2014-06-02T14:59:27Z</time>
      </trkpt>
      <trkpt lat="44.60618" lon="3.19552">
        <ele>1246</ele>
        <time>2014-06-02T14:59:31Z</time>
      </trkpt>
      <trkpt lat="44.60619" lon="3.19523">
        <ele>1244</ele>
        <time>2014-06-02T14:59:46Z</time>
      </trkpt>
      <trkpt lat="44.60618" lon="3.19514">
        <ele>1244</ele>
        <time>2014-06-02T14:59:51Z</time>
      </trkpt>
      <trkpt lat="44.6062" lon="3.19511">
        <ele>1244</ele>
        <time>2014-06-02T14:59:53Z</time>
      </trkpt>
      <trkpt lat="44.6063" lon="3.19508">
        <ele>1245</ele>
        <time>2014-06-02T15:00:02Z</time>
      </trkpt>
      <trkpt lat="44.60634" lon="3.19509">
        <ele>1245</ele>
        <time>2014-06-02T15:00:05Z</time>
      </trkpt>
      <trkpt lat="44.60627" lon="3.19514">
        <ele>1246.3</ele>
        <time>2014-06-02T15:00:18Z</time>
      </trkpt>
      <trkpt lat="44.60631" lon="3.19493">
        <ele>1245.6</ele>
        <time>2014-06-02T15:00:35Z</time>
      </trkpt>
      <trkpt lat="44.6063" lon="3.19472">
        <ele>1244</ele>
        <time>2014-06-02T15:00:41Z</time>
      </trkpt>
      <trkpt lat="44.60637" lon="3.1949">
        <ele>1245.5</ele>
        <time>2014-06-02T15:00:47Z</time>
      </trkpt>
      <trkpt lat="44.60641" lon="3.19466">
        <ele>1243.7</ele>
        <time>2014-06-02T15:00:54Z</time>
      </trkpt>
      <trkpt lat="44.60632" lon="3.19443">
        <ele>1241.9</ele>
        <time>2014-06-02T15:01:00Z</time>
      </trkpt>
      <trkpt lat="44.60638" lon="3.19433">
        <ele>1241.2</ele>
        <time>2014-06-02T15:01:08Z</time>
      </trkpt>
      <trkpt lat="44.60654" lon="3.19417">
        <ele>1239</ele>
        <time>2014-06-02T15:01:23Z</time>
      </trkpt>
      <trkpt lat="44.60646" lon="3.19419">
        <ele>1240.2</ele>
        <time>2014-09-20T02:36:38Z</time>
      </trkpt>
      <trkpt lat="44.60639" lon="3.19418">
        <ele>1240</ele>
        <time>2014-06-02T10:30:03Z</time>
      </trkpt>
      <trkpt lat="44.60651" lon="3.1941">
        <ele>1239</ele>
        <time>2014-06-02T15:01:34Z</time>
      </trkpt>
      <trkpt lat="44.6065" lon="3.19406">
        <ele>1239</ele>
        <time>2014-06-02T15:01:37Z</time>
      </trkpt>
      <trkpt lat="44.6065" lon="3.19406">
        <ele>1239</ele>
        <time>2014-06-02T15:01:39Z</time>
      </trkpt>
      <trkpt lat="44.60651" lon="3.19406">
        <ele>1238</ele>
        <time>2014-06-02T15:02:19Z</time>
      </trkpt>
      <trkpt lat="44.60649" lon="3.19407">
        <ele>1240</ele>
        <time>2014-06-02T15:02:31Z</time>
      </trkpt>
      <trkpt lat="44.60648" lon="3.19406">
        <ele>1239</ele>
        <time>2014-06-02T15:02:45Z</time>
      </trkpt>
      <trkpt lat="44.60641" lon="3.19396">
        <ele>1239</ele>
        <time>2014-06-02T15:02:57Z</time>
      </trkpt>
      <trkpt lat="44.60629" lon="3.19392">
        <ele>1238</ele>
        <time>2014-06-02T15:04:14Z</time>
      </trkpt>
      <trkpt lat="44.60631" lon="3.19391">
        <ele>1238</ele>
        <time>2014-06-02T15:04:15Z</time>
      </trkpt>
      <trkpt lat="44.60634" lon="3.19391">
        <ele>1237</ele>
        <time>2014-06-02T15:04:16Z</time>
      </trkpt>
      <trkpt lat="44.60637" lon="3.19389">
        <ele>1237</ele>
        <time>2014-06-02T15:04:17Z</time>
      </trkpt>
      <trkpt lat="44.6064" lon="3.19387">
        <ele>1238</ele>
        <time>2014-06-02T15:04:18Z</time>
      </trkpt>
      <trkpt lat="44.60643" lon="3.19384">
        <ele>1238</ele>
        <time>2014-06-02T15:04:19Z</time>
      </trkpt>
      <trkpt lat="44.60645" lon="3.1938">
        <ele>1238</ele>
        <time>2014-06-02T15:04:20Z</time>
      </trkpt>
      <trkpt lat="44.60644" lon="3.19343">
        <ele>1239</ele>
        <time>2014-06-02T15:04:26Z</time>
      </trkpt>
      <trkpt lat="44.60644" lon="3.19331">
        <ele>1239</ele>
        <time>2014-06-02T15:04:28Z</time>
      </trkpt>
      <trkpt lat="44.60644" lon="3.19326">
        <ele>1239</ele>
        <time>2014-06-02T15:04:29Z</time>
      </trkpt>
      <trkpt lat="44.60654" lon="3.19276">
        <ele>1240</ele>
        <time>2014-06-02T15:04:43Z</time>
      </trkpt>
      <trkpt lat="44.60659" lon="3.19238">
        <ele>1239</ele>
        <time>2014-06-02T15:04:56Z</time>
      </trkpt>
      <trkpt lat="44.60656" lon="3.19201">
        <ele>1239</ele>
        <time>2014-06-02T15:05:11Z</time>
      </trkpt>
      <trkpt lat="44.60656" lon="3.19198">
        <ele>1239</ele>
        <time>2014-06-02T15:05:12Z</time>
      </trkpt>
      <trkpt lat="44.60656" lon="3.19196">
        <ele>1239</ele>
        <time>2014-06-02T15:05:13Z</time>
      </trkpt>
      <trkpt lat="44.60656" lon="3.19194">
        <ele>1238</ele>
        <time>2014-06-02T15:05:14Z</time>
      </trkpt>
      <trkpt lat="44.60656" lon="3.19191">
        <ele>1238</ele>
        <time>2014-06-02T15:05:15Z</time>
      </trkpt>
      <trkpt lat="44.60659" lon="3.19171">
        <ele>1237</ele>
        <time>2014-06-02T15:05:25Z</time>
      </trkpt>
      <trkpt lat="44.60661" lon="3.19158">
        <ele>1236</ele>
        <time>2014-06-02T15:05:32Z</time>
      </trkpt>
      <trkpt lat="44.60668" lon="3.19129">
        <ele>1234</ele>
        <time>2014-06-02T15:05:47Z</time>
      </trkpt>
      <trkpt lat="44.60668" lon="3.19127">
        <ele>1234</ele>
        <time>2014-06-02T15:05:48Z</time>
      </trkpt>
      <trkpt lat="44.60669" lon="3.19125">
        <ele>1234</ele>
        <time>2014-06-02T15:05:49Z</time>
      </trkpt>
      <trkpt lat="44.60669" lon="3.19123">
        <ele>1234</ele>
        <time>2014-06-02T15:05:50Z</time>
      </trkpt>
      <trkpt lat="44.60669" lon="3.19121">
        <ele>1234</ele>
        <time>2014-06-02T15:05:51Z</time>
      </trkpt>
      <trkpt lat="44.6067" lon="3.19117">
        <ele>1234</ele>
        <time>2014-06-02T15:05:53Z</time>
      </trkpt>
      <trkpt lat="44.6067" lon="3.19115">
        <ele>1234</ele>
        <time>2014-06-02T15:05:54Z</time>
      </trkpt>
      <trkpt lat="44.6067" lon="3.19113">
        <ele>1234</ele>
        <time>2014-06-02T15:05:55Z</time>
      </trkpt>
      <trkpt lat="44.60671" lon="3.19111">
        <ele>1233</ele>
        <time>2014-06-02T15:05:56Z</time>
      </trkpt>
      <trkpt lat="44.60671" lon="3.19109">
        <ele>1234</ele>
        <time>2014-06-02T15:05:57Z</time>
      </trkpt>
      <trkpt lat="44.60671" lon="3.19107">
        <ele>1233</ele>
        <time>2014-06-02T15:05:58Z</time>
      </trkpt>
      <trkpt lat="44.60671" lon="3.19105">
        <ele>1233</ele>
        <time>2014-06-02T15:05:59Z</time>
      </trkpt>
      <trkpt lat="44.60671" lon="3.19104">
        <ele>1233</ele>
        <time>2014-06-02T15:06:00Z</time>
      </trkpt>
      <trkpt lat="44.60672" lon="3.19102">
        <ele>1233</ele>
        <time>2014-06-02T15:06:01Z</time>
      </trkpt>
      <trkpt lat="44.60672" lon="3.191">
        <ele>1232</ele>
        <time>2014-06-02T15:06:02Z</time>
      </trkpt>
      <trkpt lat="44.60672" lon="3.19098">
        <ele>1232</ele>
        <time>2014-06-02T15:06:03Z</time>
      </trkpt>
      <trkpt lat="44.60678" lon="3.19071">
        <ele>1231</ele>
        <time>2014-06-02T15:06:18Z</time>
      </trkpt>
      <trkpt lat="44.60684" lon="3.19052">
        <ele>1229</ele>
        <time>2014-06-02T15:06:29Z</time>
      </trkpt>
      <trkpt lat="44.60699" lon="3.19027">
        <ele>1226</ele>
        <time>2014-06-02T15:06:45Z</time>
      </trkpt>
      <trkpt lat="44.607" lon="3.19026">
        <ele>1227</ele>
        <time>2014-06-02T15:06:46Z</time>
      </trkpt>
      <trkpt lat="44.60701" lon="3.19024">
        <ele>1227</ele>
        <time>2014-06-02T15:06:47Z</time>
      </trkpt>
      <trkpt lat="44.60704" lon="3.1902">
        <ele>1228</ele>
        <time>2014-06-02T15:06:50Z</time>
      </trkpt>
      <trkpt lat="44.60705" lon="3.19019">
        <ele>1227</ele>
        <time>2014-06-02T15:06:51Z</time>
      </trkpt>
      <trkpt lat="44.60706" lon="3.19017">
        <ele>1225</ele>
        <time>2014-06-02T15:06:52Z</time>
      </trkpt>
      <trkpt lat="44.60707" lon="3.19016">
        <ele>1227</ele>
        <time>2014-06-02T15:06:53Z</time>
      </trkpt>
      <trkpt lat="44.60708" lon="3.19016">
        <ele>1225</ele>
        <time>2014-06-02T15:06:54Z</time>
      </trkpt>
      <trkpt lat="44.60712" lon="3.19011">
        <ele>1224</ele>
        <time>2014-06-02T15:06:58Z</time>
      </trkpt>
      <trkpt lat="44.60731" lon="3.18987">
        <ele>1223</ele>
        <time>2014-06-02T15:07:15Z</time>
      </trkpt>
      <trkpt lat="44.60739" lon="3.18981">
        <ele>1222</ele>
        <time>2014-06-02T15:07:22Z</time>
      </trkpt>
      <trkpt lat="44.60758" lon="3.18963">
        <ele>1220</ele>
        <time>2014-06-02T15:07:39Z</time>
      </trkpt>
      <trkpt lat="44.60759" lon="3.18962">
        <ele>1220</ele>
        <time>2014-06-02T15:07:40Z</time>
      </trkpt>
      <trkpt lat="44.60778" lon="3.18948">
        <ele>1217</ele>
        <time>2014-06-02T15:07:54Z</time>
      </trkpt>
      <trkpt lat="44.60779" lon="3.18947">
        <ele>1217</ele>
        <time>2014-06-02T15:07:55Z</time>
      </trkpt>
      <trkpt lat="44.60781" lon="3.18946">
        <ele>1216</ele>
        <time>2014-06-02T15:07:56Z</time>
      </trkpt>
      <trkpt lat="44.60782" lon="3.18946">
        <ele>1216</ele>
        <time>2014-06-02T15:07:57Z</time>
      </trkpt>
      <trkpt lat="44.60783" lon="3.18945">
        <ele>1216</ele>
        <time>2014-06-02T15:07:58Z</time>
      </trkpt>
      <trkpt lat="44.60784" lon="3.18944">
        <ele>1217</ele>
        <time>2014-06-02T15:07:59Z</time>
      </trkpt>
      <trkpt lat="44.60785" lon="3.18942">
        <ele>1217</ele>
        <time>2014-06-02T15:08:00Z</time>
      </trkpt>
      <trkpt lat="44.60787" lon="3.18941">
        <ele>1216</ele>
        <time>2014-06-02T15:08:01Z</time>
      </trkpt>
      <trkpt lat="44.60788" lon="3.1894">
        <ele>1215</ele>
        <time>2014-06-02T15:08:02Z</time>
      </trkpt>
      <trkpt lat="44.60791" lon="3.18937">
        <ele>1216</ele>
        <time>2014-06-02T15:08:04Z</time>
      </trkpt>
      <trkpt lat="44.60792" lon="3.18936">
        <ele>1218</ele>
        <time>2014-06-02T15:08:05Z</time>
      </trkpt>
      <trkpt lat="44.60794" lon="3.18935">
        <ele>1213</ele>
        <time>2014-06-02T15:08:06Z</time>
      </trkpt>
      <trkpt lat="44.60795" lon="3.18933">
        <ele>1213</ele>
        <time>2014-06-02T15:08:07Z</time>
      </trkpt>
      <trkpt lat="44.60796" lon="3.18932">
        <ele>1216</ele>
        <time>2014-06-02T15:08:08Z</time>
      </trkpt>
      <trkpt lat="44.60797" lon="3.1893">
        <ele>1214</ele>
        <time>2014-06-02T15:08:09Z</time>
      </trkpt>
      <trkpt lat="44.60799" lon="3.18929">
        <ele>1215</ele>
        <time>2014-06-02T15:08:10Z</time>
      </trkpt>
      <trkpt lat="44.608" lon="3.18927">
        <ele>1214</ele>
        <time>2014-06-02T15:08:11Z</time>
      </trkpt>
      <trkpt lat="44.60802" lon="3.18926">
        <ele>1215</ele>
        <time>2014-06-02T15:08:12Z</time>
      </trkpt>
      <trkpt lat="44.60803" lon="3.18925">
        <ele>1214</ele>
        <time>2014-06-02T15:08:13Z</time>
      </trkpt>
      <trkpt lat="44.60804" lon="3.18924">
        <ele>1214</ele>
        <time>2014-06-02T15:08:14Z</time>
      </trkpt>
      <trkpt lat="44.60805" lon="3.18923">
        <ele>1213</ele>
        <time>2014-06-02T15:08:15Z</time>
      </trkpt>
      <trkpt lat="44.60806" lon="3.18921">
        <ele>1214</ele>
        <time>2014-06-02T15:08:16Z</time>
      </trkpt>
      <trkpt lat="44.60807" lon="3.1892">
        <ele>1213</ele>
        <time>2014-06-02T15:08:17Z</time>
      </trkpt>
      <trkpt lat="44.60808" lon="3.18919">
        <ele>1214</ele>
        <time>2014-06-02T15:08:18Z</time>
      </trkpt>
      <trkpt lat="44.60809" lon="3.18918">
        <ele>1215</ele>
        <time>2014-06-02T15:08:19Z</time>
      </trkpt>
      <trkpt lat="44.6081" lon="3.18918">
        <ele>1213</ele>
        <time>2014-06-02T15:08:20Z</time>
      </trkpt>
      <trkpt lat="44.60809" lon="3.18914">
        <ele>1212</ele>
        <time>2014-06-02T15:08:24Z</time>
      </trkpt>
      <trkpt lat="44.60808" lon="3.18914">
        <ele>1214</ele>
        <time>2014-06-02T15:08:25Z</time>
      </trkpt>
      <trkpt lat="44.60805" lon="3.18915">
        <ele>1213</ele>
        <time>2014-06-02T15:08:27Z</time>
      </trkpt>
      <trkpt lat="44.60802" lon="3.18917">
        <ele>1211</ele>
        <time>2014-06-02T15:08:30Z</time>
      </trkpt>
      <trkpt lat="44.60801" lon="3.18918">
        <ele>1216</ele>
        <time>2014-06-02T15:08:31Z</time>
      </trkpt>
      <trkpt lat="44.60797" lon="3.1892">
        <ele>1211</ele>
        <time>2014-06-02T15:08:34Z</time>
      </trkpt>
      <trkpt lat="44.60796" lon="3.18921">
        <ele>1217</ele>
        <time>2014-06-02T15:08:35Z</time>
      </trkpt>
      <trkpt lat="44.60788" lon="3.18924">
        <ele>1213</ele>
        <time>2014-06-02T15:08:39Z</time>
      </trkpt>
      <trkpt lat="44.60783" lon="3.18925">
        <ele>1211</ele>
        <time>2014-06-02T15:08:41Z</time>
      </trkpt>
      <trkpt lat="44.60767" lon="3.18929">
        <ele>1211</ele>
        <time>2014-06-02T15:08:47Z</time>
      </trkpt>
      <trkpt lat="44.60732" lon="3.18933">
        <ele>1212</ele>
        <time>2014-06-02T15:09:00Z</time>
      </trkpt>
      <trkpt lat="44.6073" lon="3.18934">
        <ele>1210</ele>
        <time>2014-06-02T15:09:01Z</time>
      </trkpt>
      <trkpt lat="44.60713" lon="3.18929">
        <ele>1210</ele>
        <time>2014-06-02T15:09:10Z</time>
      </trkpt>
      <trkpt lat="44.60713" lon="3.18929">
        <ele>1209</ele>
        <time>2014-06-02T15:09:20Z</time>
      </trkpt>
      <trkpt lat="44.60713" lon="3.18929">
        <ele>1211</ele>
        <time>2014-06-02T15:09:24Z</time>
      </trkpt>
      <trkpt lat="44.60712" lon="3.18926">
        <ele>1210</ele>
        <time>2014-06-02T15:09:33Z</time>
      </trkpt>
      <trkpt lat="44.60713" lon="3.18926">
        <ele>1212</ele>
        <time>2014-06-02T15:09:34Z</time>
      </trkpt>
      <trkpt lat="44.60713" lon="3.18926">
        <ele>1208</ele>
        <time>2014-06-02T15:09:37Z</time>
      </trkpt>
      <trkpt lat="44.60713" lon="3.18926">
        <ele>1211</ele>
        <time>2014-06-02T15:09:39Z</time>
      </trkpt>
      <trkpt lat="44.60713" lon="3.18926">
        <ele>1211</ele>
        <time>2014-06-02T15:09:52Z</time>
      </trkpt>
      <trkpt lat="44.60713" lon="3.18926">
        <ele>1211</ele>
        <time>2014-06-02T15:09:56Z</time>
      </trkpt>
      <trkpt lat="44.60713" lon="3.18926">
        <ele>1209</ele>
        <time>2014-06-02T15:09:59Z</time>
      </trkpt>
      <trkpt lat="44.60713" lon="3.18926">
        <ele>1212</ele>
        <time>2014-06-02T15:10:00Z</time>
      </trkpt>
      <trkpt lat="44.60713" lon="3.18926">
        <ele>1209</ele>
        <time>2014-06-02T15:10:05Z</time>
      </trkpt>
      <trkpt lat="44.60713" lon="3.18926">
        <ele>1212</ele>
        <time>2014-06-02T15:10:06Z</time>
      </trkpt>
      <trkpt lat="44.60713" lon="3.18926">
        <ele>1208</ele>
        <time>2014-06-02T15:10:08Z</time>
      </trkpt>
      <trkpt lat="44.60713" lon="3.18927">
        <ele>1212</ele>
        <time>2014-06-02T15:10:09Z</time>
      </trkpt>
      <trkpt lat="44.60713" lon="3.18927">
        <ele>1209</ele>
        <time>2014-06-02T15:10:10Z</time>
      </trkpt>
      <trkpt lat="44.60713" lon="3.18927">
        <ele>1209</ele>
        <time>2014-06-02T15:10:27Z</time>
      </trkpt>
      <trkpt lat="44.60713" lon="3.18927">
        <ele>1213</ele>
        <time>2014-06-02T15:10:28Z</time>
      </trkpt>
      <trkpt lat="44.60713" lon="3.18927">
        <ele>1208</ele>
        <time>2014-06-02T15:10:29Z</time>
      </trkpt>
      <trkpt lat="44.60713" lon="3.18927">
        <ele>1211</ele>
        <time>2014-06-02T15:10:31Z</time>
      </trkpt>
      <trkpt lat="44.60713" lon="3.18927">
        <ele>1208</ele>
        <time>2014-06-02T15:10:32Z</time>
      </trkpt>
      <trkpt lat="44.60713" lon="3.18927">
        <ele>1212</ele>
        <time>2014-06-02T15:10:37Z</time>
      </trkpt>
      <trkpt lat="44.60713" lon="3.18927">
        <ele>1213</ele>
        <time>2014-06-02T15:10:38Z</time>
      </trkpt>
      <trkpt lat="44.60713" lon="3.18927">
        <ele>1209</ele>
        <time>2014-06-02T15:10:39Z</time>
      </trkpt>
      <trkpt lat="44.60713" lon="3.18927">
        <ele>1208</ele>
        <time>2014-06-02T15:10:40Z</time>
      </trkpt>
      <trkpt lat="44.60713" lon="3.18928">
        <ele>1212</ele>
        <time>2014-06-02T15:10:42Z</time>
      </trkpt>
      <trkpt lat="44.60713" lon="3.18928">
        <ele>1209</ele>
        <time>2014-06-02T15:10:43Z</time>
      </trkpt>
      <trkpt lat="44.60713" lon="3.18928">
        <ele>1213</ele>
        <time>2014-06-02T15:10:44Z</time>
      </trkpt>
      <trkpt lat="44.60714" lon="3.18928">
        <ele>1208</ele>
        <time>2014-06-02T15:10:45Z</time>
      </trkpt>
      <trkpt lat="44.60721" lon="3.18932">
        <ele>1211</ele>
        <time>2014-06-02T15:10:51Z</time>
      </trkpt>
      <trkpt lat="44.60722" lon="3.18933">
        <ele>1208</ele>
        <time>2014-06-02T15:10:52Z</time>
      </trkpt>
      <trkpt lat="44.60724" lon="3.18933">
        <ele>1213</ele>
        <time>2014-06-02T15:10:53Z</time>
      </trkpt>
      <trkpt lat="44.60727" lon="3.18933">
        <ele>1214</ele>
        <time>2014-06-02T15:10:54Z</time>
      </trkpt>
      <trkpt lat="44.60735" lon="3.18932">
        <ele>1208</ele>
        <time>2014-06-02T15:10:58Z</time>
      </trkpt>
      <trkpt lat="44.6074" lon="3.18931">
        <ele>1210</ele>
        <time>2014-06-02T15:11:00Z</time>
      </trkpt>
      <trkpt lat="44.60741" lon="3.18931">
        <ele>1214</ele>
        <time>2014-06-02T15:11:01Z</time>
      </trkpt>
      <trkpt lat="44.60743" lon="3.1893">
        <ele>1214</ele>
        <time>2014-06-02T15:11:02Z</time>
      </trkpt>
      <trkpt lat="44.60744" lon="3.18928">
        <ele>1214</ele>
        <time>2014-06-02T15:11:03Z</time>
      </trkpt>
      <trkpt lat="44.60747" lon="3.18921">
        <ele>1209</ele>
        <time>2014-06-02T15:11:07Z</time>
      </trkpt>
      <trkpt lat="44.60748" lon="3.1892">
        <ele>1209</ele>
        <time>2014-06-02T15:11:08Z</time>
      </trkpt>
      <trkpt lat="44.6075" lon="3.18918">
        <ele>1213</ele>
        <time>2014-06-02T15:11:09Z</time>
      </trkpt>
      <trkpt lat="44.6075" lon="3.18917">
        <ele>1212</ele>
        <time>2014-06-02T15:11:10Z</time>
      </trkpt>
      <trkpt lat="44.60753" lon="3.18913">
        <ele>1209</ele>
        <time>2014-06-02T15:11:13Z</time>
      </trkpt>
      <trkpt lat="44.60754" lon="3.18911">
        <ele>1212</ele>
        <time>2014-06-02T15:11:14Z</time>
      </trkpt>
      <trkpt lat="44.60755" lon="3.18909">
        <ele>1206</ele>
        <time>2014-06-02T15:11:15Z</time>
      </trkpt>
      <trkpt lat="44.60756" lon="3.18908">
        <ele>1204</ele>
        <time>2014-06-02T15:11:16Z</time>
      </trkpt>
      <trkpt lat="44.60757" lon="3.18906">
        <ele>1210</ele>
        <time>2014-06-02T15:11:17Z</time>
      </trkpt>
      <trkpt lat="44.60757" lon="3.18904">
        <ele>1210</ele>
        <time>2014-06-02T15:11:18Z</time>
      </trkpt>
      <trkpt lat="44.6076" lon="3.18895">
        <ele>1203</ele>
        <time>2014-06-02T15:11:22Z</time>
      </trkpt>
      <trkpt lat="44.60761" lon="3.18889">
        <ele>1205</ele>
        <time>2014-06-02T15:11:24Z</time>
      </trkpt>
      <trkpt lat="44.60762" lon="3.18883">
        <ele>1208</ele>
        <time>2014-06-02T15:11:26Z</time>
      </trkpt>
      <trkpt lat="44.60763" lon="3.18872">
        <ele>1204</ele>
        <time>2014-06-02T15:11:29Z</time>
      </trkpt>
      <trkpt lat="44.60763" lon="3.18868">
        <ele>1204</ele>
        <time>2014-06-02T15:11:30Z</time>
      </trkpt>
      <trkpt lat="44.60765" lon="3.18852">
        <ele>1208</ele>
        <time>2014-06-02T15:11:34Z</time>
      </trkpt>
      <trkpt lat="44.60765" lon="3.18848">
        <ele>1205</ele>
        <time>2014-06-02T15:11:35Z</time>
      </trkpt>
      <trkpt lat="44.60766" lon="3.18844">
        <ele>1204</ele>
        <time>2014-06-02T15:11:36Z</time>
      </trkpt>
      <trkpt lat="44.60767" lon="3.18841">
        <ele>1202</ele>
        <time>2014-06-02T15:11:37Z</time>
      </trkpt>
      <trkpt lat="44.60768" lon="3.18838">
        <ele>1201</ele>
        <time>2014-06-02T15:11:38Z</time>
      </trkpt>
      <trkpt lat="44.60769" lon="3.18836">
        <ele>1205</ele>
        <time>2014-06-02T15:11:39Z</time>
      </trkpt>
      <trkpt lat="44.60769" lon="3.18833">
        <ele>1209</ele>
        <time>2014-06-02T15:11:40Z</time>
      </trkpt>
      <trkpt lat="44.6077" lon="3.1883">
        <ele>1209</ele>
        <time>2014-06-02T15:11:41Z</time>
      </trkpt>
      <trkpt lat="44.6077" lon="3.18827">
        <ele>1207</ele>
        <time>2014-06-02T15:11:42Z</time>
      </trkpt>
      <trkpt lat="44.60771" lon="3.18823">
        <ele>1205</ele>
        <time>2014-06-02T15:11:43Z</time>
      </trkpt>
      <trkpt lat="44.60771" lon="3.18817">
        <ele>1205</ele>
        <time>2014-06-02T15:11:44Z</time>
      </trkpt>
      <trkpt lat="44.60772" lon="3.18807">
        <ele>1205</ele>
        <time>2014-06-02T15:11:45Z</time>
      </trkpt>
      <trkpt lat="44.60774" lon="3.18796">
        <ele>1207</ele>
        <time>2014-06-02T15:11:46Z</time>
      </trkpt>
      <trkpt lat="44.60781" lon="3.18765">
        <ele>1212</ele>
        <time>2014-06-02T15:11:49Z</time>
      </trkpt>
      <trkpt lat="44.60785" lon="3.18754">
        <ele>1212</ele>
        <time>2014-06-02T15:11:50Z</time>
      </trkpt>
      <trkpt lat="44.60796" lon="3.18714">
        <ele>1208</ele>
        <time>2014-06-02T15:11:54Z</time>
      </trkpt>
      <trkpt lat="44.60804" lon="3.18687">
        <ele>1216</ele>
        <time>2014-06-02T15:11:57Z</time>
      </trkpt>
      <trkpt lat="44.60806" lon="3.18679">
        <ele>1216</ele>
        <time>2014-06-02T15:11:58Z</time>
      </trkpt>
      <trkpt lat="44.60808" lon="3.18672">
        <ele>1212</ele>
        <time>2014-06-02T15:11:59Z</time>
      </trkpt>
      <trkpt lat="44.60811" lon="3.18659">
        <ele>1213</ele>
        <time>2014-06-02T15:12:01Z</time>
      </trkpt>
      <trkpt lat="44.60814" lon="3.18647">
        <ele>1217</ele>
        <time>2014-06-02T15:12:03Z</time>
      </trkpt>
      <trkpt lat="44.60818" lon="3.18636">
        <ele>1213</ele>
        <time>2014-06-02T15:12:05Z</time>
      </trkpt>
      <trkpt lat="44.60819" lon="3.18631">
        <ele>1211</ele>
        <time>2014-06-02T15:12:06Z</time>
      </trkpt>
      <trkpt lat="44.60828" lon="3.18606">
        <ele>1216</ele>
        <time>2014-06-02T15:12:11Z</time>
      </trkpt>
      <trkpt lat="44.60829" lon="3.18601">
        <ele>1216</ele>
        <time>2014-06-02T15:12:12Z</time>
      </trkpt>
      <trkpt lat="44.60831" lon="3.18596">
        <ele>1213</ele>
        <time>2014-06-02T15:12:13Z</time>
      </trkpt>
      <trkpt lat="44.60834" lon="3.18591">
        <ele>1213</ele>
        <time>2014-06-02T15:12:14Z</time>
      </trkpt>
      <trkpt lat="44.60836" lon="3.18586">
        <ele>1215</ele>
        <time>2014-06-02T15:12:15Z</time>
      </trkpt>
      <trkpt lat="44.60838" lon="3.1858">
        <ele>1220</ele>
        <time>2014-06-02T15:12:16Z</time>
      </trkpt>
      <trkpt lat="44.6084" lon="3.18574">
        <ele>1213</ele>
        <time>2014-06-02T15:12:17Z</time>
      </trkpt>
      <trkpt lat="44.60841" lon="3.18567">
        <ele>1216</ele>
        <time>2014-06-02T15:12:18Z</time>
      </trkpt>
      <trkpt lat="44.60841" lon="3.18548">
        <ele>1220</ele>
        <time>2014-06-02T15:12:21Z</time>
      </trkpt>
      <trkpt lat="44.60841" lon="3.18537">
        <ele>1216</ele>
        <time>2014-06-02T15:12:23Z</time>
      </trkpt>
      <trkpt lat="44.60841" lon="3.18532">
        <ele>1219</ele>
        <time>2014-06-02T15:12:24Z</time>
      </trkpt>
      <trkpt lat="44.60841" lon="3.18528">
        <ele>1221</ele>
        <time>2014-06-02T15:12:25Z</time>
      </trkpt>
      <trkpt lat="44.60842" lon="3.18505">
        <ele>1217</ele>
        <time>2014-06-02T15:12:31Z</time>
      </trkpt>
      <trkpt lat="44.60843" lon="3.18501">
        <ele>1221</ele>
        <time>2014-06-02T15:12:32Z</time>
      </trkpt>
      <trkpt lat="44.60846" lon="3.1849">
        <ele>1217</ele>
        <time>2014-06-02T15:12:35Z</time>
      </trkpt>
      <trkpt lat="44.60847" lon="3.18486">
        <ele>1214</ele>
        <time>2014-06-02T15:12:36Z</time>
      </trkpt>
      <trkpt lat="44.60848" lon="3.18478">
        <ele>1220</ele>
        <time>2014-06-02T15:12:38Z</time>
      </trkpt>
      <trkpt lat="44.60849" lon="3.18474">
        <ele>1214</ele>
        <time>2014-06-02T15:12:39Z</time>
      </trkpt>
      <trkpt lat="44.6085" lon="3.1847">
        <ele>1219</ele>
        <time>2014-06-02T15:12:40Z</time>
      </trkpt>
      <trkpt lat="44.60851" lon="3.18465">
        <ele>1220</ele>
        <time>2014-06-02T15:12:41Z</time>
      </trkpt>
      <trkpt lat="44.60851" lon="3.18461">
        <ele>1213</ele>
        <time>2014-06-02T15:12:42Z</time>
      </trkpt>
      <trkpt lat="44.60852" lon="3.18452">
        <ele>1218</ele>
        <time>2014-06-02T15:12:44Z</time>
      </trkpt>
      <trkpt lat="44.60853" lon="3.18447">
        <ele>1214</ele>
        <time>2014-06-02T15:12:45Z</time>
      </trkpt>
      <trkpt lat="44.60854" lon="3.18443">
        <ele>1217</ele>
        <time>2014-06-02T15:12:46Z</time>
      </trkpt>
      <trkpt lat="44.60855" lon="3.18439">
        <ele>1213</ele>
        <time>2014-06-02T15:12:47Z</time>
      </trkpt>
      <trkpt lat="44.60856" lon="3.18435">
        <ele>1218</ele>
        <time>2014-06-02T15:12:48Z</time>
      </trkpt>
      <trkpt lat="44.60859" lon="3.18422">
        <ele>1214</ele>
        <time>2014-06-02T15:12:51Z</time>
      </trkpt>
      <trkpt lat="44.6086" lon="3.18418">
        <ele>1218</ele>
        <time>2014-06-02T15:12:52Z</time>
      </trkpt>
      <trkpt lat="44.60863" lon="3.1841">
        <ele>1214</ele>
        <time>2014-06-02T15:12:54Z</time>
      </trkpt>
      <trkpt lat="44.60869" lon="3.18398">
        <ele>1217</ele>
        <time>2014-06-02T15:12:57Z</time>
      </trkpt>
      <trkpt lat="44.60876" lon="3.18383">
        <ele>1216</ele>
        <time>2014-06-02T15:13:01Z</time>
      </trkpt>
      <trkpt lat="44.60877" lon="3.18378">
        <ele>1219</ele>
        <time>2014-06-02T15:13:02Z</time>
      </trkpt>
      <trkpt lat="44.60879" lon="3.18374">
        <ele>1219</ele>
        <time>2014-06-02T15:13:03Z</time>
      </trkpt>
      <trkpt lat="44.6088" lon="3.18369">
        <ele>1219</ele>
        <time>2014-06-02T15:13:04Z</time>
      </trkpt>
      <trkpt lat="44.60882" lon="3.18364">
        <ele>1214</ele>
        <time>2014-06-02T15:13:05Z</time>
      </trkpt>
      <trkpt lat="44.60883" lon="3.18359">
        <ele>1215</ele>
        <time>2014-06-02T15:13:06Z</time>
      </trkpt>
      <trkpt lat="44.60884" lon="3.18353">
        <ele>1218</ele>
        <time>2014-06-02T15:13:07Z</time>
      </trkpt>
      <trkpt lat="44.60883" lon="3.18347">
        <ele>1215</ele>
        <time>2014-06-02T15:13:08Z</time>
      </trkpt>
      <trkpt lat="44.6088" lon="3.18342">
        <ele>1219</ele>
        <time>2014-06-02T15:13:09Z</time>
      </trkpt>
      <trkpt lat="44.60876" lon="3.18337">
        <ele>1215</ele>
        <time>2014-06-02T15:13:10Z</time>
      </trkpt>
      <trkpt lat="44.60873" lon="3.18332">
        <ele>1220</ele>
        <time>2014-06-02T15:13:11Z</time>
      </trkpt>
      <trkpt lat="44.60867" lon="3.18318">
        <ele>1219</ele>
        <time>2014-06-02T15:13:14Z</time>
      </trkpt>
      <trkpt lat="44.60866" lon="3.18307">
        <ele>1215</ele>
        <time>2014-06-02T15:13:17Z</time>
      </trkpt>
      <trkpt lat="44.60864" lon="3.18299">
        <ele>1217</ele>
        <time>2014-06-02T15:13:19Z</time>
      </trkpt>
      <trkpt lat="44.60862" lon="3.18286">
        <ele>1221</ele>
        <time>2014-06-02T15:13:21Z</time>
      </trkpt>
      <trkpt lat="44.60861" lon="3.18279">
        <ele>1221</ele>
        <time>2014-06-02T15:13:22Z</time>
      </trkpt>
      <trkpt lat="44.6086" lon="3.18271">
        <ele>1218</ele>
        <time>2014-06-02T15:13:23Z</time>
      </trkpt>
      <trkpt lat="44.6086" lon="3.18263">
        <ele>1217</ele>
        <time>2014-06-02T15:13:24Z</time>
      </trkpt>
      <trkpt lat="44.60864" lon="3.18247">
        <ele>1219</ele>
        <time>2014-06-02T15:13:26Z</time>
      </trkpt>
      <trkpt lat="44.60867" lon="3.1824">
        <ele>1217</ele>
        <time>2014-06-02T15:13:27Z</time>
      </trkpt>
      <trkpt lat="44.6087" lon="3.18232">
        <ele>1221</ele>
        <time>2014-06-02T15:13:28Z</time>
      </trkpt>
      <trkpt lat="44.60876" lon="3.18206">
        <ele>1220</ele>
        <time>2014-06-02T15:13:31Z</time>
      </trkpt>
      <trkpt lat="44.60879" lon="3.18197">
        <ele>1222</ele>
        <time>2014-06-02T15:13:32Z</time>
      </trkpt>
      <trkpt lat="44.60882" lon="3.18189">
        <ele>1219</ele>
        <time>2014-06-02T15:13:33Z</time>
      </trkpt>
      <trkpt lat="44.60886" lon="3.18182">
        <ele>1218</ele>
        <time>2014-06-02T15:13:34Z</time>
      </trkpt>
      <trkpt lat="44.60891" lon="3.18175">
        <ele>1221</ele>
        <time>2014-06-02T15:13:35Z</time>
      </trkpt>
      <trkpt lat="44.60895" lon="3.18168">
        <ele>1219</ele>
        <time>2014-06-02T15:13:36Z</time>
      </trkpt>
      <trkpt lat="44.60898" lon="3.1816">
        <ele>1221</ele>
        <time>2014-06-02T15:13:37Z</time>
      </trkpt>
      <trkpt lat="44.609" lon="3.1815">
        <ele>1221</ele>
        <time>2014-06-02T15:13:38Z</time>
      </trkpt>
      <trkpt lat="44.60902" lon="3.1814">
        <ele>1227</ele>
        <time>2014-06-02T15:13:39Z</time>
      </trkpt>
      <trkpt lat="44.60906" lon="3.1812">
        <ele>1223</ele>
        <time>2014-06-02T15:13:41Z</time>
      </trkpt>
      <trkpt lat="44.60909" lon="3.18111">
        <ele>1223</ele>
        <time>2014-06-02T15:13:42Z</time>
      </trkpt>
      <trkpt lat="44.60915" lon="3.1809">
        <ele>1230</ele>
        <time>2014-06-02T15:13:44Z</time>
      </trkpt>
      <trkpt lat="44.60918" lon="3.18079">
        <ele>1226</ele>
        <time>2014-06-02T15:13:45Z</time>
      </trkpt>
      <trkpt lat="44.6092" lon="3.18069">
        <ele>1226</ele>
        <time>2014-06-02T15:13:46Z</time>
      </trkpt>
      <trkpt lat="44.60923" lon="3.18058">
        <ele>1231</ele>
        <time>2014-06-02T15:13:47Z</time>
      </trkpt>
      <trkpt lat="44.60929" lon="3.1804">
        <ele>1228</ele>
        <time>2014-06-02T15:13:49Z</time>
      </trkpt>
      <trkpt lat="44.60932" lon="3.18031">
        <ele>1233</ele>
        <time>2014-06-02T15:13:50Z</time>
      </trkpt>
      <trkpt lat="44.60935" lon="3.18023">
        <ele>1228</ele>
        <time>2014-06-02T15:13:51Z</time>
      </trkpt>
      <trkpt lat="44.60938" lon="3.18015">
        <ele>1232</ele>
        <time>2014-06-02T15:13:52Z</time>
      </trkpt>
      <trkpt lat="44.60942" lon="3.18007">
        <ele>1231</ele>
        <time>2014-06-02T15:13:53Z</time>
      </trkpt>
      <trkpt lat="44.60945" lon="3.17998">
        <ele>1231</ele>
        <time>2014-06-02T15:13:54Z</time>
      </trkpt>
      <trkpt lat="44.60949" lon="3.17991">
        <ele>1230</ele>
        <time>2014-06-02T15:13:55Z</time>
      </trkpt>
      <trkpt lat="44.60954" lon="3.17984">
        <ele>1234</ele>
        <time>2014-06-02T15:13:56Z</time>
      </trkpt>
      <trkpt lat="44.60959" lon="3.17979">
        <ele>1232</ele>
        <time>2014-06-02T15:13:57Z</time>
      </trkpt>
      <trkpt lat="44.60978" lon="3.17962">
        <ele>1237</ele>
        <time>2014-06-02T15:14:01Z</time>
      </trkpt>
      <trkpt lat="44.6099" lon="3.17952">
        <ele>1238</ele>
        <time>2014-06-02T15:14:04Z</time>
      </trkpt>
      <trkpt lat="44.60997" lon="3.17948">
        <ele>1239</ele>
        <time>2014-06-02T15:14:06Z</time>
      </trkpt>
      <trkpt lat="44.61" lon="3.17946">
        <ele>1243</ele>
        <time>2014-06-02T15:14:07Z</time>
      </trkpt>
      <trkpt lat="44.61004" lon="3.17944">
        <ele>1239</ele>
        <time>2014-06-02T15:14:08Z</time>
      </trkpt>
      <trkpt lat="44.61017" lon="3.17937">
        <ele>1243</ele>
        <time>2014-06-02T15:14:13Z</time>
      </trkpt>
      <trkpt lat="44.6102" lon="3.17935">
        <ele>1244</ele>
        <time>2014-06-02T15:14:14Z</time>
      </trkpt>
      <trkpt lat="44.61023" lon="3.17933">
        <ele>1244</ele>
        <time>2014-06-02T15:14:15Z</time>
      </trkpt>
      <trkpt lat="44.61026" lon="3.17929">
        <ele>1246</ele>
        <time>2014-06-02T15:14:16Z</time>
      </trkpt>
      <trkpt lat="44.61028" lon="3.17926">
        <ele>1242</ele>
        <time>2014-06-02T15:14:17Z</time>
      </trkpt>
      <trkpt lat="44.61031" lon="3.17921">
        <ele>1244</ele>
        <time>2014-06-02T15:14:18Z</time>
      </trkpt>
      <trkpt lat="44.61033" lon="3.17916">
        <ele>1244</ele>
        <time>2014-06-02T15:14:19Z</time>
      </trkpt>
      <trkpt lat="44.61035" lon="3.1791">
        <ele>1244</ele>
        <time>2014-06-02T15:14:20Z</time>
      </trkpt>
      <trkpt lat="44.61037" lon="3.17903">
        <ele>1243</ele>
        <time>2014-06-02T15:14:21Z</time>
      </trkpt>
      <trkpt lat="44.61057" lon="3.1787">
        <ele>1246</ele>
        <time>2014-06-02T15:14:27Z</time>
      </trkpt>
      <trkpt lat="44.6106" lon="3.17865">
        <ele>1243</ele>
        <time>2014-06-02T15:14:28Z</time>
      </trkpt>
      <trkpt lat="44.61066" lon="3.17855">
        <ele>1244</ele>
        <time>2014-06-02T15:14:30Z</time>
      </trkpt>
      <trkpt lat="44.61069" lon="3.17851">
        <ele>1247</ele>
        <time>2014-06-02T15:14:31Z</time>
      </trkpt>
      <trkpt lat="44.61071" lon="3.17847">
        <ele>1245</ele>
        <time>2014-06-02T15:14:32Z</time>
      </trkpt>
      <trkpt lat="44.61085" lon="3.17821">
        <ele>1246</ele>
        <time>2014-06-02T15:14:38Z</time>
      </trkpt>
      <trkpt lat="44.61088" lon="3.17812">
        <ele>1245</ele>
        <time>2014-06-02T15:14:40Z</time>
      </trkpt>
      <trkpt lat="44.61093" lon="3.17793">
        <ele>1246</ele>
        <time>2014-06-02T15:14:45Z</time>
      </trkpt>
      <trkpt lat="44.61099" lon="3.17746">
        <ele>1248</ele>
        <time>2014-06-02T15:14:55Z</time>
      </trkpt>
      <trkpt lat="44.61098" lon="3.17742">
        <ele>1251</ele>
        <time>2014-06-02T15:14:56Z</time>
      </trkpt>
      <trkpt lat="44.61077" lon="3.17707">
        <ele>1250</ele>
        <time>2014-06-02T15:15:07Z</time>
      </trkpt>
      <trkpt lat="44.61061" lon="3.17666">
        <ele>1253</ele>
        <time>2014-06-02T15:15:17Z</time>
      </trkpt>
      <trkpt lat="44.61061" lon="3.17664">
        <ele>1256</ele>
        <time>2014-06-02T15:15:18Z</time>
      </trkpt>
      <trkpt lat="44.61074" lon="3.17656">
        <ele>1257</ele>
        <time>2014-06-02T15:15:26Z</time>
      </trkpt>
      <trkpt lat="44.61078" lon="3.17656">
        <ele>1255</ele>
        <time>2014-06-02T15:15:28Z</time>
      </trkpt>
      <trkpt lat="44.6108" lon="3.17656">
        <ele>1255</ele>
        <time>2014-06-02T15:15:29Z</time>
      </trkpt>
      <trkpt lat="44.61082" lon="3.17657">
        <ele>1258</ele>
        <time>2014-06-02T15:15:30Z</time>
      </trkpt>
      <trkpt lat="44.61083" lon="3.17657">
        <ele>1255</ele>
        <time>2014-06-02T15:15:31Z</time>
      </trkpt>
      <trkpt lat="44.61084" lon="3.17657">
        <ele>1258</ele>
        <time>2014-06-02T15:15:32Z</time>
      </trkpt>
      <trkpt lat="44.61086" lon="3.17655">
        <ele>1256</ele>
        <time>2014-06-02T15:15:34Z</time>
      </trkpt>
      <trkpt lat="44.61088" lon="3.17653">
        <ele>1258</ele>
        <time>2014-06-02T15:15:35Z</time>
      </trkpt>
      <trkpt lat="44.61089" lon="3.17652">
        <ele>1256</ele>
        <time>2014-06-02T15:15:36Z</time>
      </trkpt>
      <trkpt lat="44.6109" lon="3.17649">
        <ele>1258</ele>
        <time>2014-06-02T15:15:37Z</time>
      </trkpt>
      <trkpt lat="44.61091" lon="3.17647">
        <ele>1258</ele>
        <time>2014-06-02T15:15:38Z</time>
      </trkpt>
      <trkpt lat="44.61092" lon="3.17645">
        <ele>1258</ele>
        <time>2014-06-02T15:15:39Z</time>
      </trkpt>
      <trkpt lat="44.61093" lon="3.17639">
        <ele>1258</ele>
        <time>2014-06-02T15:15:41Z</time>
      </trkpt>
      <trkpt lat="44.61093" lon="3.17639">
        <ele>1258</ele>
        <time>2014-06-02T15:15:53Z</time>
      </trkpt>
      <trkpt lat="44.61093" lon="3.17639">
        <ele>1257</ele>
        <time>2014-06-02T15:15:59Z</time>
      </trkpt>
      <trkpt lat="44.61093" lon="3.17639">
        <ele>1261</ele>
        <time>2014-06-02T15:16:01Z</time>
      </trkpt>
      <trkpt lat="44.61093" lon="3.17639">
        <ele>1255</ele>
        <time>2014-06-02T15:16:02Z</time>
      </trkpt>
      <trkpt lat="44.61094" lon="3.17639">
        <ele>1258</ele>
        <time>2014-06-02T15:16:11Z</time>
      </trkpt>
      <trkpt lat="44.61094" lon="3.17639">
        <ele>1259</ele>
        <time>2014-06-02T15:16:17Z</time>
      </trkpt>
      <trkpt lat="44.61094" lon="3.17639">
        <ele>1260</ele>
        <time>2014-06-02T15:16:18Z</time>
      </trkpt>
      <trkpt lat="44.61094" lon="3.17639">
        <ele>1257</ele>
        <time>2014-06-02T15:16:21Z</time>
      </trkpt>
      <trkpt lat="44.61093" lon="3.17639">
        <ele>1258</ele>
        <time>2014-06-02T15:16:27Z</time>
      </trkpt>
      <trkpt lat="44.61093" lon="3.17639">
        <ele>1259</ele>
        <time>2014-06-02T15:16:33Z</time>
      </trkpt>
      <trkpt lat="44.61093" lon="3.17638">
        <ele>1258</ele>
        <time>2014-06-02T15:16:34Z</time>
      </trkpt>
      <trkpt lat="44.61095" lon="3.17636">
        <ele>1261</ele>
        <time>2014-06-02T15:16:36Z</time>
      </trkpt>
      <trkpt lat="44.61099" lon="3.17631">
        <ele>1259</ele>
        <time>2014-06-02T15:16:39Z</time>
      </trkpt>
      <trkpt lat="44.61103" lon="3.17627">
        <ele>1261</ele>
        <time>2014-06-02T15:16:41Z</time>
      </trkpt>
      <trkpt lat="44.61108" lon="3.17621">
        <ele>1262</ele>
        <time>2014-06-02T15:16:43Z</time>
      </trkpt>
      <trkpt lat="44.61122" lon="3.17609">
        <ele>1265</ele>
        <time>2014-06-02T15:16:49Z</time>
      </trkpt>
      <trkpt lat="44.61138" lon="3.17603">
        <ele>1268</ele>
        <time>2014-06-02T15:16:54Z</time>
      </trkpt>
      <trkpt lat="44.61141" lon="3.17601">
        <ele>1268</ele>
        <time>2014-06-02T15:16:55Z</time>
      </trkpt>
      <trkpt lat="44.61144" lon="3.17599">
        <ele>1267</ele>
        <time>2014-06-02T15:16:56Z</time>
      </trkpt>
      <trkpt lat="44.61147" lon="3.17597">
        <ele>1266</ele>
        <time>2014-06-02T15:16:57Z</time>
      </trkpt>
      <trkpt lat="44.6115" lon="3.17594">
        <ele>1270</ele>
        <time>2014-06-02T15:16:58Z</time>
      </trkpt>
      <trkpt lat="44.61154" lon="3.17591">
        <ele>1270</ele>
        <time>2014-06-02T15:16:59Z</time>
      </trkpt>
      <trkpt lat="44.6117" lon="3.17583">
        <ele>1267</ele>
        <time>2014-06-02T15:17:04Z</time>
      </trkpt>
      <trkpt lat="44.61199" lon="3.1757">
        <ele>1267</ele>
        <time>2014-06-02T15:17:14Z</time>
      </trkpt>
      <trkpt lat="44.61203" lon="3.17571">
        <ele>1266</ele>
        <time>2014-06-02T15:17:15Z</time>
      </trkpt>
      <trkpt lat="44.61207" lon="3.17572">
        <ele>1268</ele>
        <time>2014-06-02T15:17:16Z</time>
      </trkpt>
      <trkpt lat="44.61226" lon="3.17575">
        <ele>1269</ele>
        <time>2014-06-02T15:17:20Z</time>
      </trkpt>
      <trkpt lat="44.6123" lon="3.17575">
        <ele>1269</ele>
        <time>2014-06-02T15:17:21Z</time>
      </trkpt>
      <trkpt lat="44.61235" lon="3.17574">
        <ele>1268</ele>
        <time>2014-06-02T15:17:22Z</time>
      </trkpt>
      <trkpt lat="44.61239" lon="3.17573">
        <ele>1267</ele>
        <time>2014-06-02T15:17:23Z</time>
      </trkpt>
      <trkpt lat="44.61243" lon="3.17572">
        <ele>1267</ele>
        <time>2014-06-02T15:17:24Z</time>
      </trkpt>
      <trkpt lat="44.61253" lon="3.17561">
        <ele>1271</ele>
        <time>2014-06-02T15:17:28Z</time>
      </trkpt>
      <trkpt lat="44.61259" lon="3.17549">
        <ele>1268</ele>
        <time>2014-06-02T15:17:32Z</time>
      </trkpt>
      <trkpt lat="44.61271" lon="3.17534">
        <ele>1270</ele>
        <time>2014-06-02T15:17:38Z</time>
      </trkpt>
      <trkpt lat="44.61277" lon="3.17527">
        <ele>1267</ele>
        <time>2014-06-02T15:17:41Z</time>
      </trkpt>
      <trkpt lat="44.61281" lon="3.17523">
        <ele>1266</ele>
        <time>2014-06-02T15:17:43Z</time>
      </trkpt>
      <trkpt lat="44.61292" lon="3.17517">
        <ele>1266</ele>
        <time>2014-06-02T15:17:47Z</time>
      </trkpt>
      <trkpt lat="44.61302" lon="3.17514">
        <ele>1268</ele>
        <time>2014-06-02T15:17:51Z</time>
      </trkpt>
      <trkpt lat="44.61305" lon="3.17514">
        <ele>1268</ele>
        <time>2014-06-02T15:17:52Z</time>
      </trkpt>
      <trkpt lat="44.61334" lon="3.17505">
        <ele>1269</ele>
        <time>2014-06-02T15:18:04Z</time>
      </trkpt>
      <trkpt lat="44.61348" lon="3.17496">
        <ele>1265</ele>
        <time>2014-06-02T15:18:13Z</time>
      </trkpt>
      <trkpt lat="44.61372" lon="3.17483">
        <ele>1265</ele>
        <time>2014-06-02T15:18:27Z</time>
      </trkpt>
      <trkpt lat="44.61378" lon="3.1748">
        <ele>1264</ele>
        <time>2014-06-02T15:18:31Z</time>
      </trkpt>
      <trkpt lat="44.6138" lon="3.17479">
        <ele>1265</ele>
        <time>2014-06-02T15:18:32Z</time>
      </trkpt>
      <trkpt lat="44.61382" lon="3.17477">
        <ele>1262</ele>
        <time>2014-06-02T15:18:33Z</time>
      </trkpt>
      <trkpt lat="44.61385" lon="3.17475">
        <ele>1265</ele>
        <time>2014-06-02T15:18:35Z</time>
      </trkpt>
      <trkpt lat="44.61403" lon="3.17469">
        <ele>1261</ele>
        <time>2014-06-02T15:18:46Z</time>
      </trkpt>
      <trkpt lat="44.61406" lon="3.17474">
        <ele>1259</ele>
        <time>2014-06-02T15:18:49Z</time>
      </trkpt>
      <trkpt lat="44.61407" lon="3.17476">
        <ele>1258</ele>
        <time>2014-06-02T15:18:50Z</time>
      </trkpt>
      <trkpt lat="44.61408" lon="3.1748">
        <ele>1262</ele>
        <time>2014-06-02T15:18:52Z</time>
      </trkpt>
      <trkpt lat="44.61408" lon="3.17487">
        <ele>1259</ele>
        <time>2014-06-02T15:18:55Z</time>
      </trkpt>
      <trkpt lat="44.61414" lon="3.17521">
        <ele>1258</ele>
        <time>2014-06-02T15:19:10Z</time>
      </trkpt>
      <trkpt lat="44.61414" lon="3.17524">
        <ele>1255</ele>
        <time>2014-06-02T15:19:11Z</time>
      </trkpt>
      <trkpt lat="44.6143" lon="3.17558">
        <ele>1256</ele>
        <time>2014-06-02T15:19:27Z</time>
      </trkpt>
      <trkpt lat="44.61444" lon="3.17593">
        <ele>1253</ele>
        <time>2014-06-02T15:19:44Z</time>
      </trkpt>
      <trkpt lat="44.6145" lon="3.17603">
        <ele>1252</ele>
        <time>2014-06-02T15:19:50Z</time>
      </trkpt>
      <trkpt lat="44.61476" lon="3.17623">
        <ele>1250</ele>
        <time>2014-06-02T15:20:08Z</time>
      </trkpt>
      <trkpt lat="44.61477" lon="3.17623">
        <ele>1250</ele>
        <time>2014-06-02T15:20:09Z</time>
      </trkpt>
      <trkpt lat="44.61479" lon="3.17624">
        <ele>1250</ele>
        <time>2014-06-02T15:20:10Z</time>
      </trkpt>
      <trkpt lat="44.61494" lon="3.17632">
        <ele>1247</ele>
        <time>2014-06-02T15:20:21Z</time>
      </trkpt>
      <trkpt lat="44.61513" lon="3.17642">
        <ele>1246</ele>
        <time>2014-06-02T15:20:35Z</time>
      </trkpt>
      <trkpt lat="44.61515" lon="3.17644">
        <ele>1246</ele>
        <time>2014-06-02T15:20:37Z</time>
      </trkpt>
      <trkpt lat="44.61533" lon="3.17658">
        <ele>1243</ele>
        <time>2014-06-02T15:20:53Z</time>
      </trkpt>
      <trkpt lat="44.61553" lon="3.17667">
        <ele>1240</ele>
        <time>2014-06-02T15:21:09Z</time>
      </trkpt>
      <trkpt lat="44.61558" lon="3.17671">
        <ele>1237</ele>
        <time>2014-06-02T15:21:13Z</time>
      </trkpt>
      <trkpt lat="44.61569" lon="3.17686">
        <ele>1236</ele>
        <time>2014-06-02T15:21:25Z</time>
      </trkpt>
      <trkpt lat="44.61583" lon="3.17697">
        <ele>1234</ele>
        <time>2014-06-02T15:21:36Z</time>
      </trkpt>
      <trkpt lat="44.61584" lon="3.17698">
        <ele>1233</ele>
        <time>2014-06-02T15:21:37Z</time>
      </trkpt>
      <trkpt lat="44.61599" lon="3.17704">
        <ele>1231</ele>
        <time>2014-06-02T15:21:47Z</time>
      </trkpt>
      <trkpt lat="44.61607" lon="3.17706">
        <ele>1228</ele>
        <time>2014-06-02T15:21:53Z</time>
      </trkpt>
      <trkpt lat="44.6163" lon="3.17718">
        <ele>1226</ele>
        <time>2014-06-02T15:22:08Z</time>
      </trkpt>
      <trkpt lat="44.61649" lon="3.17731">
        <ele>1224</ele>
        <time>2014-06-02T15:22:19Z</time>
      </trkpt>
      <trkpt lat="44.61667" lon="3.1775">
        <ele>1224</ele>
        <time>2014-06-02T15:22:31Z</time>
      </trkpt>
      <trkpt lat="44.61698" lon="3.1776">
        <ele>1223</ele>
        <time>2014-06-02T15:22:46Z</time>
      </trkpt>
      <trkpt lat="44.61729" lon="3.17752">
        <ele>1223</ele>
        <time>2014-06-02T15:23:00Z</time>
      </trkpt>
      <trkpt lat="44.61752" lon="3.17744">
        <ele>1220</ele>
        <time>2014-06-02T15:23:14Z</time>
      </trkpt>
      <trkpt lat="44.6176" lon="3.17742">
        <ele>1219</ele>
        <time>2014-06-02T15:23:19Z</time>
      </trkpt>
      <trkpt lat="44.61784" lon="3.17736">
        <ele>1216</ele>
        <time>2014-06-02T15:23:34Z</time>
      </trkpt>
      <trkpt lat="44.61805" lon="3.1774">
        <ele>1214</ele>
        <time>2014-06-02T15:23:48Z</time>
      </trkpt>
      <trkpt lat="44.61806" lon="3.17742">
        <ele>1213</ele>
        <time>2014-06-02T15:23:49Z</time>
      </trkpt>
      <trkpt lat="44.61808" lon="3.17743">
        <ele>1213</ele>
        <time>2014-06-02T15:23:50Z</time>
      </trkpt>
      <trkpt lat="44.61809" lon="3.17745">
        <ele>1212</ele>
        <time>2014-06-02T15:23:51Z</time>
      </trkpt>
      <trkpt lat="44.6181" lon="3.17747">
        <ele>1214</ele>
        <time>2014-06-02T15:23:52Z</time>
      </trkpt>
      <trkpt lat="44.61811" lon="3.17749">
        <ele>1212</ele>
        <time>2014-06-02T15:23:53Z</time>
      </trkpt>
      <trkpt lat="44.61812" lon="3.17751">
        <ele>1213</ele>
        <time>2014-06-02T15:23:54Z</time>
      </trkpt>
      <trkpt lat="44.61813" lon="3.17753">
        <ele>1212</ele>
        <time>2014-06-02T15:23:55Z</time>
      </trkpt>
      <trkpt lat="44.61814" lon="3.17755">
        <ele>1213</ele>
        <time>2014-06-02T15:23:56Z</time>
      </trkpt>
      <trkpt lat="44.61816" lon="3.17759">
        <ele>1213</ele>
        <time>2014-06-02T15:23:58Z</time>
      </trkpt>
      <trkpt lat="44.61839" lon="3.17787">
        <ele>1210</ele>
        <time>2014-06-02T15:24:13Z</time>
      </trkpt>
      <trkpt lat="44.6184" lon="3.17788">
        <ele>1211</ele>
        <time>2014-06-02T15:24:14Z</time>
      </trkpt>
      <trkpt lat="44.61842" lon="3.17788">
        <ele>1210</ele>
        <time>2014-06-02T15:24:15Z</time>
      </trkpt>
      <trkpt lat="44.61842" lon="3.17789">
        <ele>1209</ele>
        <time>2014-06-02T15:24:16Z</time>
      </trkpt>
      <trkpt lat="44.61843" lon="3.17789">
        <ele>1211</ele>
        <time>2014-06-02T15:24:21Z</time>
      </trkpt>
      <trkpt lat="44.61843" lon="3.17788">
        <ele>1208</ele>
        <time>2014-06-02T15:24:25Z</time>
      </trkpt>
      <trkpt lat="44.61843" lon="3.17788">
        <ele>1214</ele>
        <time>2014-06-02T15:24:26Z</time>
      </trkpt>
      <trkpt lat="44.61843" lon="3.17788">
        <ele>1207</ele>
        <time>2014-06-02T15:24:27Z</time>
      </trkpt>
      <trkpt lat="44.61842" lon="3.17788">
        <ele>1211</ele>
        <time>2014-06-02T15:24:46Z</time>
      </trkpt>
      <trkpt lat="44.61854" lon="3.17785">
        <ele>1210</ele>
        <time>2014-06-02T15:24:57Z</time>
      </trkpt>
      <trkpt lat="44.61886" lon="3.17772">
        <ele>1209</ele>
        <time>2014-06-02T15:25:10Z</time>
      </trkpt>
      <trkpt lat="44.61889" lon="3.17771">
        <ele>1208</ele>
        <time>2014-06-02T15:25:11Z</time>
      </trkpt>
      <trkpt lat="44.61893" lon="3.17769">
        <ele>1209</ele>
        <time>2014-06-02T15:25:12Z</time>
      </trkpt>
      <trkpt lat="44.61897" lon="3.17769">
        <ele>1208</ele>
        <time>2014-06-02T15:25:13Z</time>
      </trkpt>
      <trkpt lat="44.619" lon="3.1777">
        <ele>1209</ele>
        <time>2014-06-02T15:25:14Z</time>
      </trkpt>
      <trkpt lat="44.61904" lon="3.17772">
        <ele>1210</ele>
        <time>2014-06-02T15:25:15Z</time>
      </trkpt>
      <trkpt lat="44.61908" lon="3.17774">
        <ele>1209</ele>
        <time>2014-06-02T15:25:16Z</time>
      </trkpt>
      <trkpt lat="44.61911" lon="3.17776">
        <ele>1209</ele>
        <time>2014-06-02T15:25:17Z</time>
      </trkpt>
      <trkpt lat="44.61915" lon="3.17778">
        <ele>1209</ele>
        <time>2014-06-02T15:25:18Z</time>
      </trkpt>
      <trkpt lat="44.61919" lon="3.17781">
        <ele>1210</ele>
        <time>2014-06-02T15:25:19Z</time>
      </trkpt>
      <trkpt lat="44.61922" lon="3.17782">
        <ele>1209</ele>
        <time>2014-06-02T15:25:20Z</time>
      </trkpt>
      <trkpt lat="44.61926" lon="3.17781">
        <ele>1210</ele>
        <time>2014-06-02T15:25:21Z</time>
      </trkpt>
      <trkpt lat="44.6193" lon="3.17779">
        <ele>1209</ele>
        <time>2014-06-02T15:25:22Z</time>
      </trkpt>
      <trkpt lat="44.61933" lon="3.17777">
        <ele>1210</ele>
        <time>2014-06-02T15:25:23Z</time>
      </trkpt>
      <trkpt lat="44.61935" lon="3.17776">
        <ele>1210</ele>
        <time>2014-06-02T15:25:24Z</time>
      </trkpt>
      <trkpt lat="44.61938" lon="3.17774">
        <ele>1210</ele>
        <time>2014-06-02T15:25:25Z</time>
      </trkpt>
      <trkpt lat="44.6194" lon="3.17773">
        <ele>1212</ele>
        <time>2014-06-02T15:25:26Z</time>
      </trkpt>
      <trkpt lat="44.61953" lon="3.17777">
        <ele>1213</ele>
        <time>2014-06-02T15:25:31Z</time>
      </trkpt>
      <trkpt lat="44.61957" lon="3.17778">
        <ele>1213</ele>
        <time>2014-06-02T15:25:32Z</time>
      </trkpt>
      <trkpt lat="44.61975" lon="3.17782">
        <ele>1217</ele>
        <time>2014-06-02T15:25:38Z</time>
      </trkpt>
      <trkpt lat="44.61983" lon="3.17787">
        <ele>1219</ele>
        <time>2014-06-02T15:25:42Z</time>
      </trkpt>
      <trkpt lat="44.61993" lon="3.17789">
        <ele>1220</ele>
        <time>2014-06-02T15:25:46Z</time>
      </trkpt>
      <trkpt lat="44.61995" lon="3.1779">
        <ele>1220</ele>
        <time>2014-06-02T15:25:47Z</time>
      </trkpt>
      <trkpt lat="44.61997" lon="3.17791">
        <ele>1220</ele>
        <time>2014-06-02T15:25:48Z</time>
      </trkpt>
      <trkpt lat="44.61999" lon="3.17791">
        <ele>1221</ele>
        <time>2014-06-02T15:25:49Z</time>
      </trkpt>
      <trkpt lat="44.62001" lon="3.17791">
        <ele>1221</ele>
        <time>2014-06-02T15:25:50Z</time>
      </trkpt>
      <trkpt lat="44.62003" lon="3.17791">
        <ele>1221</ele>
        <time>2014-06-02T15:25:51Z</time>
      </trkpt>
      <trkpt lat="44.62006" lon="3.17783">
        <ele>1221</ele>
        <time>2014-06-02T15:25:54Z</time>
      </trkpt>
      <trkpt lat="44.62004" lon="3.17795">
        <ele>1221</ele>
        <time>2014-06-02T15:26:15Z</time>
      </trkpt>
      <trkpt lat="44.62003" lon="3.17813">
        <ele>1222</ele>
        <time>2014-06-02T15:26:22Z</time>
      </trkpt>
      <trkpt lat="44.62002" lon="3.17816">
        <ele>1222</ele>
        <time>2014-06-02T15:26:23Z</time>
      </trkpt>
      <trkpt lat="44.62002" lon="3.17819">
        <ele>1223</ele>
        <time>2014-06-02T15:26:24Z</time>
      </trkpt>
      <trkpt lat="44.62004" lon="3.17825">
        <ele>1222</ele>
        <time>2014-06-02T15:26:27Z</time>
      </trkpt>
      <trkpt lat="44.62004" lon="3.17827">
        <ele>1222</ele>
        <time>2014-06-02T15:26:28Z</time>
      </trkpt>
      <trkpt lat="44.62005" lon="3.17828">
        <ele>1223</ele>
        <time>2014-06-02T15:26:29Z</time>
      </trkpt>
      <trkpt lat="44.62023" lon="3.17827">
        <ele>1225</ele>
        <time>2014-06-02T15:26:36Z</time>
      </trkpt>
      <trkpt lat="44.62049" lon="3.17807">
        <ele>1228</ele>
        <time>2014-06-02T15:26:47Z</time>
      </trkpt>
      <trkpt lat="44.62092" lon="3.17787">
        <ele>1228</ele>
        <time>2014-06-02T15:27:03Z</time>
      </trkpt>
      <trkpt lat="44.62129" lon="3.17774">
        <ele>1228</ele>
        <time>2014-06-02T15:27:17Z</time>
      </trkpt>
      <trkpt lat="44.62153" lon="3.17764">
        <ele>1225</ele>
        <time>2014-06-02T15:27:26Z</time>
      </trkpt>
      <trkpt lat="44.62187" lon="3.17747">
        <ele>1225</ele>
        <time>2014-06-02T15:27:39Z</time>
      </trkpt>
      <trkpt lat="44.62223" lon="3.1773">
        <ele>1225</ele>
        <time>2014-06-02T15:27:52Z</time>
      </trkpt>
      <trkpt lat="44.62261" lon="3.17698">
        <ele>1224</ele>
        <time>2014-06-02T15:28:07Z</time>
      </trkpt>
      <trkpt lat="44.62287" lon="3.17679">
        <ele>1222</ele>
        <time>2014-06-02T15:28:19Z</time>
      </trkpt>
      <trkpt lat="44.62289" lon="3.17677">
        <ele>1223</ele>
        <time>2014-06-02T15:28:20Z</time>
      </trkpt>
      <trkpt lat="44.62296" lon="3.17728">
        <ele>1214.1</ele>
        <time>2014-06-02T15:28:28Z</time>
      </trkpt>
      <trkpt lat="44.6229" lon="3.17816">
        <ele>1217.2</ele>
        <time>2014-06-02T14:09:49Z</time>
      </trkpt>
      <trkpt lat="44.62267" lon="3.17865">
        <ele>1221.8</ele>
        <time>2014-06-02T07:46:13Z</time>
      </trkpt>
      <trkpt lat="44.6225" lon="3.17944">
        <ele>1226</ele>
        <time>2014-06-01T22:49:42Z</time>
      </trkpt>
      <trkpt lat="44.62264" lon="3.18117">
        <ele>1224.6</ele>
        <time>2014-05-25T01:55:59Z</time>
      </trkpt>
      <trkpt lat="44.62231" lon="3.18224">
        <ele>1219.7</ele>
        <time>2014-02-06T08:14:45Z</time>
      </trkpt>
      <trkpt lat="44.62176" lon="3.1829">
        <ele>1217.4</ele>
        <time>2009-11-24T15:00:38Z</time>
      </trkpt>
      <trkpt lat="44.62206" lon="3.18378">
        <ele>1213.1</ele>
      </trkpt>
      <trkpt lat="44.62219" lon="3.18503">
        <ele>1205</ele>
      </trkpt>
      <trkpt lat="44.62219" lon="3.18588">
        <ele>1204.7</ele>
      </trkpt>
      <trkpt lat="44.62229" lon="3.18653">
        <ele>1207.1</ele>
      </trkpt>
      <trkpt lat="44.6233" lon="3.18679">
        <ele>1204.5</ele>
      </trkpt>
      <trkpt lat="44.62428" lon="3.18719">
        <ele>1206.2</ele>
      </trkpt>
      <trkpt lat="44.62538" lon="3.18784">
        <ele>1199.9</ele>
      </trkpt>
      <trkpt lat="44.62595" lon="3.18844">
        <ele>1194.5</ele>
      </trkpt>
      <trkpt lat="44.62626" lon="3.18874">
        <ele>1188.4</ele>
      </trkpt>
      <trkpt lat="44.62666" lon="3.18839">
        <ele>1182.1</ele>
      </trkpt>
      <trkpt lat="44.6268" lon="3.18888">
        <ele>1181.6</ele>
      </trkpt>
      <trkpt lat="44.62732" lon="3.18997">
        <ele>1182.9</ele>
      </trkpt>
      <trkpt lat="44.62742" lon="3.19089">
        <ele>1183.9</ele>
      </trkpt>
      <trkpt lat="44.62756" lon="3.19172">
        <ele>1180.5</ele>
      </trkpt>
      <trkpt lat="44.62768" lon="3.19236">
        <ele>1178.1</ele>
      </trkpt>
      <trkpt lat="44.6279" lon="3.19282">
        <ele>1175.7</ele>
      </trkpt>
      <trkpt lat="44.6282" lon="3.19331">
        <ele>1174.3</ele>
      </trkpt>
      <trkpt lat="44.62849" lon="3.1934">
        <ele>1173</ele>
        <time>2014-06-02T15:36:24Z</time>
      </trkpt>
      <trkpt lat="44.62888" lon="3.19431">
        <ele>1172</ele>
        <time>2014-06-02T15:36:40Z</time>
      </trkpt>
      <trkpt lat="44.62893" lon="3.1945">
        <ele>1172</ele>
        <time>2014-06-02T15:36:43Z</time>
      </trkpt>
      <trkpt lat="44.62894" lon="3.19456">
        <ele>1172</ele>
        <time>2014-06-02T15:36:44Z</time>
      </trkpt>
      <trkpt lat="44.62895" lon="3.1947">
        <ele>1173</ele>
        <time>2014-06-02T15:36:46Z</time>
      </trkpt>
      <trkpt lat="44.62897" lon="3.19484">
        <ele>1173</ele>
        <time>2014-06-02T15:36:48Z</time>
      </trkpt>
      <trkpt lat="44.62919" lon="3.19566">
        <ele>1172</ele>
        <time>2014-06-02T15:37:02Z</time>
      </trkpt>
      <trkpt lat="44.62922" lon="3.19572">
        <ele>1172</ele>
        <time>2014-06-02T15:37:03Z</time>
      </trkpt>
      <trkpt lat="44.62929" lon="3.19589">
        <ele>1172</ele>
        <time>2014-06-02T15:37:06Z</time>
      </trkpt>
      <trkpt lat="44.62939" lon="3.19612">
        <ele>1172</ele>
        <time>2014-06-02T15:37:10Z</time>
      </trkpt>
      <trkpt lat="44.62966" lon="3.19659">
        <ele>1173</ele>
        <time>2014-06-02T15:37:19Z</time>
      </trkpt>
      <trkpt lat="44.6297" lon="3.19669">
        <ele>1172</ele>
        <time>2014-06-02T15:37:21Z</time>
      </trkpt>
      <trkpt lat="44.62982" lon="3.19697">
        <ele>1172</ele>
        <time>2014-06-02T15:37:27Z</time>
      </trkpt>
      <trkpt lat="44.62996" lon="3.19753">
        <ele>1174</ele>
        <time>2014-06-02T15:37:37Z</time>
      </trkpt>
      <trkpt lat="44.63015" lon="3.19829">
        <ele>1173</ele>
        <time>2014-06-02T15:37:51Z</time>
      </trkpt>
      <trkpt lat="44.63016" lon="3.19835">
        <ele>1172</ele>
        <time>2014-06-02T15:37:52Z</time>
      </trkpt>
      <trkpt lat="44.63018" lon="3.1984">
        <ele>1172</ele>
        <time>2014-06-02T15:37:53Z</time>
      </trkpt>
      <trkpt lat="44.63026" lon="3.19874">
        <ele>1172</ele>
        <time>2014-06-02T15:38:00Z</time>
      </trkpt>
      <trkpt lat="44.63027" lon="3.19879">
        <ele>1172</ele>
        <time>2014-06-02T15:38:01Z</time>
      </trkpt>
      <trkpt lat="44.6303" lon="3.1989">
        <ele>1172</ele>
        <time>2014-06-02T15:38:03Z</time>
      </trkpt>
      <trkpt lat="44.63032" lon="3.19896">
        <ele>1172</ele>
        <time>2014-06-02T15:38:04Z</time>
      </trkpt>
      <trkpt lat="44.63033" lon="3.19902">
        <ele>1171</ele>
        <time>2014-06-02T15:38:05Z</time>
      </trkpt>
      <trkpt lat="44.63037" lon="3.19913">
        <ele>1172</ele>
        <time>2014-06-02T15:38:07Z</time>
      </trkpt>
      <trkpt lat="44.63058" lon="3.19979">
        <ele>1169</ele>
        <time>2014-06-02T15:38:18Z</time>
      </trkpt>
      <trkpt lat="44.63062" lon="3.19985">
        <ele>1170</ele>
        <time>2014-06-02T15:38:19Z</time>
      </trkpt>
      <trkpt lat="44.63087" lon="3.20016">
        <ele>1170</ele>
        <time>2014-06-02T15:38:26Z</time>
      </trkpt>
      <trkpt lat="44.63104" lon="3.20043">
        <ele>1171</ele>
        <time>2014-06-02T15:38:33Z</time>
      </trkpt>
      <trkpt lat="44.63128" lon="3.201">
        <ele>1172</ele>
        <time>2014-06-02T15:38:45Z</time>
      </trkpt>
      <trkpt lat="44.63141" lon="3.20165">
        <ele>1171</ele>
        <time>2014-06-02T15:38:57Z</time>
      </trkpt>
      <trkpt lat="44.63159" lon="3.20254">
        <ele>1171</ele>
        <time>2014-06-02T15:39:15Z</time>
      </trkpt>
      <trkpt lat="44.63176" lon="3.20292">
        <ele>1170</ele>
        <time>2014-06-02T15:39:25Z</time>
      </trkpt>
      <trkpt lat="44.63212" lon="3.20322">
        <ele>1168</ele>
        <time>2014-06-02T15:39:39Z</time>
      </trkpt>
      <trkpt lat="44.63211" lon="3.2033">
        <ele>1169</ele>
        <time>2014-06-02T15:39:44Z</time>
      </trkpt>
      <trkpt lat="44.63184" lon="3.20304">
        <ele>1169</ele>
        <time>2014-06-02T15:39:54Z</time>
      </trkpt>
      <trkpt lat="44.63157" lon="3.20251">
        <ele>1171</ele>
        <time>2014-06-02T15:40:07Z</time>
      </trkpt>
      <trkpt lat="44.63142" lon="3.20181">
        <ele>1172</ele>
        <time>2014-06-02T15:40:23Z</time>
      </trkpt>
      <trkpt lat="44.63142" lon="3.20174">
        <ele>1171</ele>
        <time>2014-06-02T15:40:26Z</time>
      </trkpt>
      <trkpt lat="44.6315" lon="3.20208">
        <ele>1172</ele>
        <time>2014-06-02T15:40:35Z</time>
      </trkpt>
      <trkpt lat="44.63152" lon="3.20222">
        <ele>1173</ele>
        <time>2014-06-02T15:40:38Z</time>
      </trkpt>
      <trkpt lat="44.63154" lon="3.2023">
        <ele>1172</ele>
        <time>2014-06-02T15:40:40Z</time>
      </trkpt>
      <trkpt lat="44.63155" lon="3.20234">
        <ele>1167</ele>
        <time>2014-06-02T15:40:41Z</time>
      </trkpt>
      <trkpt lat="44.63155" lon="3.20238">
        <ele>1173</ele>
        <time>2014-06-02T15:40:42Z</time>
      </trkpt>
      <trkpt lat="44.63159" lon="3.20259">
        <ele>1169</ele>
        <time>2014-06-02T15:40:47Z</time>
      </trkpt>
      <trkpt lat="44.6316" lon="3.20264">
        <ele>1172</ele>
        <time>2014-06-02T15:40:48Z</time>
      </trkpt>
      <trkpt lat="44.63161" lon="3.20268">
        <ele>1167</ele>
        <time>2014-06-02T15:40:49Z</time>
      </trkpt>
      <trkpt lat="44.63162" lon="3.20271">
        <ele>1172</ele>
        <time>2014-06-02T15:40:50Z</time>
      </trkpt>
      <trkpt lat="44.63164" lon="3.20275">
        <ele>1167</ele>
        <time>2014-06-02T15:40:51Z</time>
      </trkpt>
      <trkpt lat="44.63166" lon="3.20278">
        <ele>1171</ele>
        <time>2014-06-02T15:40:52Z</time>
      </trkpt>
      <trkpt lat="44.63168" lon="3.20281">
        <ele>1174</ele>
        <time>2014-06-02T15:40:53Z</time>
      </trkpt>
      <trkpt lat="44.6317" lon="3.20284">
        <ele>1167</ele>
        <time>2014-06-02T15:40:54Z</time>
      </trkpt>
      <trkpt lat="44.63172" lon="3.20286">
        <ele>1173</ele>
        <time>2014-06-02T15:40:55Z</time>
      </trkpt>
      <trkpt lat="44.6319" lon="3.20306">
        <ele>1169</ele>
        <time>2014-06-02T15:41:03Z</time>
      </trkpt>
      <trkpt lat="44.63192" lon="3.20308">
        <ele>1173</ele>
        <time>2014-06-02T15:41:04Z</time>
      </trkpt>
      <trkpt lat="44.63195" lon="3.2031">
        <ele>1165</ele>
        <time>2014-06-02T15:41:05Z</time>
      </trkpt>
      <trkpt lat="44.63212" lon="3.20328">
        <ele>1169</ele>
        <time>2014-06-02T15:41:12Z</time>
      </trkpt>
      <trkpt lat="44.63219" lon="3.20395">
        <ele>1168</ele>
        <time>2014-06-02T15:41:26Z</time>
      </trkpt>
      <trkpt lat="44.63218" lon="3.20401">
        <ele>1169</ele>
        <time>2014-06-02T15:41:27Z</time>
      </trkpt>
      <trkpt lat="44.63217" lon="3.20439">
        <ele>1169</ele>
        <time>2014-06-02T15:41:33Z</time>
      </trkpt>
      <trkpt lat="44.63216" lon="3.2047">
        <ele>1168</ele>
        <time>2014-06-02T15:41:38Z</time>
      </trkpt>
      <trkpt lat="44.63214" lon="3.20568">
        <ele>1170</ele>
        <time>2014-06-02T15:41:54Z</time>
      </trkpt>
      <trkpt lat="44.63207" lon="3.20641">
        <ele>1169</ele>
        <time>2014-06-02T15:42:07Z</time>
      </trkpt>
      <trkpt lat="44.63185" lon="3.20705">
        <ele>1169</ele>
        <time>2014-06-02T15:42:20Z</time>
      </trkpt>
      <trkpt lat="44.63167" lon="3.20738">
        <ele>1169</ele>
        <time>2014-06-02T15:42:29Z</time>
      </trkpt>
      <trkpt lat="44.63136" lon="3.2077">
        <ele>1167</ele>
        <time>2014-06-02T15:42:41Z</time>
      </trkpt>
      <trkpt lat="44.63104" lon="3.20809">
        <ele>1166</ele>
        <time>2014-06-02T15:42:56Z</time>
      </trkpt>
      <trkpt lat="44.63077" lon="3.20846">
        <ele>1164</ele>
        <time>2014-06-02T15:43:10Z</time>
      </trkpt>
      <trkpt lat="44.63068" lon="3.2086">
        <ele>1163</ele>
        <time>2014-06-02T15:43:15Z</time>
      </trkpt>
      <trkpt lat="44.63048" lon="3.2091">
        <ele>1162</ele>
        <time>2014-06-02T15:43:30Z</time>
      </trkpt>
      <trkpt lat="44.63048" lon="3.20913">
        <ele>1162</ele>
        <time>2014-06-02T15:43:31Z</time>
      </trkpt>
      <trkpt lat="44.63048" lon="3.20917">
        <ele>1161</ele>
        <time>2014-06-02T15:43:32Z</time>
      </trkpt>
      <trkpt lat="44.63071" lon="3.20942">
        <ele>1160</ele>
        <time>2014-06-02T15:43:41Z</time>
      </trkpt>
      <trkpt lat="44.63075" lon="3.20945">
        <ele>1160</ele>
        <time>2014-06-02T15:43:42Z</time>
      </trkpt>
      <trkpt lat="44.63081" lon="3.20946">
        <ele>1160</ele>
        <time>2014-06-02T15:43:43Z</time>
      </trkpt>
      <trkpt lat="44.63086" lon="3.20948">
        <ele>1161</ele>
        <time>2014-06-02T15:43:44Z</time>
      </trkpt>
      <trkpt lat="44.63092" lon="3.20951">
        <ele>1160</ele>
        <time>2014-06-02T15:43:45Z</time>
      </trkpt>
      <trkpt lat="44.63097" lon="3.20954">
        <ele>1161</ele>
        <time>2014-06-02T15:43:46Z</time>
      </trkpt>
      <trkpt lat="44.63102" lon="3.20959">
        <ele>1162</ele>
        <time>2014-06-02T15:43:47Z</time>
      </trkpt>
      <trkpt lat="44.63106" lon="3.20965">
        <ele>1161</ele>
        <time>2014-06-02T15:43:48Z</time>
      </trkpt>
      <trkpt lat="44.6311" lon="3.20971">
        <ele>1163</ele>
        <time>2014-06-02T15:43:49Z</time>
      </trkpt>
      <trkpt lat="44.63113" lon="3.20977">
        <ele>1164</ele>
        <time>2014-06-02T15:43:50Z</time>
      </trkpt>
      <trkpt lat="44.63116" lon="3.20983">
        <ele>1164</ele>
        <time>2014-06-02T15:43:51Z</time>
      </trkpt>
      <trkpt lat="44.63118" lon="3.2099">
        <ele>1166</ele>
        <time>2014-06-02T15:43:52Z</time>
      </trkpt>
      <trkpt lat="44.63121" lon="3.20995">
        <ele>1165</ele>
        <time>2014-06-02T15:43:53Z</time>
      </trkpt>
      <trkpt lat="44.63123" lon="3.21">
        <ele>1166</ele>
        <time>2014-06-02T15:43:54Z</time>
      </trkpt>
      <trkpt lat="44.63126" lon="3.21005">
        <ele>1167</ele>
        <time>2014-06-02T15:43:55Z</time>
      </trkpt>
      <trkpt lat="44.63163" lon="3.21037">
        <ele>1169</ele>
        <time>2014-06-02T15:44:05Z</time>
      </trkpt>
      <trkpt lat="44.63184" lon="3.21076">
        <ele>1172</ele>
        <time>2014-06-02T15:44:16Z</time>
      </trkpt>
      <trkpt lat="44.63196" lon="3.2109">
        <ele>1172</ele>
        <time>2014-06-02T15:44:21Z</time>
      </trkpt>
      <trkpt lat="44.63219" lon="3.21082">
        <ele>1174</ele>
        <time>2014-06-02T15:44:28Z</time>
      </trkpt>
      <trkpt lat="44.63221" lon="3.21078">
        <ele>1175</ele>
        <time>2014-06-02T15:44:29Z</time>
      </trkpt>
      <trkpt lat="44.63223" lon="3.21076">
        <ele>1175</ele>
        <time>2014-06-02T15:44:30Z</time>
      </trkpt>
      <trkpt lat="44.63225" lon="3.21074">
        <ele>1175</ele>
        <time>2014-06-02T15:44:31Z</time>
      </trkpt>
      <trkpt lat="44.63228" lon="3.21073">
        <ele>1175</ele>
        <time>2014-06-02T15:44:32Z</time>
      </trkpt>
      <trkpt lat="44.63239" lon="3.2108">
        <ele>1177</ele>
        <time>2014-06-02T15:44:36Z</time>
      </trkpt>
      <trkpt lat="44.63265" lon="3.21124">
        <ele>1175</ele>
        <time>2014-06-02T15:44:48Z</time>
      </trkpt>
      <trkpt lat="44.63283" lon="3.21139">
        <ele>1174</ele>
        <time>2014-06-02T15:44:55Z</time>
      </trkpt>
      <trkpt lat="44.63285" lon="3.21141">
        <ele>1174</ele>
        <time>2014-06-02T15:44:56Z</time>
      </trkpt>
      <trkpt lat="44.63319" lon="3.21164">
        <ele>1172</ele>
        <time>2014-06-02T15:45:08Z</time>
      </trkpt>
      <trkpt lat="44.63326" lon="3.21167">
        <ele>1172</ele>
        <time>2014-06-02T15:45:10Z</time>
      </trkpt>
      <trkpt lat="44.6333" lon="3.21169">
        <ele>1172</ele>
        <time>2014-06-02T15:45:11Z</time>
      </trkpt>
      <trkpt lat="44.63334" lon="3.21171">
        <ele>1172</ele>
        <time>2014-06-02T15:45:12Z</time>
      </trkpt>
      <trkpt lat="44.6335" lon="3.21184">
        <ele>1172</ele>
        <time>2014-06-02T15:45:16Z</time>
      </trkpt>
      <trkpt lat="44.63381" lon="3.21215">
        <ele>1172</ele>
        <time>2014-06-02T15:45:26Z</time>
      </trkpt>
      <trkpt lat="44.63399" lon="3.21222">
        <ele>1173</ele>
        <time>2014-06-02T15:45:30Z</time>
      </trkpt>
      <trkpt lat="44.63427" lon="3.2123">
        <ele>1177</ele>
        <time>2014-06-02T15:45:36Z</time>
      </trkpt>
      <trkpt lat="44.63464" lon="3.21248">
        <ele>1178</ele>
        <time>2014-06-02T15:45:46Z</time>
      </trkpt>
      <trkpt lat="44.63519" lon="3.21253">
        <ele>1178</ele>
        <time>2014-06-02T15:46:01Z</time>
      </trkpt>
      <trkpt lat="44.63558" lon="3.21251">
        <ele>1176</ele>
        <time>2014-06-02T15:46:13Z</time>
      </trkpt>
      <trkpt lat="44.63596" lon="3.21231">
        <ele>1177</ele>
        <time>2014-06-02T15:46:24Z</time>
      </trkpt>
      <trkpt lat="44.63607" lon="3.21217">
        <ele>1177</ele>
        <time>2014-06-02T15:46:27Z</time>
      </trkpt>
      <trkpt lat="44.63644" lon="3.21166">
        <ele>1178</ele>
        <time>2014-06-02T15:46:40Z</time>
      </trkpt>
      <trkpt lat="44.63679" lon="3.21135">
        <ele>1178</ele>
        <time>2014-06-02T15:46:52Z</time>
      </trkpt>
      <trkpt lat="44.63705" lon="3.21128">
        <ele>1178</ele>
        <time>2014-06-02T15:47:02Z</time>
      </trkpt>
      <trkpt lat="44.63737" lon="3.2112">
        <ele>1176</ele>
        <time>2014-06-02T15:47:14Z</time>
      </trkpt>
      <trkpt lat="44.6376" lon="3.21118">
        <ele>1175</ele>
        <time>2014-06-02T15:47:23Z</time>
      </trkpt>
      <trkpt lat="44.63768" lon="3.21119">
        <ele>1174</ele>
        <time>2014-06-02T15:47:26Z</time>
      </trkpt>
      <trkpt lat="44.63795" lon="3.21117">
        <ele>1172</ele>
        <time>2014-06-02T15:47:37Z</time>
      </trkpt>
      <trkpt lat="44.6382" lon="3.21109">
        <ele>1170</ele>
        <time>2014-06-02T15:47:47Z</time>
      </trkpt>
      <trkpt lat="44.63852" lon="3.211">
        <ele>1170</ele>
        <time>2014-06-02T15:47:58Z</time>
      </trkpt>
      <trkpt lat="44.63881" lon="3.21088">
        <ele>1168</ele>
        <time>2014-06-02T15:48:12Z</time>
      </trkpt>
      <trkpt lat="44.63913" lon="3.21078">
        <ele>1168</ele>
        <time>2014-06-02T15:48:26Z</time>
      </trkpt>
      <trkpt lat="44.63943" lon="3.21068">
        <ele>1165</ele>
        <time>2014-06-02T15:48:41Z</time>
      </trkpt>
      <trkpt lat="44.63969" lon="3.21069">
        <ele>1162</ele>
        <time>2014-06-02T15:48:55Z</time>
      </trkpt>
      <trkpt lat="44.63994" lon="3.21075">
        <ele>1161</ele>
        <time>2014-06-02T15:49:09Z</time>
      </trkpt>
      <trkpt lat="44.64024" lon="3.2108">
        <ele>1158</ele>
        <time>2014-06-02T15:49:25Z</time>
      </trkpt>
      <trkpt lat="44.64054" lon="3.21086">
        <ele>1156</ele>
        <time>2014-06-02T15:49:39Z</time>
      </trkpt>
      <trkpt lat="44.64104" lon="3.21092">
        <ele>1155</ele>
        <time>2014-06-02T15:49:58Z</time>
      </trkpt>
      <trkpt lat="44.64141" lon="3.21104">
        <ele>1152</ele>
        <time>2014-06-02T15:50:13Z</time>
      </trkpt>
      <trkpt lat="44.64169" lon="3.21125">
        <ele>1150</ele>
        <time>2014-06-02T15:50:26Z</time>
      </trkpt>
      <trkpt lat="44.64201" lon="3.21152">
        <ele>1149</ele>
        <time>2014-06-02T15:50:40Z</time>
      </trkpt>
      <trkpt lat="44.64232" lon="3.21185">
        <ele>1149</ele>
        <time>2014-06-02T15:50:55Z</time>
      </trkpt>
      <trkpt lat="44.64249" lon="3.21172">
        <ele>1149</ele>
        <time>2014-06-02T15:51:03Z</time>
      </trkpt>
      <trkpt lat="44.64279" lon="3.21117">
        <ele>1147</ele>
        <time>2014-06-02T15:51:20Z</time>
      </trkpt>
      <trkpt lat="44.64284" lon="3.21091">
        <ele>1152</ele>
        <time>2014-06-02T16:21:36Z</time>
      </trkpt>
      <trkpt lat="44.64311" lon="3.21055">
        <ele>1147</ele>
        <time>2014-06-02T15:56:58Z</time>
      </trkpt>
      <trkpt lat="44.6431" lon="3.21057">
        <ele>1147</ele>
        <time>2014-06-02T15:56:59Z</time>
      </trkpt>
      <trkpt lat="44.64344" lon="3.21047">
        <ele>1150.6</ele>
        <time>2014-06-03T19:55:39Z</time>
      </trkpt>
      <trkpt lat="44.64403" lon="3.21041">
        <ele>1144.2</ele>
        <time>2014-06-02T16:34:22Z</time>
      </trkpt>
      <trkpt lat="44.64462" lon="3.21016">
        <ele>1139.7</ele>
        <time>2014-06-02T15:58:21Z</time>
      </trkpt>
      <trkpt lat="44.64463" lon="3.21057">
        <ele>1138</ele>
        <time>2014-06-02T15:58:33Z</time>
      </trkpt>
      <trkpt lat="44.64443" lon="3.21094">
        <ele>1136</ele>
        <time>2014-06-02T15:58:44Z</time>
      </trkpt>
      <trkpt lat="44.64464" lon="3.21152">
        <ele>1134</ele>
        <time>2014-06-02T15:58:59Z</time>
      </trkpt>
      <trkpt lat="44.6448" lon="3.212">
        <ele>1134</ele>
        <time>2014-06-02T15:59:11Z</time>
      </trkpt>
      <trkpt lat="44.64488" lon="3.21246">
        <ele>1134</ele>
        <time>2014-06-02T15:59:22Z</time>
      </trkpt>
      <trkpt lat="44.64489" lon="3.2125">
        <ele>1134</ele>
        <time>2014-06-02T15:59:23Z</time>
      </trkpt>
      <trkpt lat="44.6449" lon="3.21278">
        <ele>1133</ele>
        <time>2014-06-02T15:59:29Z</time>
      </trkpt>
      <trkpt lat="44.64495" lon="3.21325">
        <ele>1133</ele>
        <time>2014-06-02T15:59:40Z</time>
      </trkpt>
      <trkpt lat="44.64503" lon="3.21383">
        <ele>1131</ele>
        <time>2014-06-02T15:59:52Z</time>
      </trkpt>
      <trkpt lat="44.64536" lon="3.21419">
        <ele>1131</ele>
        <time>2014-06-02T16:00:03Z</time>
      </trkpt>
      <trkpt lat="44.64586" lon="3.21438">
        <ele>1130</ele>
        <time>2014-06-02T16:00:17Z</time>
      </trkpt>
      <trkpt lat="44.64628" lon="3.21442">
        <ele>1129</ele>
        <time>2014-06-02T16:00:30Z</time>
      </trkpt>
      <trkpt lat="44.64638" lon="3.21443">
        <ele>1128</ele>
        <time>2014-06-02T16:00:33Z</time>
      </trkpt>
      <trkpt lat="44.64672" lon="3.21448">
        <ele>1128</ele>
        <time>2014-06-02T16:00:43Z</time>
      </trkpt>
      <trkpt lat="44.64711" lon="3.21468">
        <ele>1128</ele>
        <time>2014-06-02T16:00:55Z</time>
      </trkpt>
      <trkpt lat="44.64747" lon="3.21493">
        <ele>1128</ele>
        <time>2014-06-02T16:01:06Z</time>
      </trkpt>
      <trkpt lat="44.64774" lon="3.21522">
        <ele>1128</ele>
        <time>2014-06-02T16:01:18Z</time>
      </trkpt>
      <trkpt lat="44.64798" lon="3.21542">
        <ele>1126</ele>
        <time>2014-06-02T16:01:28Z</time>
      </trkpt>
      <trkpt lat="44.64826" lon="3.21571">
        <ele>1124</ele>
        <time>2014-06-02T16:01:41Z</time>
      </trkpt>
      <trkpt lat="44.64856" lon="3.21607">
        <ele>1125</ele>
        <time>2014-06-02T16:01:56Z</time>
      </trkpt>
      <trkpt lat="44.64858" lon="3.21609">
        <ele>1124</ele>
        <time>2014-06-02T16:01:57Z</time>
      </trkpt>
      <trkpt lat="44.6486" lon="3.21611">
        <ele>1124</ele>
        <time>2014-06-02T16:01:58Z</time>
      </trkpt>
      <trkpt lat="44.64862" lon="3.21613">
        <ele>1124</ele>
        <time>2014-06-02T16:01:59Z</time>
      </trkpt>
      <trkpt lat="44.64864" lon="3.21614">
        <ele>1124</ele>
        <time>2014-06-02T16:02:00Z</time>
      </trkpt>
      <trkpt lat="44.64866" lon="3.21616">
        <ele>1124</ele>
        <time>2014-06-02T16:02:01Z</time>
      </trkpt>
      <trkpt lat="44.64893" lon="3.2161">
        <ele>1121</ele>
        <time>2014-06-02T16:02:13Z</time>
      </trkpt>
      <trkpt lat="44.64895" lon="3.21609">
        <ele>1121</ele>
        <time>2014-06-02T16:02:14Z</time>
      </trkpt>
      <trkpt lat="44.64897" lon="3.21608">
        <ele>1122</ele>
        <time>2014-06-02T16:02:15Z</time>
      </trkpt>
      <trkpt lat="44.64899" lon="3.21607">
        <ele>1121</ele>
        <time>2014-06-02T16:02:16Z</time>
      </trkpt>
      <trkpt lat="44.64901" lon="3.21605">
        <ele>1121</ele>
        <time>2014-06-02T16:02:17Z</time>
      </trkpt>
      <trkpt lat="44.64919" lon="3.21597">
        <ele>1119</ele>
        <time>2014-06-02T16:02:27Z</time>
      </trkpt>
      <trkpt lat="44.64965" lon="3.21637">
        <ele>1119</ele>
        <time>2014-06-02T16:02:41Z</time>
      </trkpt>
      <trkpt lat="44.64968" lon="3.21641">
        <ele>1120</ele>
        <time>2014-06-02T16:02:42Z</time>
      </trkpt>
      <trkpt lat="44.6497" lon="3.21645">
        <ele>1120</ele>
        <time>2014-06-02T16:02:43Z</time>
      </trkpt>
      <trkpt lat="44.64978" lon="3.2169">
        <ele>1119</ele>
        <time>2014-06-02T16:02:53Z</time>
      </trkpt>
      <trkpt lat="44.6495" lon="3.21741">
        <ele>1121</ele>
        <time>2014-06-02T16:03:06Z</time>
      </trkpt>
      <trkpt lat="44.64905" lon="3.21782">
        <ele>1121</ele>
        <time>2014-06-02T16:03:20Z</time>
      </trkpt>
      <trkpt lat="44.64873" lon="3.21836">
        <ele>1122</ele>
        <time>2014-06-02T16:03:33Z</time>
      </trkpt>
      <trkpt lat="44.64844" lon="3.21852">
        <ele>1123</ele>
        <time>2014-06-02T16:03:45Z</time>
      </trkpt>
      <trkpt lat="44.64836" lon="3.21865">
        <ele>1120</ele>
        <time>2014-06-02T16:03:51Z</time>
      </trkpt>
      <trkpt lat="44.64817" lon="3.21896">
        <ele>1118</ele>
        <time>2014-06-02T16:04:04Z</time>
      </trkpt>
      <trkpt lat="44.64792" lon="3.21936">
        <ele>1117</ele>
        <time>2014-06-02T16:04:16Z</time>
      </trkpt>
      <trkpt lat="44.64756" lon="3.22006">
        <ele>1116</ele>
        <time>2014-06-02T16:04:34Z</time>
      </trkpt>
      <trkpt lat="44.64726" lon="3.22074">
        <ele>1115</ele>
        <time>2014-06-02T16:04:49Z</time>
      </trkpt>
      <trkpt lat="44.64697" lon="3.22141">
        <ele>1117</ele>
        <time>2014-06-02T16:05:03Z</time>
      </trkpt>
      <trkpt lat="44.64694" lon="3.22146">
        <ele>1117</ele>
        <time>2014-06-02T16:05:04Z</time>
      </trkpt>
      <trkpt lat="44.64684" lon="3.22169">
        <ele>1117</ele>
        <time>2014-06-02T16:05:08Z</time>
      </trkpt>
      <trkpt lat="44.64662" lon="3.22215">
        <ele>1119</ele>
        <time>2014-06-02T16:05:16Z</time>
      </trkpt>
      <trkpt lat="44.64614" lon="3.22258">
        <ele>1121</ele>
        <time>2014-06-02T16:05:31Z</time>
      </trkpt>
      <trkpt lat="44.6457" lon="3.22295">
        <ele>1120</ele>
        <time>2014-06-02T16:05:47Z</time>
      </trkpt>
      <trkpt lat="44.64517" lon="3.22325">
        <ele>1121</ele>
        <time>2014-06-02T16:06:04Z</time>
      </trkpt>
      <trkpt lat="44.64465" lon="3.22318">
        <ele>1120</ele>
        <time>2014-06-02T16:06:21Z</time>
      </trkpt>
      <trkpt lat="44.64423" lon="3.22309">
        <ele>1120</ele>
        <time>2014-06-02T16:06:35Z</time>
      </trkpt>
      <trkpt lat="44.64385" lon="3.22297">
        <ele>1116</ele>
        <time>2014-06-02T16:06:49Z</time>
      </trkpt>
      <trkpt lat="44.64356" lon="3.22283">
        <ele>1114</ele>
        <time>2014-06-02T16:07:01Z</time>
      </trkpt>
      <trkpt lat="44.64312" lon="3.223">
        <ele>1113</ele>
        <time>2014-06-02T16:07:16Z</time>
      </trkpt>
      <trkpt lat="44.64275" lon="3.22314">
        <ele>1113</ele>
        <time>2014-06-02T16:07:29Z</time>
      </trkpt>
      <trkpt lat="44.64241" lon="3.22303">
        <ele>1113</ele>
        <time>2014-06-02T16:07:42Z</time>
      </trkpt>
      <trkpt lat="44.64207" lon="3.22282">
        <ele>1110</ele>
        <time>2014-06-02T16:07:58Z</time>
      </trkpt>
      <trkpt lat="44.64164" lon="3.22278">
        <ele>1108</ele>
        <time>2014-06-02T16:08:15Z</time>
      </trkpt>
      <trkpt lat="44.64126" lon="3.22279">
        <ele>1107</ele>
        <time>2014-06-02T16:08:29Z</time>
      </trkpt>
      <trkpt lat="44.64091" lon="3.22269">
        <ele>1105</ele>
        <time>2014-06-02T16:08:44Z</time>
      </trkpt>
      <trkpt lat="44.6407" lon="3.22237">
        <ele>1101</ele>
        <time>2014-06-02T16:08:59Z</time>
      </trkpt>
      <trkpt lat="44.64053" lon="3.22203">
        <ele>1098</ele>
        <time>2014-06-02T16:09:12Z</time>
      </trkpt>
      <trkpt lat="44.6403" lon="3.22183">
        <ele>1097</ele>
        <time>2014-06-02T16:09:23Z</time>
      </trkpt>
      <trkpt lat="44.64027" lon="3.22183">
        <ele>1097</ele>
        <time>2014-06-02T16:09:24Z</time>
      </trkpt>
      <trkpt lat="44.64014" lon="3.22226">
        <ele>1096</ele>
        <time>2014-06-02T16:09:36Z</time>
      </trkpt>
      <trkpt lat="44.63982" lon="3.2231">
        <ele>1094</ele>
        <time>2014-06-02T16:09:48Z</time>
      </trkpt>
      <trkpt lat="44.63968" lon="3.22407">
        <ele>1096.2</ele>
        <time>2014-06-02T16:12:30Z</time>
      </trkpt>
      <trkpt lat="44.63925" lon="3.2252">
        <ele>1096.9</ele>
        <time>2014-06-02T13:46:08Z</time>
      </trkpt>
      <trkpt lat="44.63905" lon="3.22532">
        <ele>1098.3</ele>
        <time>2014-06-02T16:13:18Z</time>
      </trkpt>
      <trkpt lat="44.63899" lon="3.22596">
        <ele>1100</ele>
        <time>2014-06-02T16:13:18Z</time>
      </trkpt>
      <trkpt lat="44.63833" lon="3.2248">
        <ele>1102.8</ele>
        <time>2014-06-02T16:13:18Z</time>
      </trkpt>
      <trkpt lat="44.63785" lon="3.2254">
        <ele>1107</ele>
        <time>2014-06-02T16:13:18Z</time>
      </trkpt>
      <trkpt lat="44.63686" lon="3.22641">
        <ele>1114</ele>
        <time>2014-06-02T16:13:18Z</time>
      </trkpt>
      <trkpt lat="44.6363" lon="3.22734">
        <ele>1119.8</ele>
        <time>2014-06-02T16:13:18Z</time>
      </trkpt>
      <trkpt lat="44.63524" lon="3.22814">
        <ele>1126.4</ele>
        <time>2014-06-02T16:13:18Z</time>
      </trkpt>
      <trkpt lat="44.63455" lon="3.22886">
        <ele>1127.1</ele>
        <time>2014-06-02T16:13:18Z</time>
      </trkpt>
      <trkpt lat="44.63371" lon="3.22895">
        <ele>1127.1</ele>
        <time>2014-06-02T16:13:18Z</time>
      </trkpt>
      <trkpt lat="44.63354" lon="3.23048">
        <ele>1121.2</ele>
        <time>2014-06-02T16:13:18Z</time>
      </trkpt>
      <trkpt lat="44.63303" lon="3.23201">
        <ele>1120.7</ele>
        <time>2014-06-02T16:13:18Z</time>
      </trkpt>
      <trkpt lat="44.63271" lon="3.23281">
        <ele>1121</ele>
        <time>2014-06-02T16:13:18Z</time>
      </trkpt>
      <trkpt lat="44.63248" lon="3.23352">
        <ele>1120.7</ele>
        <time>2014-06-02T16:13:18Z</time>
      </trkpt>
      <trkpt lat="44.63207" lon="3.23412">
        <ele>1121.6</ele>
        <time>2014-06-02T16:13:18Z</time>
      </trkpt>
      <trkpt lat="44.63166" lon="3.23461">
        <ele>1119.2</ele>
        <time>2014-06-02T16:13:18Z</time>
      </trkpt>
      <trkpt lat="44.63163" lon="3.23467">
        <ele>1118.7</ele>
        <time>2014-06-02T16:13:18Z</time>
      </trkpt>
      <trkpt lat="44.63099" lon="3.23436">
        <ele>1123.3</ele>
        <time>2014-06-02T16:13:18Z</time>
      </trkpt>
      <trkpt lat="44.63055" lon="3.23467">
        <ele>1119.1</ele>
        <time>2014-06-02T16:13:18Z</time>
      </trkpt>
      <trkpt lat="44.62962" lon="3.23541">
        <ele>1108.4</ele>
        <time>2014-06-02T16:13:18Z</time>
      </trkpt>
      <trkpt lat="44.62892" lon="3.23596">
        <ele>1101.8</ele>
        <time>2014-06-02T16:13:18Z</time>
      </trkpt>
      <trkpt lat="44.62806" lon="3.23657">
        <ele>1095.3</ele>
        <time>2014-06-02T16:13:18Z</time>
      </trkpt>
      <trkpt lat="44.62888" lon="3.23739">
        <ele>1087.8</ele>
        <time>2014-06-02T16:13:18Z</time>
      </trkpt>
      <trkpt lat="44.63" lon="3.23778">
        <ele>1086.7</ele>
        <time>2014-06-02T16:13:18Z</time>
      </trkpt>
      <trkpt lat="44.63085" lon="3.2387">
        <ele>1081.9</ele>
        <time>2014-06-02T16:13:18Z</time>
      </trkpt>
    </trkseg>
  </trk>
</gpx>